<?xml version="1.0" encoding="UTF-8" standalone="no" ?>
<gpx xmlns="http://www.topografix.com/GPX/1/1" xmlns:xsi="http://www.w3.org/2001/XMLSchema-instance" xsi:schemaLocation="http://www.topografix.com/GPX/1/1 http://www.topografix.com/GPX/1/1/gpx.xsd" version="1.1" creator="VisuGPX - https://www.visugpx.com">
  <metadata>
    <name>Fractionné Parilly</name>
    <desc><![CDATA[Fractionné Parilly]]></desc>
  </metadata>
  <trk>
    <name><![CDATA[Fractionné Parilly]]></name>
    <trkseg>
      <trkpt lat="45.73773" lon="4.87294">
        <ele>105.59999847412</ele>
        <time>2014-08-28T09:38:57.000Z</time>
      </trkpt>
      <trkpt lat="45.73771" lon="4.87301">
        <ele>105.59999847412</ele>
        <time>2014-08-28T09:38:59.000Z</time>
      </trkpt>
      <trkpt lat="45.73771" lon="4.87318">
        <ele>105.59999847412</ele>
        <time>2014-08-28T09:39:03.000Z</time>
      </trkpt>
      <trkpt lat="45.7377" lon="4.87338">
        <ele>105.59999847412</ele>
        <time>2014-08-28T09:39:10.000Z</time>
      </trkpt>
      <trkpt lat="45.73772" lon="4.87352">
        <ele>105.59999847412</ele>
        <time>2014-08-28T09:39:14.000Z</time>
      </trkpt>
      <trkpt lat="45.73775" lon="4.87371">
        <ele>105.59999847412</ele>
        <time>2014-08-28T09:39:20.000Z</time>
      </trkpt>
      <trkpt lat="45.73771" lon="4.87387">
        <ele>105.59999847412</ele>
        <time>2014-08-28T09:39:25.000Z</time>
      </trkpt>
      <trkpt lat="45.73768" lon="4.87392">
        <ele>105.59999847412</ele>
        <time>2014-08-28T09:39:27.000Z</time>
      </trkpt>
      <trkpt lat="45.73762" lon="4.87393">
        <ele>105.59999847412</ele>
        <time>2014-08-28T09:39:29.000Z</time>
      </trkpt>
      <trkpt lat="45.73755" lon="4.87391">
        <ele>105.59999847412</ele>
        <time>2014-08-28T09:39:32.000Z</time>
      </trkpt>
      <trkpt lat="45.73752" lon="4.87391">
        <ele>105.59999847412</ele>
        <time>2014-08-28T09:39:33.000Z</time>
      </trkpt>
      <trkpt lat="45.7375" lon="4.87392">
        <ele>105.59999847412</ele>
        <time>2014-08-28T09:39:34.000Z</time>
      </trkpt>
      <trkpt lat="45.73744" lon="4.87395">
        <ele>105.59999847412</ele>
        <time>2014-08-28T09:39:36.000Z</time>
      </trkpt>
      <trkpt lat="45.73731" lon="4.87392">
        <ele>105.59999847412</ele>
        <time>2014-08-28T09:39:41.000Z</time>
      </trkpt>
      <trkpt lat="45.73713" lon="4.8739">
        <ele>105.59999847412</ele>
        <time>2014-08-28T09:39:48.000Z</time>
      </trkpt>
      <trkpt lat="45.737" lon="4.87387">
        <ele>105.59999847412</ele>
        <time>2014-08-28T09:39:53.000Z</time>
      </trkpt>
      <trkpt lat="45.73688" lon="4.87387">
        <ele>105.59999847412</ele>
        <time>2014-08-28T09:39:59.000Z</time>
      </trkpt>
      <trkpt lat="45.73675" lon="4.87386">
        <ele>105.59999847412</ele>
        <time>2014-08-28T09:40:04.000Z</time>
      </trkpt>
      <trkpt lat="45.73661" lon="4.87388">
        <ele>106.19999694824</ele>
        <time>2014-08-28T09:40:09.000Z</time>
      </trkpt>
      <trkpt lat="45.73658" lon="4.87389">
        <ele>106.80000305176</ele>
        <time>2014-08-28T09:40:10.000Z</time>
      </trkpt>
      <trkpt lat="45.73655" lon="4.87389">
        <ele>107.40000152588</ele>
        <time>2014-08-28T09:40:11.000Z</time>
      </trkpt>
      <trkpt lat="45.73652" lon="4.8739">
        <ele>107.19999694824</ele>
        <time>2014-08-28T09:40:12.000Z</time>
      </trkpt>
      <trkpt lat="45.7365" lon="4.8739">
        <ele>107.19999694824</ele>
        <time>2014-08-28T09:40:13.000Z</time>
      </trkpt>
      <trkpt lat="45.73646" lon="4.87389">
        <ele>107</ele>
        <time>2014-08-28T09:40:14.000Z</time>
      </trkpt>
      <trkpt lat="45.73643" lon="4.87389">
        <ele>106.80000305176</ele>
        <time>2014-08-28T09:40:15.000Z</time>
      </trkpt>
      <trkpt lat="45.7364" lon="4.87391">
        <ele>106.59999847412</ele>
        <time>2014-08-28T09:40:16.000Z</time>
      </trkpt>
      <trkpt lat="45.73634" lon="4.87392">
        <ele>106.59999847412</ele>
        <time>2014-08-28T09:40:18.000Z</time>
      </trkpt>
      <trkpt lat="45.73623" lon="4.87396">
        <ele>106.59999847412</ele>
        <time>2014-08-28T09:40:22.000Z</time>
      </trkpt>
      <trkpt lat="45.73614" lon="4.87394">
        <ele>106.59999847412</ele>
        <time>2014-08-28T09:40:25.000Z</time>
      </trkpt>
      <trkpt lat="45.73612" lon="4.87395">
        <ele>106.59999847412</ele>
        <time>2014-08-28T09:40:26.000Z</time>
      </trkpt>
      <trkpt lat="45.73599" lon="4.87395">
        <ele>106.59999847412</ele>
        <time>2014-08-28T09:40:31.000Z</time>
      </trkpt>
      <trkpt lat="45.7359" lon="4.87395">
        <ele>106.59999847412</ele>
        <time>2014-08-28T09:40:35.000Z</time>
      </trkpt>
      <trkpt lat="45.73578" lon="4.87396">
        <ele>106.59999847412</ele>
        <time>2014-08-28T09:40:39.000Z</time>
      </trkpt>
      <trkpt lat="45.73565" lon="4.87395">
        <ele>106.59999847412</ele>
        <time>2014-08-28T09:40:44.000Z</time>
      </trkpt>
      <trkpt lat="45.73557" lon="4.87394">
        <ele>106.59999847412</ele>
        <time>2014-08-28T09:40:48.000Z</time>
      </trkpt>
      <trkpt lat="45.73555" lon="4.87394">
        <ele>106.59999847412</ele>
        <time>2014-08-28T09:40:49.000Z</time>
      </trkpt>
      <trkpt lat="45.7355" lon="4.87393">
        <ele>106.59999847412</ele>
        <time>2014-08-28T09:40:52.000Z</time>
      </trkpt>
      <trkpt lat="45.73547" lon="4.87392">
        <ele>106.59999847412</ele>
        <time>2014-08-28T09:40:53.000Z</time>
      </trkpt>
      <trkpt lat="45.73543" lon="4.87389">
        <ele>106.59999847412</ele>
        <time>2014-08-28T09:40:55.000Z</time>
      </trkpt>
      <trkpt lat="45.73541" lon="4.87389">
        <ele>106.59999847412</ele>
        <time>2014-08-28T09:40:56.000Z</time>
      </trkpt>
      <trkpt lat="45.73531" lon="4.87388">
        <ele>106.59999847412</ele>
        <time>2014-08-28T09:41:01.000Z</time>
      </trkpt>
      <trkpt lat="45.73529" lon="4.87387">
        <ele>106.59999847412</ele>
        <time>2014-08-28T09:41:02.000Z</time>
      </trkpt>
      <trkpt lat="45.73517" lon="4.87384">
        <ele>106.59999847412</ele>
        <time>2014-08-28T09:41:06.000Z</time>
      </trkpt>
      <trkpt lat="45.73511" lon="4.87385">
        <ele>106.59999847412</ele>
        <time>2014-08-28T09:41:10.000Z</time>
      </trkpt>
      <trkpt lat="45.735" lon="4.8739">
        <ele>106.59999847412</ele>
        <time>2014-08-28T09:41:14.000Z</time>
      </trkpt>
      <trkpt lat="45.73487" lon="4.8739">
        <ele>106.59999847412</ele>
        <time>2014-08-28T09:41:19.000Z</time>
      </trkpt>
      <trkpt lat="45.73475" lon="4.87389">
        <ele>106.59999847412</ele>
        <time>2014-08-28T09:41:24.000Z</time>
      </trkpt>
      <trkpt lat="45.73455" lon="4.87388">
        <ele>106.59999847412</ele>
        <time>2014-08-28T09:41:32.000Z</time>
      </trkpt>
      <trkpt lat="45.7345" lon="4.87388">
        <ele>106.59999847412</ele>
        <time>2014-08-28T09:41:34.000Z</time>
      </trkpt>
      <trkpt lat="45.73447" lon="4.87388">
        <ele>106.59999847412</ele>
        <time>2014-08-28T09:41:35.000Z</time>
      </trkpt>
      <trkpt lat="45.73433" lon="4.87387">
        <ele>106.59999847412</ele>
        <time>2014-08-28T09:41:40.000Z</time>
      </trkpt>
      <trkpt lat="45.73429" lon="4.87389">
        <ele>106.59999847412</ele>
        <time>2014-08-28T09:41:42.000Z</time>
      </trkpt>
      <trkpt lat="45.73424" lon="4.87389">
        <ele>106.59999847412</ele>
        <time>2014-08-28T09:41:44.000Z</time>
      </trkpt>
      <trkpt lat="45.73418" lon="4.87389">
        <ele>106.59999847412</ele>
        <time>2014-08-28T09:41:46.000Z</time>
      </trkpt>
      <trkpt lat="45.73413" lon="4.87389">
        <ele>107</ele>
        <time>2014-08-28T09:41:48.000Z</time>
      </trkpt>
      <trkpt lat="45.73412" lon="4.8739">
        <ele>107.40000152588</ele>
        <time>2014-08-28T09:41:49.000Z</time>
      </trkpt>
      <trkpt lat="45.73409" lon="4.87389">
        <ele>108</ele>
        <time>2014-08-28T09:41:50.000Z</time>
      </trkpt>
      <trkpt lat="45.73407" lon="4.87388">
        <ele>108.40000152588</ele>
        <time>2014-08-28T09:41:51.000Z</time>
      </trkpt>
      <trkpt lat="45.73405" lon="4.87389">
        <ele>108.80000305176</ele>
        <time>2014-08-28T09:41:52.000Z</time>
      </trkpt>
      <trkpt lat="45.73402" lon="4.87389">
        <ele>108.80000305176</ele>
        <time>2014-08-28T09:41:53.000Z</time>
      </trkpt>
      <trkpt lat="45.7339" lon="4.87392">
        <ele>108.80000305176</ele>
        <time>2014-08-28T09:41:58.000Z</time>
      </trkpt>
      <trkpt lat="45.73385" lon="4.874">
        <ele>108.80000305176</ele>
        <time>2014-08-28T09:42:01.000Z</time>
      </trkpt>
      <trkpt lat="45.73379" lon="4.87415">
        <ele>108.80000305176</ele>
        <time>2014-08-28T09:42:06.000Z</time>
      </trkpt>
      <trkpt lat="45.73371" lon="4.87421">
        <ele>108.80000305176</ele>
        <time>2014-08-28T09:42:09.000Z</time>
      </trkpt>
      <trkpt lat="45.73368" lon="4.87423">
        <ele>108.80000305176</ele>
        <time>2014-08-28T09:42:10.000Z</time>
      </trkpt>
      <trkpt lat="45.73359" lon="4.87429">
        <ele>108.80000305176</ele>
        <time>2014-08-28T09:42:14.000Z</time>
      </trkpt>
      <trkpt lat="45.73304" lon="4.87363">
        <ele>108.80000305176</ele>
        <time>2014-08-28T09:42:19.000Z</time>
      </trkpt>
      <trkpt lat="45.73302" lon="4.8738">
        <ele>108.80000305176</ele>
        <time>2014-08-28T09:42:22.000Z</time>
      </trkpt>
      <trkpt lat="45.73296" lon="4.87395">
        <ele>108.80000305176</ele>
        <time>2014-08-28T09:42:26.000Z</time>
      </trkpt>
      <trkpt lat="45.73291" lon="4.87407">
        <ele>108.80000305176</ele>
        <time>2014-08-28T09:42:30.000Z</time>
      </trkpt>
      <trkpt lat="45.73288" lon="4.87418">
        <ele>108.80000305176</ele>
        <time>2014-08-28T09:42:33.000Z</time>
      </trkpt>
      <trkpt lat="45.73288" lon="4.8743">
        <ele>108.80000305176</ele>
        <time>2014-08-28T09:42:37.000Z</time>
      </trkpt>
      <trkpt lat="45.73279" lon="4.8744">
        <ele>108.80000305176</ele>
        <time>2014-08-28T09:42:41.000Z</time>
      </trkpt>
      <trkpt lat="45.73277" lon="4.87454">
        <ele>108.80000305176</ele>
        <time>2014-08-28T09:42:46.000Z</time>
      </trkpt>
      <trkpt lat="45.73277" lon="4.87468">
        <ele>108.80000305176</ele>
        <time>2014-08-28T09:42:50.000Z</time>
      </trkpt>
      <trkpt lat="45.73271" lon="4.87479">
        <ele>109.19999694824</ele>
        <time>2014-08-28T09:42:54.000Z</time>
      </trkpt>
      <trkpt lat="45.7327" lon="4.87481">
        <ele>109.59999847412</ele>
        <time>2014-08-28T09:42:55.000Z</time>
      </trkpt>
      <trkpt lat="45.73269" lon="4.87482">
        <ele>110</ele>
        <time>2014-08-28T09:42:56.000Z</time>
      </trkpt>
      <trkpt lat="45.73268" lon="4.87485">
        <ele>110.40000152588</ele>
        <time>2014-08-28T09:42:57.000Z</time>
      </trkpt>
      <trkpt lat="45.73267" lon="4.87487">
        <ele>110.80000305176</ele>
        <time>2014-08-28T09:42:58.000Z</time>
      </trkpt>
      <trkpt lat="45.73263" lon="4.87491">
        <ele>110.80000305176</ele>
        <time>2014-08-28T09:43:01.000Z</time>
      </trkpt>
      <trkpt lat="45.73259" lon="4.87502">
        <ele>110.80000305176</ele>
        <time>2014-08-28T09:43:08.000Z</time>
      </trkpt>
      <trkpt lat="45.73251" lon="4.87518">
        <ele>110.80000305176</ele>
        <time>2014-08-28T09:43:13.000Z</time>
      </trkpt>
      <trkpt lat="45.73245" lon="4.87532">
        <ele>110.80000305176</ele>
        <time>2014-08-28T09:43:17.000Z</time>
      </trkpt>
      <trkpt lat="45.73247" lon="4.87543">
        <ele>110.80000305176</ele>
        <time>2014-08-28T09:43:21.000Z</time>
      </trkpt>
      <trkpt lat="45.73243" lon="4.87551">
        <ele>110.80000305176</ele>
        <time>2014-08-28T09:43:24.000Z</time>
      </trkpt>
      <trkpt lat="45.73235" lon="4.87561">
        <ele>110.80000305176</ele>
        <time>2014-08-28T09:43:28.000Z</time>
      </trkpt>
      <trkpt lat="45.73228" lon="4.87573">
        <ele>110.80000305176</ele>
        <time>2014-08-28T09:43:32.000Z</time>
      </trkpt>
      <trkpt lat="45.73227" lon="4.87576">
        <ele>110.80000305176</ele>
        <time>2014-08-28T09:43:33.000Z</time>
      </trkpt>
      <trkpt lat="45.73218" lon="4.87588">
        <ele>110.80000305176</ele>
        <time>2014-08-28T09:43:37.000Z</time>
      </trkpt>
      <trkpt lat="45.73208" lon="4.87596">
        <ele>110.80000305176</ele>
        <time>2014-08-28T09:43:41.000Z</time>
      </trkpt>
      <trkpt lat="45.73198" lon="4.87604">
        <ele>110.80000305176</ele>
        <time>2014-08-28T09:43:46.000Z</time>
      </trkpt>
      <trkpt lat="45.73195" lon="4.87606">
        <ele>110.80000305176</ele>
        <time>2014-08-28T09:43:47.000Z</time>
      </trkpt>
      <trkpt lat="45.73182" lon="4.87619">
        <ele>110.80000305176</ele>
        <time>2014-08-28T09:43:52.000Z</time>
      </trkpt>
      <trkpt lat="45.73174" lon="4.87632">
        <ele>110.80000305176</ele>
        <time>2014-08-28T09:43:57.000Z</time>
      </trkpt>
      <trkpt lat="45.73164" lon="4.87643">
        <ele>110.80000305176</ele>
        <time>2014-08-28T09:44:01.000Z</time>
      </trkpt>
      <trkpt lat="45.73154" lon="4.87653">
        <ele>110.80000305176</ele>
        <time>2014-08-28T09:44:06.000Z</time>
      </trkpt>
      <trkpt lat="45.73146" lon="4.87666">
        <ele>110.80000305176</ele>
        <time>2014-08-28T09:44:11.000Z</time>
      </trkpt>
      <trkpt lat="45.73143" lon="4.87668">
        <ele>110.80000305176</ele>
        <time>2014-08-28T09:44:12.000Z</time>
      </trkpt>
      <trkpt lat="45.73137" lon="4.87675">
        <ele>110.80000305176</ele>
        <time>2014-08-28T09:44:15.000Z</time>
      </trkpt>
      <trkpt lat="45.73127" lon="4.87694">
        <ele>110.80000305176</ele>
        <time>2014-08-28T09:44:22.000Z</time>
      </trkpt>
      <trkpt lat="45.73117" lon="4.87707">
        <ele>110.80000305176</ele>
        <time>2014-08-28T09:44:27.000Z</time>
      </trkpt>
      <trkpt lat="45.7311" lon="4.87716">
        <ele>110.80000305176</ele>
        <time>2014-08-28T09:44:31.000Z</time>
      </trkpt>
      <trkpt lat="45.73105" lon="4.87729">
        <ele>110.80000305176</ele>
        <time>2014-08-28T09:44:35.000Z</time>
      </trkpt>
      <trkpt lat="45.73095" lon="4.87743">
        <ele>110.80000305176</ele>
        <time>2014-08-28T09:44:39.000Z</time>
      </trkpt>
      <trkpt lat="45.73088" lon="4.87757">
        <ele>110.80000305176</ele>
        <time>2014-08-28T09:44:43.000Z</time>
      </trkpt>
      <trkpt lat="45.73077" lon="4.87774">
        <ele>110.80000305176</ele>
        <time>2014-08-28T09:44:48.000Z</time>
      </trkpt>
      <trkpt lat="45.73069" lon="4.87786">
        <ele>110.80000305176</ele>
        <time>2014-08-28T09:44:53.000Z</time>
      </trkpt>
      <trkpt lat="45.73058" lon="4.87801">
        <ele>110.80000305176</ele>
        <time>2014-08-28T09:44:59.000Z</time>
      </trkpt>
      <trkpt lat="45.73046" lon="4.87816">
        <ele>110.80000305176</ele>
        <time>2014-08-28T09:45:04.000Z</time>
      </trkpt>
      <trkpt lat="45.73041" lon="4.87829">
        <ele>110.80000305176</ele>
        <time>2014-08-28T09:45:09.000Z</time>
      </trkpt>
      <trkpt lat="45.73032" lon="4.87839">
        <ele>110.80000305176</ele>
        <time>2014-08-28T09:45:13.000Z</time>
      </trkpt>
      <trkpt lat="45.73028" lon="4.87842">
        <ele>111.19999694824</ele>
        <time>2014-08-28T09:45:15.000Z</time>
      </trkpt>
      <trkpt lat="45.73026" lon="4.87844">
        <ele>111.59999847412</ele>
        <time>2014-08-28T09:45:16.000Z</time>
      </trkpt>
      <trkpt lat="45.73024" lon="4.87846">
        <ele>112</ele>
        <time>2014-08-28T09:45:17.000Z</time>
      </trkpt>
      <trkpt lat="45.73022" lon="4.87849">
        <ele>112.59999847412</ele>
        <time>2014-08-28T09:45:18.000Z</time>
      </trkpt>
      <trkpt lat="45.73019" lon="4.87852">
        <ele>113</ele>
        <time>2014-08-28T09:45:19.000Z</time>
      </trkpt>
      <trkpt lat="45.73014" lon="4.87861">
        <ele>113</ele>
        <time>2014-08-28T09:45:22.000Z</time>
      </trkpt>
      <trkpt lat="45.73004" lon="4.87878">
        <ele>113</ele>
        <time>2014-08-28T09:45:28.000Z</time>
      </trkpt>
      <trkpt lat="45.72993" lon="4.87898">
        <ele>113</ele>
        <time>2014-08-28T09:45:35.000Z</time>
      </trkpt>
      <trkpt lat="45.72992" lon="4.879">
        <ele>113</ele>
        <time>2014-08-28T09:45:36.000Z</time>
      </trkpt>
      <trkpt lat="45.72982" lon="4.87917">
        <ele>113</ele>
        <time>2014-08-28T09:45:42.000Z</time>
      </trkpt>
      <trkpt lat="45.72978" lon="4.8793">
        <ele>113</ele>
        <time>2014-08-28T09:45:47.000Z</time>
      </trkpt>
      <trkpt lat="45.72976" lon="4.87937">
        <ele>113</ele>
        <time>2014-08-28T09:45:49.000Z</time>
      </trkpt>
      <trkpt lat="45.72977" lon="4.87944">
        <ele>113</ele>
        <time>2014-08-28T09:45:51.000Z</time>
      </trkpt>
      <trkpt lat="45.72977" lon="4.87947">
        <ele>113.40000152588</ele>
        <time>2014-08-28T09:45:52.000Z</time>
      </trkpt>
      <trkpt lat="45.72977" lon="4.8795">
        <ele>113.80000305176</ele>
        <time>2014-08-28T09:45:53.000Z</time>
      </trkpt>
      <trkpt lat="45.72976" lon="4.87953">
        <ele>114.19999694824</ele>
        <time>2014-08-28T09:45:54.000Z</time>
      </trkpt>
      <trkpt lat="45.72975" lon="4.87955">
        <ele>115</ele>
        <time>2014-08-28T09:45:55.000Z</time>
      </trkpt>
      <trkpt lat="45.72974" lon="4.87958">
        <ele>115</ele>
        <time>2014-08-28T09:45:56.000Z</time>
      </trkpt>
      <trkpt lat="45.72964" lon="4.87971">
        <ele>115</ele>
        <time>2014-08-28T09:46:01.000Z</time>
      </trkpt>
      <trkpt lat="45.72954" lon="4.87989">
        <ele>115</ele>
        <time>2014-08-28T09:46:07.000Z</time>
      </trkpt>
      <trkpt lat="45.72944" lon="4.87997">
        <ele>115</ele>
        <time>2014-08-28T09:46:12.000Z</time>
      </trkpt>
      <trkpt lat="45.72936" lon="4.8801">
        <ele>115</ele>
        <time>2014-08-28T09:46:18.000Z</time>
      </trkpt>
      <trkpt lat="45.72935" lon="4.88012">
        <ele>115</ele>
        <time>2014-08-28T09:46:20.000Z</time>
      </trkpt>
      <trkpt lat="45.72935" lon="4.88015">
        <ele>115</ele>
        <time>2014-08-28T09:46:21.000Z</time>
      </trkpt>
      <trkpt lat="45.72928" lon="4.88034">
        <ele>115</ele>
        <time>2014-08-28T09:46:27.000Z</time>
      </trkpt>
      <trkpt lat="45.72925" lon="4.8804">
        <ele>115.40000152588</ele>
        <time>2014-08-28T09:46:29.000Z</time>
      </trkpt>
      <trkpt lat="45.72923" lon="4.88043">
        <ele>115.80000305176</ele>
        <time>2014-08-28T09:46:30.000Z</time>
      </trkpt>
      <trkpt lat="45.72921" lon="4.88047">
        <ele>116.19999694824</ele>
        <time>2014-08-28T09:46:31.000Z</time>
      </trkpt>
      <trkpt lat="45.7292" lon="4.8805">
        <ele>116.59999847412</ele>
        <time>2014-08-28T09:46:32.000Z</time>
      </trkpt>
      <trkpt lat="45.72918" lon="4.88053">
        <ele>117</ele>
        <time>2014-08-28T09:46:33.000Z</time>
      </trkpt>
      <trkpt lat="45.72914" lon="4.88066">
        <ele>117</ele>
        <time>2014-08-28T09:46:37.000Z</time>
      </trkpt>
      <trkpt lat="45.72908" lon="4.88078">
        <ele>117</ele>
        <time>2014-08-28T09:46:41.000Z</time>
      </trkpt>
      <trkpt lat="45.72903" lon="4.88091">
        <ele>117</ele>
        <time>2014-08-28T09:46:45.000Z</time>
      </trkpt>
      <trkpt lat="45.72893" lon="4.88104">
        <ele>117</ele>
        <time>2014-08-28T09:46:49.000Z</time>
      </trkpt>
      <trkpt lat="45.72887" lon="4.88117">
        <ele>117</ele>
        <time>2014-08-28T09:46:53.000Z</time>
      </trkpt>
      <trkpt lat="45.72885" lon="4.88125">
        <ele>117</ele>
        <time>2014-08-28T09:46:56.000Z</time>
      </trkpt>
      <trkpt lat="45.72878" lon="4.88142">
        <ele>117</ele>
        <time>2014-08-28T09:47:01.000Z</time>
      </trkpt>
      <trkpt lat="45.72873" lon="4.88154">
        <ele>117</ele>
        <time>2014-08-28T09:47:05.000Z</time>
      </trkpt>
      <trkpt lat="45.72866" lon="4.8817">
        <ele>117.80000305176</ele>
        <time>2014-08-28T09:47:09.000Z</time>
      </trkpt>
      <trkpt lat="45.72865" lon="4.88174">
        <ele>118.19999694824</ele>
        <time>2014-08-28T09:47:10.000Z</time>
      </trkpt>
      <trkpt lat="45.72863" lon="4.88178">
        <ele>118.59999847412</ele>
        <time>2014-08-28T09:47:11.000Z</time>
      </trkpt>
      <trkpt lat="45.72862" lon="4.88181">
        <ele>119</ele>
        <time>2014-08-28T09:47:12.000Z</time>
      </trkpt>
      <trkpt lat="45.72855" lon="4.88197">
        <ele>119</ele>
        <time>2014-08-28T09:47:16.000Z</time>
      </trkpt>
      <trkpt lat="45.72852" lon="4.8821">
        <ele>119</ele>
        <time>2014-08-28T09:47:20.000Z</time>
      </trkpt>
      <trkpt lat="45.72845" lon="4.88228">
        <ele>119</ele>
        <time>2014-08-28T09:47:26.000Z</time>
      </trkpt>
      <trkpt lat="45.72838" lon="4.88244">
        <ele>119</ele>
        <time>2014-08-28T09:47:31.000Z</time>
      </trkpt>
      <trkpt lat="45.72834" lon="4.88255">
        <ele>119</ele>
        <time>2014-08-28T09:47:35.000Z</time>
      </trkpt>
      <trkpt lat="45.72832" lon="4.8826">
        <ele>119</ele>
        <time>2014-08-28T09:47:37.000Z</time>
      </trkpt>
      <trkpt lat="45.72828" lon="4.88268">
        <ele>119</ele>
        <time>2014-08-28T09:47:40.000Z</time>
      </trkpt>
      <trkpt lat="45.72825" lon="4.88274">
        <ele>119</ele>
        <time>2014-08-28T09:47:44.000Z</time>
      </trkpt>
      <trkpt lat="45.72823" lon="4.88274">
        <ele>119.40000152588</ele>
        <time>2014-08-28T09:47:50.000Z</time>
      </trkpt>
      <trkpt lat="45.72822" lon="4.88277">
        <ele>119.80000305176</ele>
        <time>2014-08-28T09:47:51.000Z</time>
      </trkpt>
      <trkpt lat="45.72821" lon="4.8828">
        <ele>120.19999694824</ele>
        <time>2014-08-28T09:47:52.000Z</time>
      </trkpt>
      <trkpt lat="45.72821" lon="4.88282">
        <ele>120.59999847412</ele>
        <time>2014-08-28T09:47:53.000Z</time>
      </trkpt>
      <trkpt lat="45.72821" lon="4.88285">
        <ele>121.19999694824</ele>
        <time>2014-08-28T09:47:54.000Z</time>
      </trkpt>
      <trkpt lat="45.72821" lon="4.88288">
        <ele>121.19999694824</ele>
        <time>2014-08-28T09:47:55.000Z</time>
      </trkpt>
      <trkpt lat="45.7282" lon="4.8829">
        <ele>121.19999694824</ele>
        <time>2014-08-28T09:47:56.000Z</time>
      </trkpt>
      <trkpt lat="45.72815" lon="4.88299">
        <ele>121.19999694824</ele>
        <time>2014-08-28T09:47:59.000Z</time>
      </trkpt>
      <trkpt lat="45.72813" lon="4.88302">
        <ele>121.19999694824</ele>
        <time>2014-08-28T09:48:00.000Z</time>
      </trkpt>
      <trkpt lat="45.72811" lon="4.88305">
        <ele>121.19999694824</ele>
        <time>2014-08-28T09:48:01.000Z</time>
      </trkpt>
      <trkpt lat="45.7281" lon="4.88311">
        <ele>121.19999694824</ele>
        <time>2014-08-28T09:48:03.000Z</time>
      </trkpt>
      <trkpt lat="45.72804" lon="4.88325">
        <ele>121.19999694824</ele>
        <time>2014-08-28T09:48:07.000Z</time>
      </trkpt>
      <trkpt lat="45.72797" lon="4.88343">
        <ele>121.19999694824</ele>
        <time>2014-08-28T09:48:12.000Z</time>
      </trkpt>
      <trkpt lat="45.72796" lon="4.88346">
        <ele>121.19999694824</ele>
        <time>2014-08-28T09:48:13.000Z</time>
      </trkpt>
      <trkpt lat="45.72792" lon="4.88356">
        <ele>121.19999694824</ele>
        <time>2014-08-28T09:48:16.000Z</time>
      </trkpt>
      <trkpt lat="45.72789" lon="4.88363">
        <ele>121.19999694824</ele>
        <time>2014-08-28T09:48:18.000Z</time>
      </trkpt>
      <trkpt lat="45.72784" lon="4.88371">
        <ele>121.19999694824</ele>
        <time>2014-08-28T09:48:21.000Z</time>
      </trkpt>
      <trkpt lat="45.72781" lon="4.88378">
        <ele>121.19999694824</ele>
        <time>2014-08-28T09:48:23.000Z</time>
      </trkpt>
      <trkpt lat="45.72779" lon="4.88381">
        <ele>121.19999694824</ele>
        <time>2014-08-28T09:48:24.000Z</time>
      </trkpt>
      <trkpt lat="45.72774" lon="4.88393">
        <ele>121.19999694824</ele>
        <time>2014-08-28T09:48:28.000Z</time>
      </trkpt>
      <trkpt lat="45.72773" lon="4.88396">
        <ele>121.19999694824</ele>
        <time>2014-08-28T09:48:29.000Z</time>
      </trkpt>
      <trkpt lat="45.72769" lon="4.88407">
        <ele>121.19999694824</ele>
        <time>2014-08-28T09:48:32.000Z</time>
      </trkpt>
      <trkpt lat="45.72763" lon="4.88417">
        <ele>121.59999847412</ele>
        <time>2014-08-28T09:48:35.000Z</time>
      </trkpt>
      <trkpt lat="45.72761" lon="4.88421">
        <ele>122</ele>
        <time>2014-08-28T09:48:36.000Z</time>
      </trkpt>
      <trkpt lat="45.72759" lon="4.88423">
        <ele>122.40000152588</ele>
        <time>2014-08-28T09:48:37.000Z</time>
      </trkpt>
      <trkpt lat="45.72757" lon="4.88426">
        <ele>122.80000305176</ele>
        <time>2014-08-28T09:48:38.000Z</time>
      </trkpt>
      <trkpt lat="45.72755" lon="4.88428">
        <ele>123.19999694824</ele>
        <time>2014-08-28T09:48:39.000Z</time>
      </trkpt>
      <trkpt lat="45.72747" lon="4.88436">
        <ele>123.19999694824</ele>
        <time>2014-08-28T09:48:44.000Z</time>
      </trkpt>
      <trkpt lat="45.72739" lon="4.8845">
        <ele>123.19999694824</ele>
        <time>2014-08-28T09:48:50.000Z</time>
      </trkpt>
      <trkpt lat="45.72734" lon="4.88465">
        <ele>123.19999694824</ele>
        <time>2014-08-28T09:48:55.000Z</time>
      </trkpt>
      <trkpt lat="45.72728" lon="4.8848">
        <ele>123.19999694824</ele>
        <time>2014-08-28T09:49:00.000Z</time>
      </trkpt>
      <trkpt lat="45.72722" lon="4.88495">
        <ele>123.19999694824</ele>
        <time>2014-08-28T09:49:04.000Z</time>
      </trkpt>
      <trkpt lat="45.7272" lon="4.88502">
        <ele>123.59999847412</ele>
        <time>2014-08-28T09:49:06.000Z</time>
      </trkpt>
      <trkpt lat="45.72718" lon="4.88506">
        <ele>124</ele>
        <time>2014-08-28T09:49:07.000Z</time>
      </trkpt>
      <trkpt lat="45.72717" lon="4.88508">
        <ele>124.40000152588</ele>
        <time>2014-08-28T09:49:08.000Z</time>
      </trkpt>
      <trkpt lat="45.72716" lon="4.88512">
        <ele>124.80000305176</ele>
        <time>2014-08-28T09:49:09.000Z</time>
      </trkpt>
      <trkpt lat="45.72714" lon="4.88515">
        <ele>125.19999694824</ele>
        <time>2014-08-28T09:49:10.000Z</time>
      </trkpt>
      <trkpt lat="45.72709" lon="4.88528">
        <ele>125.19999694824</ele>
        <time>2014-08-28T09:49:14.000Z</time>
      </trkpt>
      <trkpt lat="45.72704" lon="4.8854">
        <ele>125.19999694824</ele>
        <time>2014-08-28T09:49:18.000Z</time>
      </trkpt>
      <trkpt lat="45.72697" lon="4.88554">
        <ele>125.19999694824</ele>
        <time>2014-08-28T09:49:24.000Z</time>
      </trkpt>
      <trkpt lat="45.72692" lon="4.88563">
        <ele>125.19999694824</ele>
        <time>2014-08-28T09:49:27.000Z</time>
      </trkpt>
      <trkpt lat="45.72686" lon="4.88576">
        <ele>125.19999694824</ele>
        <time>2014-08-28T09:49:31.000Z</time>
      </trkpt>
      <trkpt lat="45.72678" lon="4.88591">
        <ele>125.19999694824</ele>
        <time>2014-08-28T09:49:36.000Z</time>
      </trkpt>
      <trkpt lat="45.72671" lon="4.88607">
        <ele>125.19999694824</ele>
        <time>2014-08-28T09:49:41.000Z</time>
      </trkpt>
      <trkpt lat="45.72664" lon="4.88619">
        <ele>125.19999694824</ele>
        <time>2014-08-28T09:49:45.000Z</time>
      </trkpt>
      <trkpt lat="45.72662" lon="4.88623">
        <ele>125.19999694824</ele>
        <time>2014-08-28T09:49:46.000Z</time>
      </trkpt>
      <trkpt lat="45.72657" lon="4.88631">
        <ele>125.19999694824</ele>
        <time>2014-08-28T09:49:48.000Z</time>
      </trkpt>
      <trkpt lat="45.72653" lon="4.88639">
        <ele>125.19999694824</ele>
        <time>2014-08-28T09:49:50.000Z</time>
      </trkpt>
      <trkpt lat="45.7265" lon="4.88649">
        <ele>125.19999694824</ele>
        <time>2014-08-28T09:49:53.000Z</time>
      </trkpt>
      <trkpt lat="45.72648" lon="4.88659">
        <ele>125.59999847412</ele>
        <time>2014-08-28T09:49:56.000Z</time>
      </trkpt>
      <trkpt lat="45.72648" lon="4.88663">
        <ele>126</ele>
        <time>2014-08-28T09:49:57.000Z</time>
      </trkpt>
      <trkpt lat="45.72649" lon="4.88665">
        <ele>126.40000152588</ele>
        <time>2014-08-28T09:49:58.000Z</time>
      </trkpt>
      <trkpt lat="45.72649" lon="4.88667">
        <ele>126.80000305176</ele>
        <time>2014-08-28T09:49:59.000Z</time>
      </trkpt>
      <trkpt lat="45.72649" lon="4.88669">
        <ele>127.19999694824</ele>
        <time>2014-08-28T09:50:00.000Z</time>
      </trkpt>
      <trkpt lat="45.72648" lon="4.88674">
        <ele>127.19999694824</ele>
        <time>2014-08-28T09:50:02.000Z</time>
      </trkpt>
      <trkpt lat="45.72645" lon="4.88681">
        <ele>127.19999694824</ele>
        <time>2014-08-28T09:50:05.000Z</time>
      </trkpt>
      <trkpt lat="45.72643" lon="4.88684">
        <ele>127.19999694824</ele>
        <time>2014-08-28T09:50:07.000Z</time>
      </trkpt>
      <trkpt lat="45.72638" lon="4.88685">
        <ele>127.19999694824</ele>
        <time>2014-08-28T09:50:09.000Z</time>
      </trkpt>
      <trkpt lat="45.72632" lon="4.88689">
        <ele>127.19999694824</ele>
        <time>2014-08-28T09:50:12.000Z</time>
      </trkpt>
      <trkpt lat="45.72625" lon="4.88698">
        <ele>127.19999694824</ele>
        <time>2014-08-28T09:50:16.000Z</time>
      </trkpt>
      <trkpt lat="45.72622" lon="4.88703">
        <ele>127.19999694824</ele>
        <time>2014-08-28T09:50:18.000Z</time>
      </trkpt>
      <trkpt lat="45.72615" lon="4.88719">
        <ele>127.19999694824</ele>
        <time>2014-08-28T09:50:23.000Z</time>
      </trkpt>
      <trkpt lat="45.72612" lon="4.88733">
        <ele>127.19999694824</ele>
        <time>2014-08-28T09:50:27.000Z</time>
      </trkpt>
      <trkpt lat="45.72611" lon="4.88735">
        <ele>127.19999694824</ele>
        <time>2014-08-28T09:50:28.000Z</time>
      </trkpt>
      <trkpt lat="45.7261" lon="4.88744">
        <ele>127.19999694824</ele>
        <time>2014-08-28T09:50:33.000Z</time>
      </trkpt>
      <trkpt lat="45.72607" lon="4.88756">
        <ele>127.59999847412</ele>
        <time>2014-08-28T09:50:37.000Z</time>
      </trkpt>
      <trkpt lat="45.72605" lon="4.8876">
        <ele>128</ele>
        <time>2014-08-28T09:50:38.000Z</time>
      </trkpt>
      <trkpt lat="45.72604" lon="4.88764">
        <ele>128.39999389648</ele>
        <time>2014-08-28T09:50:39.000Z</time>
      </trkpt>
      <trkpt lat="45.72602" lon="4.88767">
        <ele>128.80000305176</ele>
        <time>2014-08-28T09:50:40.000Z</time>
      </trkpt>
      <trkpt lat="45.726" lon="4.8877">
        <ele>129.19999694824</ele>
        <time>2014-08-28T09:50:41.000Z</time>
      </trkpt>
      <trkpt lat="45.72599" lon="4.88776">
        <ele>129.19999694824</ele>
        <time>2014-08-28T09:50:43.000Z</time>
      </trkpt>
      <trkpt lat="45.72594" lon="4.88791">
        <ele>129.19999694824</ele>
        <time>2014-08-28T09:50:47.000Z</time>
      </trkpt>
      <trkpt lat="45.72587" lon="4.88809">
        <ele>129.19999694824</ele>
        <time>2014-08-28T09:50:53.000Z</time>
      </trkpt>
      <trkpt lat="45.72583" lon="4.88824">
        <ele>129.19999694824</ele>
        <time>2014-08-28T09:50:57.000Z</time>
      </trkpt>
      <trkpt lat="45.72578" lon="4.88837">
        <ele>129.19999694824</ele>
        <time>2014-08-28T09:51:01.000Z</time>
      </trkpt>
      <trkpt lat="45.72573" lon="4.88854">
        <ele>129.19999694824</ele>
        <time>2014-08-28T09:51:05.000Z</time>
      </trkpt>
      <trkpt lat="45.72569" lon="4.88868">
        <ele>129.19999694824</ele>
        <time>2014-08-28T09:51:09.000Z</time>
      </trkpt>
      <trkpt lat="45.72564" lon="4.88885">
        <ele>129.19999694824</ele>
        <time>2014-08-28T09:51:14.000Z</time>
      </trkpt>
      <trkpt lat="45.72558" lon="4.88903">
        <ele>129.19999694824</ele>
        <time>2014-08-28T09:51:19.000Z</time>
      </trkpt>
      <trkpt lat="45.72551" lon="4.88916">
        <ele>129.19999694824</ele>
        <time>2014-08-28T09:51:23.000Z</time>
      </trkpt>
      <trkpt lat="45.72549" lon="4.88919">
        <ele>129.19999694824</ele>
        <time>2014-08-28T09:51:24.000Z</time>
      </trkpt>
      <trkpt lat="45.72541" lon="4.88936">
        <ele>129.19999694824</ele>
        <time>2014-08-28T09:51:28.000Z</time>
      </trkpt>
      <trkpt lat="45.7254" lon="4.88939">
        <ele>129.60000610352</ele>
        <time>2014-08-28T09:51:29.000Z</time>
      </trkpt>
      <trkpt lat="45.72538" lon="4.88942">
        <ele>130</ele>
        <time>2014-08-28T09:51:30.000Z</time>
      </trkpt>
      <trkpt lat="45.72537" lon="4.88946">
        <ele>130.39999389648</ele>
        <time>2014-08-28T09:51:31.000Z</time>
      </trkpt>
      <trkpt lat="45.72535" lon="4.88949">
        <ele>130.80000305176</ele>
        <time>2014-08-28T09:51:32.000Z</time>
      </trkpt>
      <trkpt lat="45.72534" lon="4.88953">
        <ele>131.19999694824</ele>
        <time>2014-08-28T09:51:33.000Z</time>
      </trkpt>
      <trkpt lat="45.72533" lon="4.88956">
        <ele>131.19999694824</ele>
        <time>2014-08-28T09:51:34.000Z</time>
      </trkpt>
      <trkpt lat="45.72527" lon="4.88973">
        <ele>131.19999694824</ele>
        <time>2014-08-28T09:51:39.000Z</time>
      </trkpt>
      <trkpt lat="45.72524" lon="4.88982">
        <ele>131.19999694824</ele>
        <time>2014-08-28T09:51:42.000Z</time>
      </trkpt>
      <trkpt lat="45.72519" lon="4.88999">
        <ele>131.19999694824</ele>
        <time>2014-08-28T09:51:47.000Z</time>
      </trkpt>
      <trkpt lat="45.72517" lon="4.89014">
        <ele>131.19999694824</ele>
        <time>2014-08-28T09:51:52.000Z</time>
      </trkpt>
      <trkpt lat="45.72517" lon="4.89017">
        <ele>131.19999694824</ele>
        <time>2014-08-28T09:51:53.000Z</time>
      </trkpt>
      <trkpt lat="45.72515" lon="4.89022">
        <ele>131.19999694824</ele>
        <time>2014-08-28T09:51:55.000Z</time>
      </trkpt>
      <trkpt lat="45.72511" lon="4.89037">
        <ele>131.19999694824</ele>
        <time>2014-08-28T09:52:00.000Z</time>
      </trkpt>
      <trkpt lat="45.72505" lon="4.89052">
        <ele>131.19999694824</ele>
        <time>2014-08-28T09:52:05.000Z</time>
      </trkpt>
      <trkpt lat="45.72497" lon="4.89065">
        <ele>131.60000610352</ele>
        <time>2014-08-28T09:52:09.000Z</time>
      </trkpt>
      <trkpt lat="45.72496" lon="4.89067">
        <ele>132</ele>
        <time>2014-08-28T09:52:10.000Z</time>
      </trkpt>
      <trkpt lat="45.72495" lon="4.89069">
        <ele>132.39999389648</ele>
        <time>2014-08-28T09:52:11.000Z</time>
      </trkpt>
      <trkpt lat="45.72494" lon="4.89072">
        <ele>133</ele>
        <time>2014-08-28T09:52:12.000Z</time>
      </trkpt>
      <trkpt lat="45.72493" lon="4.89075">
        <ele>133.39999389648</ele>
        <time>2014-08-28T09:52:13.000Z</time>
      </trkpt>
      <trkpt lat="45.7249" lon="4.89082">
        <ele>133.39999389648</ele>
        <time>2014-08-28T09:52:15.000Z</time>
      </trkpt>
      <trkpt lat="45.72485" lon="4.891">
        <ele>133.39999389648</ele>
        <time>2014-08-28T09:52:20.000Z</time>
      </trkpt>
      <trkpt lat="45.72479" lon="4.89116">
        <ele>133.39999389648</ele>
        <time>2014-08-28T09:52:25.000Z</time>
      </trkpt>
      <trkpt lat="45.72474" lon="4.89132">
        <ele>133.39999389648</ele>
        <time>2014-08-28T09:52:30.000Z</time>
      </trkpt>
      <trkpt lat="45.72467" lon="4.89147">
        <ele>133.39999389648</ele>
        <time>2014-08-28T09:52:35.000Z</time>
      </trkpt>
      <trkpt lat="45.72458" lon="4.89162">
        <ele>133.39999389648</ele>
        <time>2014-08-28T09:52:41.000Z</time>
      </trkpt>
      <trkpt lat="45.72455" lon="4.89167">
        <ele>133.80000305176</ele>
        <time>2014-08-28T09:52:43.000Z</time>
      </trkpt>
      <trkpt lat="45.72453" lon="4.89169">
        <ele>134.19999694824</ele>
        <time>2014-08-28T09:52:44.000Z</time>
      </trkpt>
      <trkpt lat="45.72452" lon="4.89171">
        <ele>134.60000610352</ele>
        <time>2014-08-28T09:52:45.000Z</time>
      </trkpt>
      <trkpt lat="45.7245" lon="4.89173">
        <ele>135</ele>
        <time>2014-08-28T09:52:46.000Z</time>
      </trkpt>
      <trkpt lat="45.72448" lon="4.89175">
        <ele>135.39999389648</ele>
        <time>2014-08-28T09:52:47.000Z</time>
      </trkpt>
      <trkpt lat="45.72436" lon="4.89193">
        <ele>135.39999389648</ele>
        <time>2014-08-28T09:52:53.000Z</time>
      </trkpt>
      <trkpt lat="45.72433" lon="4.89214">
        <ele>135.39999389648</ele>
        <time>2014-08-28T09:52:58.000Z</time>
      </trkpt>
      <trkpt lat="45.72435" lon="4.89223">
        <ele>135.39999389648</ele>
        <time>2014-08-28T09:53:01.000Z</time>
      </trkpt>
      <trkpt lat="45.72436" lon="4.89225">
        <ele>135.39999389648</ele>
        <time>2014-08-28T09:53:02.000Z</time>
      </trkpt>
      <trkpt lat="45.72438" lon="4.89233">
        <ele>135.80000305176</ele>
        <time>2014-08-28T09:53:05.000Z</time>
      </trkpt>
      <trkpt lat="45.72439" lon="4.89236">
        <ele>136.19999694824</ele>
        <time>2014-08-28T09:53:06.000Z</time>
      </trkpt>
      <trkpt lat="45.72439" lon="4.89239">
        <ele>136.60000610352</ele>
        <time>2014-08-28T09:53:07.000Z</time>
      </trkpt>
      <trkpt lat="45.7244" lon="4.89241">
        <ele>137.19999694824</ele>
        <time>2014-08-28T09:53:08.000Z</time>
      </trkpt>
      <trkpt lat="45.72439" lon="4.89244">
        <ele>137.60000610352</ele>
        <time>2014-08-28T09:53:09.000Z</time>
      </trkpt>
      <trkpt lat="45.7244" lon="4.89249">
        <ele>137.60000610352</ele>
        <time>2014-08-28T09:53:11.000Z</time>
      </trkpt>
      <trkpt lat="45.72442" lon="4.89262">
        <ele>137.60000610352</ele>
        <time>2014-08-28T09:53:16.000Z</time>
      </trkpt>
      <trkpt lat="45.72443" lon="4.89266">
        <ele>137.60000610352</ele>
        <time>2014-08-28T09:53:17.000Z</time>
      </trkpt>
      <trkpt lat="45.72445" lon="4.89272">
        <ele>137.60000610352</ele>
        <time>2014-08-28T09:53:19.000Z</time>
      </trkpt>
      <trkpt lat="45.72445" lon="4.89276">
        <ele>138</ele>
        <time>2014-08-28T09:53:20.000Z</time>
      </trkpt>
      <trkpt lat="45.72444" lon="4.8928">
        <ele>138.39999389648</ele>
        <time>2014-08-28T09:53:21.000Z</time>
      </trkpt>
      <trkpt lat="45.72444" lon="4.89283">
        <ele>138.80000305176</ele>
        <time>2014-08-28T09:53:22.000Z</time>
      </trkpt>
      <trkpt lat="45.72443" lon="4.89287">
        <ele>139.19999694824</ele>
        <time>2014-08-28T09:53:23.000Z</time>
      </trkpt>
      <trkpt lat="45.72443" lon="4.8929">
        <ele>139.60000610352</ele>
        <time>2014-08-28T09:53:24.000Z</time>
      </trkpt>
      <trkpt lat="45.72441" lon="4.89301">
        <ele>139.60000610352</ele>
        <time>2014-08-28T09:53:28.000Z</time>
      </trkpt>
      <trkpt lat="45.7244" lon="4.89311">
        <ele>140</ele>
        <time>2014-08-28T09:53:31.000Z</time>
      </trkpt>
      <trkpt lat="45.72439" lon="4.89314">
        <ele>140.60000610352</ele>
        <time>2014-08-28T09:53:32.000Z</time>
      </trkpt>
      <trkpt lat="45.72439" lon="4.89317">
        <ele>141</ele>
        <time>2014-08-28T09:53:33.000Z</time>
      </trkpt>
      <trkpt lat="45.72439" lon="4.89319">
        <ele>141.39999389648</ele>
        <time>2014-08-28T09:53:34.000Z</time>
      </trkpt>
      <trkpt lat="45.7244" lon="4.89322">
        <ele>141.80000305176</ele>
        <time>2014-08-28T09:53:35.000Z</time>
      </trkpt>
      <trkpt lat="45.72442" lon="4.89333">
        <ele>141.80000305176</ele>
        <time>2014-08-28T09:53:39.000Z</time>
      </trkpt>
      <trkpt lat="45.72441" lon="4.89347">
        <ele>142.39999389648</ele>
        <time>2014-08-28T09:53:44.000Z</time>
      </trkpt>
      <trkpt lat="45.72442" lon="4.89349">
        <ele>142.80000305176</ele>
        <time>2014-08-28T09:53:45.000Z</time>
      </trkpt>
      <trkpt lat="45.72442" lon="4.8935">
        <ele>143.19999694824</ele>
        <time>2014-08-28T09:53:46.000Z</time>
      </trkpt>
      <trkpt lat="45.72443" lon="4.8935">
        <ele>143.60000610352</ele>
        <time>2014-08-28T09:53:47.000Z</time>
      </trkpt>
      <trkpt lat="45.72444" lon="4.89351">
        <ele>144</ele>
        <time>2014-08-28T09:53:48.000Z</time>
      </trkpt>
      <trkpt lat="45.72446" lon="4.89352">
        <ele>144</ele>
        <time>2014-08-28T09:53:49.000Z</time>
      </trkpt>
      <trkpt lat="45.72448" lon="4.89355">
        <ele>144.39999389648</ele>
        <time>2014-08-28T09:53:52.000Z</time>
      </trkpt>
      <trkpt lat="45.72449" lon="4.89355">
        <ele>145</ele>
        <time>2014-08-28T09:53:53.000Z</time>
      </trkpt>
      <trkpt lat="45.7245" lon="4.89355">
        <ele>145.39999389648</ele>
        <time>2014-08-28T09:53:54.000Z</time>
      </trkpt>
      <trkpt lat="45.72451" lon="4.89354">
        <ele>145.80000305176</ele>
        <time>2014-08-28T09:53:55.000Z</time>
      </trkpt>
      <trkpt lat="45.72453" lon="4.89354">
        <ele>146.19999694824</ele>
        <time>2014-08-28T09:53:56.000Z</time>
      </trkpt>
      <trkpt lat="45.72458" lon="4.89352">
        <ele>146.19999694824</ele>
        <time>2014-08-28T09:54:01.000Z</time>
      </trkpt>
      <trkpt lat="45.72469" lon="4.89351">
        <ele>146.60000610352</ele>
        <time>2014-08-28T09:54:08.000Z</time>
      </trkpt>
      <trkpt lat="45.72471" lon="4.89351">
        <ele>147</ele>
        <time>2014-08-28T09:54:09.000Z</time>
      </trkpt>
      <trkpt lat="45.72473" lon="4.89352">
        <ele>147.39999389648</ele>
        <time>2014-08-28T09:54:10.000Z</time>
      </trkpt>
      <trkpt lat="45.72474" lon="4.89353">
        <ele>147.80000305176</ele>
        <time>2014-08-28T09:54:11.000Z</time>
      </trkpt>
      <trkpt lat="45.72475" lon="4.89355">
        <ele>148.19999694824</ele>
        <time>2014-08-28T09:54:12.000Z</time>
      </trkpt>
      <trkpt lat="45.72475" lon="4.89357">
        <ele>148.19999694824</ele>
        <time>2014-08-28T09:54:13.000Z</time>
      </trkpt>
      <trkpt lat="45.72475" lon="4.89363">
        <ele>148.60000610352</ele>
        <time>2014-08-28T09:54:16.000Z</time>
      </trkpt>
      <trkpt lat="45.72475" lon="4.89364">
        <ele>149.19999694824</ele>
        <time>2014-08-28T09:54:17.000Z</time>
      </trkpt>
      <trkpt lat="45.72474" lon="4.89366">
        <ele>149.60000610352</ele>
        <time>2014-08-28T09:54:18.000Z</time>
      </trkpt>
      <trkpt lat="45.72474" lon="4.89368">
        <ele>150</ele>
        <time>2014-08-28T09:54:19.000Z</time>
      </trkpt>
      <trkpt lat="45.72473" lon="4.89371">
        <ele>150.39999389648</ele>
        <time>2014-08-28T09:54:20.000Z</time>
      </trkpt>
      <trkpt lat="45.72472" lon="4.89375">
        <ele>150.80000305176</ele>
        <time>2014-08-28T09:54:22.000Z</time>
      </trkpt>
      <trkpt lat="45.72472" lon="4.89377">
        <ele>151.19999694824</ele>
        <time>2014-08-28T09:54:23.000Z</time>
      </trkpt>
      <trkpt lat="45.72472" lon="4.89378">
        <ele>151.60000610352</ele>
        <time>2014-08-28T09:54:24.000Z</time>
      </trkpt>
      <trkpt lat="45.72472" lon="4.89379">
        <ele>152</ele>
        <time>2014-08-28T09:54:25.000Z</time>
      </trkpt>
      <trkpt lat="45.72472" lon="4.89381">
        <ele>152.39999389648</ele>
        <time>2014-08-28T09:54:26.000Z</time>
      </trkpt>
      <trkpt lat="45.72472" lon="4.89384">
        <ele>152.80000305176</ele>
        <time>2014-08-28T09:54:28.000Z</time>
      </trkpt>
      <trkpt lat="45.72471" lon="4.89385">
        <ele>153.39999389648</ele>
        <time>2014-08-28T09:54:29.000Z</time>
      </trkpt>
      <trkpt lat="45.7247" lon="4.89387">
        <ele>153.80000305176</ele>
        <time>2014-08-28T09:54:30.000Z</time>
      </trkpt>
      <trkpt lat="45.72469" lon="4.89389">
        <ele>154.19999694824</ele>
        <time>2014-08-28T09:54:31.000Z</time>
      </trkpt>
      <trkpt lat="45.72468" lon="4.89391">
        <ele>154.80000305176</ele>
        <time>2014-08-28T09:54:32.000Z</time>
      </trkpt>
      <trkpt lat="45.72462" lon="4.89397">
        <ele>154.80000305176</ele>
        <time>2014-08-28T09:54:36.000Z</time>
      </trkpt>
      <trkpt lat="45.72455" lon="4.89406">
        <ele>155.19999694824</ele>
        <time>2014-08-28T09:54:41.000Z</time>
      </trkpt>
      <trkpt lat="45.72454" lon="4.89408">
        <ele>155.80000305176</ele>
        <time>2014-08-28T09:54:42.000Z</time>
      </trkpt>
      <trkpt lat="45.72454" lon="4.8941">
        <ele>156.19999694824</ele>
        <time>2014-08-28T09:54:43.000Z</time>
      </trkpt>
      <trkpt lat="45.72453" lon="4.89412">
        <ele>156.80000305176</ele>
        <time>2014-08-28T09:54:44.000Z</time>
      </trkpt>
      <trkpt lat="45.72453" lon="4.89414">
        <ele>157.19999694824</ele>
        <time>2014-08-28T09:54:45.000Z</time>
      </trkpt>
      <trkpt lat="45.72453" lon="4.89416">
        <ele>157.19999694824</ele>
        <time>2014-08-28T09:54:46.000Z</time>
      </trkpt>
      <trkpt lat="45.72453" lon="4.89417">
        <ele>157.60000610352</ele>
        <time>2014-08-28T09:54:47.000Z</time>
      </trkpt>
      <trkpt lat="45.72454" lon="4.89418">
        <ele>158</ele>
        <time>2014-08-28T09:54:48.000Z</time>
      </trkpt>
      <trkpt lat="45.72454" lon="4.89419">
        <ele>158.39999389648</ele>
        <time>2014-08-28T09:54:49.000Z</time>
      </trkpt>
      <trkpt lat="45.72454" lon="4.8942">
        <ele>158.80000305176</ele>
        <time>2014-08-28T09:54:50.000Z</time>
      </trkpt>
      <trkpt lat="45.72455" lon="4.89421">
        <ele>159.19999694824</ele>
        <time>2014-08-28T09:54:51.000Z</time>
      </trkpt>
      <trkpt lat="45.72456" lon="4.89422">
        <ele>159.19999694824</ele>
        <time>2014-08-28T09:54:52.000Z</time>
      </trkpt>
      <trkpt lat="45.72456" lon="4.89423">
        <ele>159.60000610352</ele>
        <time>2014-08-28T09:54:53.000Z</time>
      </trkpt>
      <trkpt lat="45.72457" lon="4.89424">
        <ele>160.19999694824</ele>
        <time>2014-08-28T09:54:54.000Z</time>
      </trkpt>
      <trkpt lat="45.72457" lon="4.89426">
        <ele>160.60000610352</ele>
        <time>2014-08-28T09:54:55.000Z</time>
      </trkpt>
      <trkpt lat="45.72457" lon="4.89428">
        <ele>161</ele>
        <time>2014-08-28T09:54:56.000Z</time>
      </trkpt>
      <trkpt lat="45.72457" lon="4.8943">
        <ele>161.39999389648</ele>
        <time>2014-08-28T09:54:57.000Z</time>
      </trkpt>
      <trkpt lat="45.72457" lon="4.89433">
        <ele>161.39999389648</ele>
        <time>2014-08-28T09:54:58.000Z</time>
      </trkpt>
      <trkpt lat="45.72458" lon="4.89439">
        <ele>161.80000305176</ele>
        <time>2014-08-28T09:55:00.000Z</time>
      </trkpt>
      <trkpt lat="45.72458" lon="4.89441">
        <ele>162.19999694824</ele>
        <time>2014-08-28T09:55:01.000Z</time>
      </trkpt>
      <trkpt lat="45.72458" lon="4.89443">
        <ele>162.60000610352</ele>
        <time>2014-08-28T09:55:02.000Z</time>
      </trkpt>
      <trkpt lat="45.72458" lon="4.89446">
        <ele>163</ele>
        <time>2014-08-28T09:55:03.000Z</time>
      </trkpt>
      <trkpt lat="45.72459" lon="4.89448">
        <ele>163.60000610352</ele>
        <time>2014-08-28T09:55:04.000Z</time>
      </trkpt>
      <trkpt lat="45.72461" lon="4.89458">
        <ele>163.60000610352</ele>
        <time>2014-08-28T09:55:08.000Z</time>
      </trkpt>
      <trkpt lat="45.72461" lon="4.8946">
        <ele>164</ele>
        <time>2014-08-28T09:55:09.000Z</time>
      </trkpt>
      <trkpt lat="45.72462" lon="4.89463">
        <ele>164.39999389648</ele>
        <time>2014-08-28T09:55:10.000Z</time>
      </trkpt>
      <trkpt lat="45.72462" lon="4.89466">
        <ele>164.80000305176</ele>
        <time>2014-08-28T09:55:11.000Z</time>
      </trkpt>
      <trkpt lat="45.72463" lon="4.89469">
        <ele>165.19999694824</ele>
        <time>2014-08-28T09:55:12.000Z</time>
      </trkpt>
      <trkpt lat="45.72463" lon="4.89472">
        <ele>165.60000610352</ele>
        <time>2014-08-28T09:55:13.000Z</time>
      </trkpt>
      <trkpt lat="45.72465" lon="4.89479">
        <ele>165.60000610352</ele>
        <time>2014-08-28T09:55:16.000Z</time>
      </trkpt>
      <trkpt lat="45.72465" lon="4.89482">
        <ele>166</ele>
        <time>2014-08-28T09:55:17.000Z</time>
      </trkpt>
      <trkpt lat="45.72465" lon="4.89485">
        <ele>166.39999389648</ele>
        <time>2014-08-28T09:55:18.000Z</time>
      </trkpt>
      <trkpt lat="45.72465" lon="4.89487">
        <ele>166.80000305176</ele>
        <time>2014-08-28T09:55:19.000Z</time>
      </trkpt>
      <trkpt lat="45.72465" lon="4.8949">
        <ele>167.19999694824</ele>
        <time>2014-08-28T09:55:20.000Z</time>
      </trkpt>
      <trkpt lat="45.72466" lon="4.89494">
        <ele>167.60000610352</ele>
        <time>2014-08-28T09:55:21.000Z</time>
      </trkpt>
      <trkpt lat="45.72467" lon="4.895">
        <ele>167.60000610352</ele>
        <time>2014-08-28T09:55:23.000Z</time>
      </trkpt>
      <trkpt lat="45.72473" lon="4.89514">
        <ele>167.60000610352</ele>
        <time>2014-08-28T09:55:28.000Z</time>
      </trkpt>
      <trkpt lat="45.72482" lon="4.89525">
        <ele>168</ele>
        <time>2014-08-28T09:55:33.000Z</time>
      </trkpt>
      <trkpt lat="45.72484" lon="4.89527">
        <ele>168.60000610352</ele>
        <time>2014-08-28T09:55:34.000Z</time>
      </trkpt>
      <trkpt lat="45.72485" lon="4.89529">
        <ele>169</ele>
        <time>2014-08-28T09:55:35.000Z</time>
      </trkpt>
      <trkpt lat="45.72486" lon="4.89531">
        <ele>169.39999389648</ele>
        <time>2014-08-28T09:55:36.000Z</time>
      </trkpt>
      <trkpt lat="45.72488" lon="4.89533">
        <ele>169.80000305176</ele>
        <time>2014-08-28T09:55:37.000Z</time>
      </trkpt>
      <trkpt lat="45.72489" lon="4.89536">
        <ele>169.80000305176</ele>
        <time>2014-08-28T09:55:38.000Z</time>
      </trkpt>
      <trkpt lat="45.72498" lon="4.89555">
        <ele>169.80000305176</ele>
        <time>2014-08-28T09:55:45.000Z</time>
      </trkpt>
      <trkpt lat="45.725" lon="4.89556">
        <ele>169.80000305176</ele>
        <time>2014-08-28T09:55:46.000Z</time>
      </trkpt>
      <trkpt lat="45.72505" lon="4.8956">
        <ele>169.80000305176</ele>
        <time>2014-08-28T09:55:49.000Z</time>
      </trkpt>
      <trkpt lat="45.7251" lon="4.89569">
        <ele>169.80000305176</ele>
        <time>2014-08-28T09:55:53.000Z</time>
      </trkpt>
      <trkpt lat="45.72506" lon="4.89582">
        <ele>169.80000305176</ele>
        <time>2014-08-28T09:55:57.000Z</time>
      </trkpt>
      <trkpt lat="45.72501" lon="4.89595">
        <ele>169.80000305176</ele>
        <time>2014-08-28T09:56:01.000Z</time>
      </trkpt>
      <trkpt lat="45.72499" lon="4.89603">
        <ele>169.80000305176</ele>
        <time>2014-08-28T09:56:04.000Z</time>
      </trkpt>
      <trkpt lat="45.72494" lon="4.89616">
        <ele>169.80000305176</ele>
        <time>2014-08-28T09:56:08.000Z</time>
      </trkpt>
      <trkpt lat="45.7249" lon="4.89626">
        <ele>169.80000305176</ele>
        <time>2014-08-28T09:56:12.000Z</time>
      </trkpt>
      <trkpt lat="45.72484" lon="4.89638">
        <ele>169.80000305176</ele>
        <time>2014-08-28T09:56:17.000Z</time>
      </trkpt>
      <trkpt lat="45.7248" lon="4.89653">
        <ele>169.80000305176</ele>
        <time>2014-08-28T09:56:23.000Z</time>
      </trkpt>
      <trkpt lat="45.72474" lon="4.89664">
        <ele>169.80000305176</ele>
        <time>2014-08-28T09:56:29.000Z</time>
      </trkpt>
      <trkpt lat="45.7247" lon="4.89675">
        <ele>169.80000305176</ele>
        <time>2014-08-28T09:56:34.000Z</time>
      </trkpt>
      <trkpt lat="45.72468" lon="4.89679">
        <ele>169.80000305176</ele>
        <time>2014-08-28T09:56:37.000Z</time>
      </trkpt>
      <trkpt lat="45.72465" lon="4.89681">
        <ele>169.80000305176</ele>
        <time>2014-08-28T09:56:39.000Z</time>
      </trkpt>
      <trkpt lat="45.72464" lon="4.89683">
        <ele>169.80000305176</ele>
        <time>2014-08-28T09:56:40.000Z</time>
      </trkpt>
      <trkpt lat="45.72461" lon="4.89689">
        <ele>169.80000305176</ele>
        <time>2014-08-28T09:56:42.000Z</time>
      </trkpt>
      <trkpt lat="45.72457" lon="4.89699">
        <ele>169.80000305176</ele>
        <time>2014-08-28T09:56:45.000Z</time>
      </trkpt>
      <trkpt lat="45.72456" lon="4.89704">
        <ele>169.80000305176</ele>
        <time>2014-08-28T09:56:47.000Z</time>
      </trkpt>
      <trkpt lat="45.72458" lon="4.89706">
        <ele>169.80000305176</ele>
        <time>2014-08-28T09:56:48.000Z</time>
      </trkpt>
      <trkpt lat="45.72462" lon="4.89708">
        <ele>169.80000305176</ele>
        <time>2014-08-28T09:56:50.000Z</time>
      </trkpt>
      <trkpt lat="45.72466" lon="4.89707">
        <ele>169.39999389648</ele>
        <time>2014-08-28T09:56:52.000Z</time>
      </trkpt>
      <trkpt lat="45.72468" lon="4.89707">
        <ele>168.80000305176</ele>
        <time>2014-08-28T09:56:53.000Z</time>
      </trkpt>
      <trkpt lat="45.7247" lon="4.89706">
        <ele>168.39999389648</ele>
        <time>2014-08-28T09:56:54.000Z</time>
      </trkpt>
      <trkpt lat="45.72472" lon="4.89706">
        <ele>168</ele>
        <time>2014-08-28T09:56:55.000Z</time>
      </trkpt>
      <trkpt lat="45.72474" lon="4.89705">
        <ele>167.60000610352</ele>
        <time>2014-08-28T09:56:56.000Z</time>
      </trkpt>
      <trkpt lat="45.72476" lon="4.89704">
        <ele>167.60000610352</ele>
        <time>2014-08-28T09:56:57.000Z</time>
      </trkpt>
      <trkpt lat="45.7249" lon="4.89694">
        <ele>167.60000610352</ele>
        <time>2014-08-28T09:57:04.000Z</time>
      </trkpt>
      <trkpt lat="45.725" lon="4.89688">
        <ele>167.60000610352</ele>
        <time>2014-08-28T09:57:09.000Z</time>
      </trkpt>
      <trkpt lat="45.72521" lon="4.89678">
        <ele>167.60000610352</ele>
        <time>2014-08-28T09:57:18.000Z</time>
      </trkpt>
      <trkpt lat="45.72526" lon="4.89678">
        <ele>167.60000610352</ele>
        <time>2014-08-28T09:57:21.000Z</time>
      </trkpt>
      <trkpt lat="45.72529" lon="4.89682">
        <ele>167.60000610352</ele>
        <time>2014-08-28T09:57:23.000Z</time>
      </trkpt>
      <trkpt lat="45.7254" lon="4.8969">
        <ele>167.60000610352</ele>
        <time>2014-08-28T09:57:28.000Z</time>
      </trkpt>
      <trkpt lat="45.72547" lon="4.897">
        <ele>167.19999694824</ele>
        <time>2014-08-28T09:57:32.000Z</time>
      </trkpt>
      <trkpt lat="45.7255" lon="4.89702">
        <ele>166.80000305176</ele>
        <time>2014-08-28T09:57:33.000Z</time>
      </trkpt>
      <trkpt lat="45.72552" lon="4.89705">
        <ele>166.39999389648</ele>
        <time>2014-08-28T09:57:34.000Z</time>
      </trkpt>
      <trkpt lat="45.72555" lon="4.89708">
        <ele>166</ele>
        <time>2014-08-28T09:57:35.000Z</time>
      </trkpt>
      <trkpt lat="45.72559" lon="4.89712">
        <ele>165.60000610352</ele>
        <time>2014-08-28T09:57:36.000Z</time>
      </trkpt>
      <trkpt lat="45.72563" lon="4.89723">
        <ele>165.60000610352</ele>
        <time>2014-08-28T09:57:38.000Z</time>
      </trkpt>
      <trkpt lat="45.72568" lon="4.89743">
        <ele>165.60000610352</ele>
        <time>2014-08-28T09:57:41.000Z</time>
      </trkpt>
      <trkpt lat="45.72561" lon="4.89757">
        <ele>165.60000610352</ele>
        <time>2014-08-28T09:57:44.000Z</time>
      </trkpt>
      <trkpt lat="45.72553" lon="4.89773">
        <ele>165.60000610352</ele>
        <time>2014-08-28T09:57:47.000Z</time>
      </trkpt>
      <trkpt lat="45.72552" lon="4.89779">
        <ele>165.60000610352</ele>
        <time>2014-08-28T09:57:48.000Z</time>
      </trkpt>
      <trkpt lat="45.72549" lon="4.89784">
        <ele>165.60000610352</ele>
        <time>2014-08-28T09:57:49.000Z</time>
      </trkpt>
      <trkpt lat="45.72548" lon="4.8979">
        <ele>165.60000610352</ele>
        <time>2014-08-28T09:57:50.000Z</time>
      </trkpt>
      <trkpt lat="45.72547" lon="4.89804">
        <ele>165.60000610352</ele>
        <time>2014-08-28T09:57:52.000Z</time>
      </trkpt>
      <trkpt lat="45.72545" lon="4.89809">
        <ele>165.60000610352</ele>
        <time>2014-08-28T09:57:53.000Z</time>
      </trkpt>
      <trkpt lat="45.7254" lon="4.89821">
        <ele>166</ele>
        <time>2014-08-28T09:57:55.000Z</time>
      </trkpt>
      <trkpt lat="45.72538" lon="4.89826">
        <ele>166.39999389648</ele>
        <time>2014-08-28T09:57:56.000Z</time>
      </trkpt>
      <trkpt lat="45.72536" lon="4.89831">
        <ele>166.80000305176</ele>
        <time>2014-08-28T09:57:57.000Z</time>
      </trkpt>
      <trkpt lat="45.72534" lon="4.89836">
        <ele>167.19999694824</ele>
        <time>2014-08-28T09:57:58.000Z</time>
      </trkpt>
      <trkpt lat="45.72532" lon="4.8984">
        <ele>167.60000610352</ele>
        <time>2014-08-28T09:57:59.000Z</time>
      </trkpt>
      <trkpt lat="45.72528" lon="4.8985">
        <ele>167.60000610352</ele>
        <time>2014-08-28T09:58:01.000Z</time>
      </trkpt>
      <trkpt lat="45.72526" lon="4.89856">
        <ele>167.60000610352</ele>
        <time>2014-08-28T09:58:02.000Z</time>
      </trkpt>
      <trkpt lat="45.72525" lon="4.89861">
        <ele>168</ele>
        <time>2014-08-28T09:58:03.000Z</time>
      </trkpt>
      <trkpt lat="45.72524" lon="4.89865">
        <ele>168.39999389648</ele>
        <time>2014-08-28T09:58:04.000Z</time>
      </trkpt>
      <trkpt lat="45.72524" lon="4.89867">
        <ele>169</ele>
        <time>2014-08-28T09:58:05.000Z</time>
      </trkpt>
      <trkpt lat="45.72524" lon="4.89869">
        <ele>169.39999389648</ele>
        <time>2014-08-28T09:58:06.000Z</time>
      </trkpt>
      <trkpt lat="45.72524" lon="4.89869">
        <ele>169.80000305176</ele>
        <time>2014-08-28T09:58:07.000Z</time>
      </trkpt>
      <trkpt lat="45.72523" lon="4.89869">
        <ele>169.80000305176</ele>
        <time>2014-08-28T09:58:09.000Z</time>
      </trkpt>
      <trkpt lat="45.72521" lon="4.89873">
        <ele>169.80000305176</ele>
        <time>2014-08-28T09:58:11.000Z</time>
      </trkpt>
      <trkpt lat="45.72517" lon="4.8988">
        <ele>169.80000305176</ele>
        <time>2014-08-28T09:58:14.000Z</time>
      </trkpt>
      <trkpt lat="45.72514" lon="4.89889">
        <ele>169.80000305176</ele>
        <time>2014-08-28T09:58:17.000Z</time>
      </trkpt>
      <trkpt lat="45.72514" lon="4.89899">
        <ele>169.80000305176</ele>
        <time>2014-08-28T09:58:20.000Z</time>
      </trkpt>
      <trkpt lat="45.72513" lon="4.89902">
        <ele>169.80000305176</ele>
        <time>2014-08-28T09:58:21.000Z</time>
      </trkpt>
      <trkpt lat="45.72509" lon="4.89906">
        <ele>170.19999694824</ele>
        <time>2014-08-28T09:58:23.000Z</time>
      </trkpt>
      <trkpt lat="45.72505" lon="4.89908">
        <ele>170.60000610352</ele>
        <time>2014-08-28T09:58:24.000Z</time>
      </trkpt>
      <trkpt lat="45.72502" lon="4.8991">
        <ele>171</ele>
        <time>2014-08-28T09:58:25.000Z</time>
      </trkpt>
      <trkpt lat="45.725" lon="4.89911">
        <ele>171.60000610352</ele>
        <time>2014-08-28T09:58:26.000Z</time>
      </trkpt>
      <trkpt lat="45.72498" lon="4.89913">
        <ele>172</ele>
        <time>2014-08-28T09:58:27.000Z</time>
      </trkpt>
      <trkpt lat="45.72495" lon="4.89919">
        <ele>172</ele>
        <time>2014-08-28T09:58:29.000Z</time>
      </trkpt>
      <trkpt lat="45.72492" lon="4.89931">
        <ele>172</ele>
        <time>2014-08-28T09:58:32.000Z</time>
      </trkpt>
      <trkpt lat="45.72492" lon="4.89936">
        <ele>172</ele>
        <time>2014-08-28T09:58:33.000Z</time>
      </trkpt>
      <trkpt lat="45.72497" lon="4.89958">
        <ele>172</ele>
        <time>2014-08-28T09:58:37.000Z</time>
      </trkpt>
      <trkpt lat="45.72499" lon="4.8997">
        <ele>172.39999389648</ele>
        <time>2014-08-28T09:58:39.000Z</time>
      </trkpt>
      <trkpt lat="45.725" lon="4.89977">
        <ele>173.19999694824</ele>
        <time>2014-08-28T09:58:40.000Z</time>
      </trkpt>
      <trkpt lat="45.72501" lon="4.89983">
        <ele>173.60000610352</ele>
        <time>2014-08-28T09:58:41.000Z</time>
      </trkpt>
      <trkpt lat="45.72501" lon="4.8999">
        <ele>174</ele>
        <time>2014-08-28T09:58:42.000Z</time>
      </trkpt>
      <trkpt lat="45.72502" lon="4.90009">
        <ele>174</ele>
        <time>2014-08-28T09:58:45.000Z</time>
      </trkpt>
      <trkpt lat="45.72506" lon="4.90041">
        <ele>174</ele>
        <time>2014-08-28T09:58:50.000Z</time>
      </trkpt>
      <trkpt lat="45.72506" lon="4.90055">
        <ele>174</ele>
        <time>2014-08-28T09:58:52.000Z</time>
      </trkpt>
      <trkpt lat="45.72505" lon="4.90068">
        <ele>174</ele>
        <time>2014-08-28T09:58:54.000Z</time>
      </trkpt>
      <trkpt lat="45.72505" lon="4.90093">
        <ele>174</ele>
        <time>2014-08-28T09:58:58.000Z</time>
      </trkpt>
      <trkpt lat="45.72502" lon="4.90107">
        <ele>173.60000610352</ele>
        <time>2014-08-28T09:59:00.000Z</time>
      </trkpt>
      <trkpt lat="45.72501" lon="4.90113">
        <ele>173.19999694824</ele>
        <time>2014-08-28T09:59:01.000Z</time>
      </trkpt>
      <trkpt lat="45.725" lon="4.9012">
        <ele>172.80000305176</ele>
        <time>2014-08-28T09:59:02.000Z</time>
      </trkpt>
      <trkpt lat="45.725" lon="4.90124">
        <ele>172.39999389648</ele>
        <time>2014-08-28T09:59:03.000Z</time>
      </trkpt>
      <trkpt lat="45.72498" lon="4.90128">
        <ele>172</ele>
        <time>2014-08-28T09:59:04.000Z</time>
      </trkpt>
      <trkpt lat="45.72496" lon="4.90131">
        <ele>172</ele>
        <time>2014-08-28T09:59:05.000Z</time>
      </trkpt>
      <trkpt lat="45.72491" lon="4.90138">
        <ele>172</ele>
        <time>2014-08-28T09:59:08.000Z</time>
      </trkpt>
      <trkpt lat="45.72489" lon="4.90138">
        <ele>172</ele>
        <time>2014-08-28T09:59:10.000Z</time>
      </trkpt>
      <trkpt lat="45.72489" lon="4.90139">
        <ele>172</ele>
        <time>2014-08-28T09:59:14.000Z</time>
      </trkpt>
      <trkpt lat="45.72487" lon="4.90141">
        <ele>172</ele>
        <time>2014-08-28T09:59:15.000Z</time>
      </trkpt>
      <trkpt lat="45.72481" lon="4.90152">
        <ele>172</ele>
        <time>2014-08-28T09:59:20.000Z</time>
      </trkpt>
      <trkpt lat="45.72475" lon="4.90162">
        <ele>172</ele>
        <time>2014-08-28T09:59:24.000Z</time>
      </trkpt>
      <trkpt lat="45.7247" lon="4.90168">
        <ele>172</ele>
        <time>2014-08-28T09:59:28.000Z</time>
      </trkpt>
      <trkpt lat="45.72464" lon="4.90174">
        <ele>172</ele>
        <time>2014-08-28T09:59:32.000Z</time>
      </trkpt>
      <trkpt lat="45.72455" lon="4.9019">
        <ele>172</ele>
        <time>2014-08-28T09:59:36.000Z</time>
      </trkpt>
      <trkpt lat="45.72451" lon="4.90194">
        <ele>172</ele>
        <time>2014-08-28T09:59:37.000Z</time>
      </trkpt>
      <trkpt lat="45.72448" lon="4.90198">
        <ele>171.60000610352</ele>
        <time>2014-08-28T09:59:38.000Z</time>
      </trkpt>
      <trkpt lat="45.72445" lon="4.90202">
        <ele>171.19999694824</ele>
        <time>2014-08-28T09:59:39.000Z</time>
      </trkpt>
      <trkpt lat="45.72443" lon="4.90208">
        <ele>170.60000610352</ele>
        <time>2014-08-28T09:59:40.000Z</time>
      </trkpt>
      <trkpt lat="45.72441" lon="4.90213">
        <ele>170.19999694824</ele>
        <time>2014-08-28T09:59:41.000Z</time>
      </trkpt>
      <trkpt lat="45.72438" lon="4.90217">
        <ele>169.80000305176</ele>
        <time>2014-08-28T09:59:42.000Z</time>
      </trkpt>
      <trkpt lat="45.72436" lon="4.90223">
        <ele>169.80000305176</ele>
        <time>2014-08-28T09:59:43.000Z</time>
      </trkpt>
      <trkpt lat="45.72428" lon="4.90245">
        <ele>169.80000305176</ele>
        <time>2014-08-28T09:59:47.000Z</time>
      </trkpt>
      <trkpt lat="45.72426" lon="4.9025">
        <ele>169.80000305176</ele>
        <time>2014-08-28T09:59:48.000Z</time>
      </trkpt>
      <trkpt lat="45.72422" lon="4.90262">
        <ele>169.80000305176</ele>
        <time>2014-08-28T09:59:50.000Z</time>
      </trkpt>
      <trkpt lat="45.7242" lon="4.90268">
        <ele>169.39999389648</ele>
        <time>2014-08-28T09:59:51.000Z</time>
      </trkpt>
      <trkpt lat="45.72418" lon="4.90275">
        <ele>169</ele>
        <time>2014-08-28T09:59:52.000Z</time>
      </trkpt>
      <trkpt lat="45.72417" lon="4.90282">
        <ele>168.60000610352</ele>
        <time>2014-08-28T09:59:53.000Z</time>
      </trkpt>
      <trkpt lat="45.72416" lon="4.90288">
        <ele>167.80000305176</ele>
        <time>2014-08-28T09:59:54.000Z</time>
      </trkpt>
      <trkpt lat="45.72414" lon="4.90294">
        <ele>167.80000305176</ele>
        <time>2014-08-28T09:59:55.000Z</time>
      </trkpt>
      <trkpt lat="45.72408" lon="4.90325">
        <ele>167.80000305176</ele>
        <time>2014-08-28T10:00:00.000Z</time>
      </trkpt>
      <trkpt lat="45.72406" lon="4.90332">
        <ele>167.80000305176</ele>
        <time>2014-08-28T10:00:01.000Z</time>
      </trkpt>
      <trkpt lat="45.72398" lon="4.90346">
        <ele>167.80000305176</ele>
        <time>2014-08-28T10:00:04.000Z</time>
      </trkpt>
      <trkpt lat="45.72397" lon="4.90349">
        <ele>167.80000305176</ele>
        <time>2014-08-28T10:00:05.000Z</time>
      </trkpt>
      <trkpt lat="45.72394" lon="4.90356">
        <ele>167.80000305176</ele>
        <time>2014-08-28T10:00:08.000Z</time>
      </trkpt>
      <trkpt lat="45.72393" lon="4.9036">
        <ele>167.80000305176</ele>
        <time>2014-08-28T10:00:10.000Z</time>
      </trkpt>
      <trkpt lat="45.72391" lon="4.90366">
        <ele>167.80000305176</ele>
        <time>2014-08-28T10:00:12.000Z</time>
      </trkpt>
      <trkpt lat="45.72387" lon="4.90381">
        <ele>167.80000305176</ele>
        <time>2014-08-28T10:00:17.000Z</time>
      </trkpt>
      <trkpt lat="45.72382" lon="4.90399">
        <ele>167.80000305176</ele>
        <time>2014-08-28T10:00:23.000Z</time>
      </trkpt>
      <trkpt lat="45.72378" lon="4.90411">
        <ele>167.80000305176</ele>
        <time>2014-08-28T10:00:28.000Z</time>
      </trkpt>
      <trkpt lat="45.72375" lon="4.90421">
        <ele>167.80000305176</ele>
        <time>2014-08-28T10:00:32.000Z</time>
      </trkpt>
      <trkpt lat="45.72368" lon="4.90437">
        <ele>167.80000305176</ele>
        <time>2014-08-28T10:00:36.000Z</time>
      </trkpt>
      <trkpt lat="45.72363" lon="4.90454">
        <ele>167.80000305176</ele>
        <time>2014-08-28T10:00:39.000Z</time>
      </trkpt>
      <trkpt lat="45.72364" lon="4.90462">
        <ele>167.80000305176</ele>
        <time>2014-08-28T10:00:40.000Z</time>
      </trkpt>
      <trkpt lat="45.72367" lon="4.9048">
        <ele>167.80000305176</ele>
        <time>2014-08-28T10:00:43.000Z</time>
      </trkpt>
      <trkpt lat="45.72371" lon="4.90491">
        <ele>167.80000305176</ele>
        <time>2014-08-28T10:00:45.000Z</time>
      </trkpt>
      <trkpt lat="45.72373" lon="4.90496">
        <ele>167.80000305176</ele>
        <time>2014-08-28T10:00:46.000Z</time>
      </trkpt>
      <trkpt lat="45.72377" lon="4.90506">
        <ele>167.80000305176</ele>
        <time>2014-08-28T10:00:48.000Z</time>
      </trkpt>
      <trkpt lat="45.72381" lon="4.90518">
        <ele>167.80000305176</ele>
        <time>2014-08-28T10:00:50.000Z</time>
      </trkpt>
      <trkpt lat="45.7239" lon="4.90543">
        <ele>167.80000305176</ele>
        <time>2014-08-28T10:00:54.000Z</time>
      </trkpt>
      <trkpt lat="45.72395" lon="4.9056">
        <ele>167.80000305176</ele>
        <time>2014-08-28T10:00:57.000Z</time>
      </trkpt>
      <trkpt lat="45.72397" lon="4.90569">
        <ele>167.80000305176</ele>
        <time>2014-08-28T10:00:59.000Z</time>
      </trkpt>
      <trkpt lat="45.72398" lon="4.90576">
        <ele>167.80000305176</ele>
        <time>2014-08-28T10:01:00.000Z</time>
      </trkpt>
      <trkpt lat="45.72401" lon="4.90588">
        <ele>167.80000305176</ele>
        <time>2014-08-28T10:01:02.000Z</time>
      </trkpt>
      <trkpt lat="45.72404" lon="4.90603">
        <ele>167.80000305176</ele>
        <time>2014-08-28T10:01:06.000Z</time>
      </trkpt>
      <trkpt lat="45.72408" lon="4.90611">
        <ele>167.80000305176</ele>
        <time>2014-08-28T10:01:10.000Z</time>
      </trkpt>
      <trkpt lat="45.72409" lon="4.90613">
        <ele>167.80000305176</ele>
        <time>2014-08-28T10:01:11.000Z</time>
      </trkpt>
      <trkpt lat="45.72416" lon="4.90621">
        <ele>167.80000305176</ele>
        <time>2014-08-28T10:01:16.000Z</time>
      </trkpt>
      <trkpt lat="45.7242" lon="4.90625">
        <ele>167.80000305176</ele>
        <time>2014-08-28T10:01:21.000Z</time>
      </trkpt>
      <trkpt lat="45.7242" lon="4.90625">
        <ele>167.80000305176</ele>
        <time>2014-08-28T10:01:22.000Z</time>
      </trkpt>
      <trkpt lat="45.72421" lon="4.9063">
        <ele>167.80000305176</ele>
        <time>2014-08-28T10:01:24.000Z</time>
      </trkpt>
      <trkpt lat="45.72424" lon="4.9064">
        <ele>167.80000305176</ele>
        <time>2014-08-28T10:01:27.000Z</time>
      </trkpt>
      <trkpt lat="45.72425" lon="4.90648">
        <ele>167.80000305176</ele>
        <time>2014-08-28T10:01:29.000Z</time>
      </trkpt>
      <trkpt lat="45.72427" lon="4.90671">
        <ele>167.80000305176</ele>
        <time>2014-08-28T10:01:35.000Z</time>
      </trkpt>
      <trkpt lat="45.72431" lon="4.90694">
        <ele>167.80000305176</ele>
        <time>2014-08-28T10:01:40.000Z</time>
      </trkpt>
      <trkpt lat="45.72436" lon="4.90722">
        <ele>167.80000305176</ele>
        <time>2014-08-28T10:01:46.000Z</time>
      </trkpt>
      <trkpt lat="45.72436" lon="4.90729">
        <ele>167.80000305176</ele>
        <time>2014-08-28T10:01:47.000Z</time>
      </trkpt>
      <trkpt lat="45.7244" lon="4.90758">
        <ele>167.80000305176</ele>
        <time>2014-08-28T10:01:52.000Z</time>
      </trkpt>
      <trkpt lat="45.72443" lon="4.9079">
        <ele>167.80000305176</ele>
        <time>2014-08-28T10:01:57.000Z</time>
      </trkpt>
      <trkpt lat="45.72445" lon="4.90809">
        <ele>167.80000305176</ele>
        <time>2014-08-28T10:02:00.000Z</time>
      </trkpt>
      <trkpt lat="45.72448" lon="4.90827">
        <ele>167.80000305176</ele>
        <time>2014-08-28T10:02:03.000Z</time>
      </trkpt>
      <trkpt lat="45.72449" lon="4.90834">
        <ele>167.80000305176</ele>
        <time>2014-08-28T10:02:05.000Z</time>
      </trkpt>
      <trkpt lat="45.7245" lon="4.90836">
        <ele>167.80000305176</ele>
        <time>2014-08-28T10:02:06.000Z</time>
      </trkpt>
      <trkpt lat="45.72451" lon="4.90836">
        <ele>167.80000305176</ele>
        <time>2014-08-28T10:02:10.000Z</time>
      </trkpt>
      <trkpt lat="45.72451" lon="4.90839">
        <ele>167.80000305176</ele>
        <time>2014-08-28T10:02:16.000Z</time>
      </trkpt>
      <trkpt lat="45.72451" lon="4.90844">
        <ele>168.19999694824</ele>
        <time>2014-08-28T10:02:18.000Z</time>
      </trkpt>
      <trkpt lat="45.72451" lon="4.90848">
        <ele>168.60000610352</ele>
        <time>2014-08-28T10:02:19.000Z</time>
      </trkpt>
      <trkpt lat="45.72451" lon="4.9085">
        <ele>169</ele>
        <time>2014-08-28T10:02:20.000Z</time>
      </trkpt>
      <trkpt lat="45.72451" lon="4.90852">
        <ele>169.39999389648</ele>
        <time>2014-08-28T10:02:21.000Z</time>
      </trkpt>
      <trkpt lat="45.72451" lon="4.90855">
        <ele>169.80000305176</ele>
        <time>2014-08-28T10:02:22.000Z</time>
      </trkpt>
      <trkpt lat="45.72451" lon="4.90865">
        <ele>169.80000305176</ele>
        <time>2014-08-28T10:02:25.000Z</time>
      </trkpt>
      <trkpt lat="45.72453" lon="4.90882">
        <ele>169.80000305176</ele>
        <time>2014-08-28T10:02:30.000Z</time>
      </trkpt>
      <trkpt lat="45.72455" lon="4.90897">
        <ele>169.80000305176</ele>
        <time>2014-08-28T10:02:34.000Z</time>
      </trkpt>
      <trkpt lat="45.72458" lon="4.90916">
        <ele>170.19999694824</ele>
        <time>2014-08-28T10:02:39.000Z</time>
      </trkpt>
      <trkpt lat="45.72458" lon="4.90922">
        <ele>170.60000610352</ele>
        <time>2014-08-28T10:02:40.000Z</time>
      </trkpt>
      <trkpt lat="45.72458" lon="4.90928">
        <ele>171.19999694824</ele>
        <time>2014-08-28T10:02:41.000Z</time>
      </trkpt>
      <trkpt lat="45.72458" lon="4.90934">
        <ele>171.60000610352</ele>
        <time>2014-08-28T10:02:42.000Z</time>
      </trkpt>
      <trkpt lat="45.72458" lon="4.90941">
        <ele>172</ele>
        <time>2014-08-28T10:02:43.000Z</time>
      </trkpt>
      <trkpt lat="45.72457" lon="4.90956">
        <ele>172</ele>
        <time>2014-08-28T10:02:45.000Z</time>
      </trkpt>
      <trkpt lat="45.72454" lon="4.90985">
        <ele>172</ele>
        <time>2014-08-28T10:02:50.000Z</time>
      </trkpt>
      <trkpt lat="45.72452" lon="4.91">
        <ele>172</ele>
        <time>2014-08-28T10:02:52.000Z</time>
      </trkpt>
      <trkpt lat="45.72451" lon="4.91011">
        <ele>172</ele>
        <time>2014-08-28T10:02:54.000Z</time>
      </trkpt>
      <trkpt lat="45.72451" lon="4.91029">
        <ele>172</ele>
        <time>2014-08-28T10:02:57.000Z</time>
      </trkpt>
      <trkpt lat="45.72449" lon="4.91043">
        <ele>172</ele>
        <time>2014-08-28T10:02:59.000Z</time>
      </trkpt>
      <trkpt lat="45.72446" lon="4.91058">
        <ele>172</ele>
        <time>2014-08-28T10:03:01.000Z</time>
      </trkpt>
      <trkpt lat="45.72442" lon="4.91078">
        <ele>172</ele>
        <time>2014-08-28T10:03:04.000Z</time>
      </trkpt>
      <trkpt lat="45.72442" lon="4.91083">
        <ele>172</ele>
        <time>2014-08-28T10:03:07.000Z</time>
      </trkpt>
      <trkpt lat="45.72443" lon="4.91081">
        <ele>172</ele>
        <time>2014-08-28T10:03:10.000Z</time>
      </trkpt>
      <trkpt lat="45.72442" lon="4.9108">
        <ele>172</ele>
        <time>2014-08-28T10:03:12.000Z</time>
      </trkpt>
      <trkpt lat="45.72441" lon="4.91086">
        <ele>172</ele>
        <time>2014-08-28T10:03:16.000Z</time>
      </trkpt>
      <trkpt lat="45.72441" lon="4.91089">
        <ele>172</ele>
        <time>2014-08-28T10:03:17.000Z</time>
      </trkpt>
      <trkpt lat="45.72439" lon="4.91104">
        <ele>172</ele>
        <time>2014-08-28T10:03:21.000Z</time>
      </trkpt>
      <trkpt lat="45.72437" lon="4.91106">
        <ele>172</ele>
        <time>2014-08-28T10:03:22.000Z</time>
      </trkpt>
      <trkpt lat="45.72434" lon="4.91114">
        <ele>172</ele>
        <time>2014-08-28T10:03:25.000Z</time>
      </trkpt>
      <trkpt lat="45.72431" lon="4.91127">
        <ele>172</ele>
        <time>2014-08-28T10:03:29.000Z</time>
      </trkpt>
      <trkpt lat="45.7243" lon="4.91131">
        <ele>172</ele>
        <time>2014-08-28T10:03:30.000Z</time>
      </trkpt>
      <trkpt lat="45.72424" lon="4.9115">
        <ele>172</ele>
        <time>2014-08-28T10:03:34.000Z</time>
      </trkpt>
      <trkpt lat="45.72422" lon="4.91156">
        <ele>172</ele>
        <time>2014-08-28T10:03:35.000Z</time>
      </trkpt>
      <trkpt lat="45.72418" lon="4.91172">
        <ele>172</ele>
        <time>2014-08-28T10:03:38.000Z</time>
      </trkpt>
      <trkpt lat="45.72412" lon="4.91192">
        <ele>172</ele>
        <time>2014-08-28T10:03:41.000Z</time>
      </trkpt>
      <trkpt lat="45.72405" lon="4.91211">
        <ele>172</ele>
        <time>2014-08-28T10:03:44.000Z</time>
      </trkpt>
      <trkpt lat="45.72399" lon="4.91223">
        <ele>172</ele>
        <time>2014-08-28T10:03:46.000Z</time>
      </trkpt>
      <trkpt lat="45.72395" lon="4.91229">
        <ele>171.60000610352</ele>
        <time>2014-08-28T10:03:47.000Z</time>
      </trkpt>
      <trkpt lat="45.72391" lon="4.91233">
        <ele>171.19999694824</ele>
        <time>2014-08-28T10:03:48.000Z</time>
      </trkpt>
      <trkpt lat="45.72386" lon="4.91239">
        <ele>170.60000610352</ele>
        <time>2014-08-28T10:03:49.000Z</time>
      </trkpt>
      <trkpt lat="45.72383" lon="4.91244">
        <ele>170.19999694824</ele>
        <time>2014-08-28T10:03:50.000Z</time>
      </trkpt>
      <trkpt lat="45.7238" lon="4.91248">
        <ele>169.80000305176</ele>
        <time>2014-08-28T10:03:51.000Z</time>
      </trkpt>
      <trkpt lat="45.72373" lon="4.91259">
        <ele>169.80000305176</ele>
        <time>2014-08-28T10:03:53.000Z</time>
      </trkpt>
      <trkpt lat="45.7237" lon="4.91264">
        <ele>169.80000305176</ele>
        <time>2014-08-28T10:03:54.000Z</time>
      </trkpt>
      <trkpt lat="45.72356" lon="4.91284">
        <ele>169.80000305176</ele>
        <time>2014-08-28T10:03:58.000Z</time>
      </trkpt>
      <trkpt lat="45.72349" lon="4.91294">
        <ele>169.39999389648</ele>
        <time>2014-08-28T10:04:00.000Z</time>
      </trkpt>
      <trkpt lat="45.72345" lon="4.91298">
        <ele>168.60000610352</ele>
        <time>2014-08-28T10:04:01.000Z</time>
      </trkpt>
      <trkpt lat="45.72341" lon="4.91301">
        <ele>168.19999694824</ele>
        <time>2014-08-28T10:04:02.000Z</time>
      </trkpt>
      <trkpt lat="45.72337" lon="4.91304">
        <ele>167.60000610352</ele>
        <time>2014-08-28T10:04:03.000Z</time>
      </trkpt>
      <trkpt lat="45.72334" lon="4.91305">
        <ele>167.60000610352</ele>
        <time>2014-08-28T10:04:05.000Z</time>
      </trkpt>
      <trkpt lat="45.72331" lon="4.91309">
        <ele>167.19999694824</ele>
        <time>2014-08-28T10:04:07.000Z</time>
      </trkpt>
      <trkpt lat="45.7233" lon="4.91309">
        <ele>166.80000305176</ele>
        <time>2014-08-28T10:04:08.000Z</time>
      </trkpt>
      <trkpt lat="45.7233" lon="4.91309">
        <ele>166.39999389648</ele>
        <time>2014-08-28T10:04:09.000Z</time>
      </trkpt>
      <trkpt lat="45.7233" lon="4.91308">
        <ele>166</ele>
        <time>2014-08-28T10:04:10.000Z</time>
      </trkpt>
      <trkpt lat="45.72331" lon="4.91307">
        <ele>165.60000610352</ele>
        <time>2014-08-28T10:04:11.000Z</time>
      </trkpt>
      <trkpt lat="45.72333" lon="4.91308">
        <ele>165.60000610352</ele>
        <time>2014-08-28T10:04:13.000Z</time>
      </trkpt>
      <trkpt lat="45.7233" lon="4.91313">
        <ele>165.60000610352</ele>
        <time>2014-08-28T10:04:16.000Z</time>
      </trkpt>
      <trkpt lat="45.72323" lon="4.91318">
        <ele>165.60000610352</ele>
        <time>2014-08-28T10:04:20.000Z</time>
      </trkpt>
      <trkpt lat="45.72317" lon="4.91321">
        <ele>165.60000610352</ele>
        <time>2014-08-28T10:04:23.000Z</time>
      </trkpt>
      <trkpt lat="45.72315" lon="4.91321">
        <ele>165.60000610352</ele>
        <time>2014-08-28T10:04:24.000Z</time>
      </trkpt>
      <trkpt lat="45.72313" lon="4.91323">
        <ele>165.60000610352</ele>
        <time>2014-08-28T10:04:25.000Z</time>
      </trkpt>
      <trkpt lat="45.72308" lon="4.91324">
        <ele>165.60000610352</ele>
        <time>2014-08-28T10:04:27.000Z</time>
      </trkpt>
      <trkpt lat="45.723" lon="4.91327">
        <ele>165.60000610352</ele>
        <time>2014-08-28T10:04:31.000Z</time>
      </trkpt>
      <trkpt lat="45.72288" lon="4.91331">
        <ele>165.60000610352</ele>
        <time>2014-08-28T10:04:35.000Z</time>
      </trkpt>
      <trkpt lat="45.72285" lon="4.91332">
        <ele>165.60000610352</ele>
        <time>2014-08-28T10:04:36.000Z</time>
      </trkpt>
      <trkpt lat="45.72281" lon="4.91335">
        <ele>165.60000610352</ele>
        <time>2014-08-28T10:04:37.000Z</time>
      </trkpt>
      <trkpt lat="45.72271" lon="4.91337">
        <ele>165.60000610352</ele>
        <time>2014-08-28T10:04:39.000Z</time>
      </trkpt>
      <trkpt lat="45.72255" lon="4.9134">
        <ele>165.60000610352</ele>
        <time>2014-08-28T10:04:42.000Z</time>
      </trkpt>
      <trkpt lat="45.72249" lon="4.9134">
        <ele>165.60000610352</ele>
        <time>2014-08-28T10:04:43.000Z</time>
      </trkpt>
      <trkpt lat="45.72228" lon="4.91338">
        <ele>165.19999694824</ele>
        <time>2014-08-28T10:04:47.000Z</time>
      </trkpt>
      <trkpt lat="45.72224" lon="4.91335">
        <ele>164.80000305176</ele>
        <time>2014-08-28T10:04:48.000Z</time>
      </trkpt>
      <trkpt lat="45.72219" lon="4.91333">
        <ele>164.39999389648</ele>
        <time>2014-08-28T10:04:49.000Z</time>
      </trkpt>
      <trkpt lat="45.72216" lon="4.9133">
        <ele>163.60000610352</ele>
        <time>2014-08-28T10:04:50.000Z</time>
      </trkpt>
      <trkpt lat="45.72212" lon="4.91328">
        <ele>163.60000610352</ele>
        <time>2014-08-28T10:04:51.000Z</time>
      </trkpt>
      <trkpt lat="45.72195" lon="4.91319">
        <ele>163.60000610352</ele>
        <time>2014-08-28T10:04:55.000Z</time>
      </trkpt>
      <trkpt lat="45.72178" lon="4.91312">
        <ele>163.60000610352</ele>
        <time>2014-08-28T10:04:59.000Z</time>
      </trkpt>
      <trkpt lat="45.72165" lon="4.91308">
        <ele>163.60000610352</ele>
        <time>2014-08-28T10:05:03.000Z</time>
      </trkpt>
      <trkpt lat="45.72166" lon="4.91308">
        <ele>163.60000610352</ele>
        <time>2014-08-28T10:05:05.000Z</time>
      </trkpt>
      <trkpt lat="45.72167" lon="4.91308">
        <ele>163.60000610352</ele>
        <time>2014-08-28T10:05:06.000Z</time>
      </trkpt>
      <trkpt lat="45.72168" lon="4.91308">
        <ele>163.60000610352</ele>
        <time>2014-08-28T10:05:11.000Z</time>
      </trkpt>
      <trkpt lat="45.72165" lon="4.91306">
        <ele>163.60000610352</ele>
        <time>2014-08-28T10:05:15.000Z</time>
      </trkpt>
      <trkpt lat="45.72159" lon="4.91304">
        <ele>163.60000610352</ele>
        <time>2014-08-28T10:05:19.000Z</time>
      </trkpt>
      <trkpt lat="45.72151" lon="4.913">
        <ele>163.60000610352</ele>
        <time>2014-08-28T10:05:23.000Z</time>
      </trkpt>
      <trkpt lat="45.72142" lon="4.91297">
        <ele>163.60000610352</ele>
        <time>2014-08-28T10:05:27.000Z</time>
      </trkpt>
      <trkpt lat="45.72139" lon="4.91296">
        <ele>163.60000610352</ele>
        <time>2014-08-28T10:05:28.000Z</time>
      </trkpt>
      <trkpt lat="45.72135" lon="4.91293">
        <ele>163.60000610352</ele>
        <time>2014-08-28T10:05:30.000Z</time>
      </trkpt>
      <trkpt lat="45.72124" lon="4.91283">
        <ele>163.60000610352</ele>
        <time>2014-08-28T10:05:34.000Z</time>
      </trkpt>
      <trkpt lat="45.72115" lon="4.91273">
        <ele>163.60000610352</ele>
        <time>2014-08-28T10:05:37.000Z</time>
      </trkpt>
      <trkpt lat="45.72112" lon="4.91271">
        <ele>163.60000610352</ele>
        <time>2014-08-28T10:05:38.000Z</time>
      </trkpt>
      <trkpt lat="45.72102" lon="4.91262">
        <ele>163.60000610352</ele>
        <time>2014-08-28T10:05:41.000Z</time>
      </trkpt>
      <trkpt lat="45.72099" lon="4.9126">
        <ele>163.60000610352</ele>
        <time>2014-08-28T10:05:42.000Z</time>
      </trkpt>
      <trkpt lat="45.72088" lon="4.91251">
        <ele>163.60000610352</ele>
        <time>2014-08-28T10:05:45.000Z</time>
      </trkpt>
      <trkpt lat="45.72084" lon="4.91246">
        <ele>163.60000610352</ele>
        <time>2014-08-28T10:05:46.000Z</time>
      </trkpt>
      <trkpt lat="45.72068" lon="4.91231">
        <ele>163.60000610352</ele>
        <time>2014-08-28T10:05:50.000Z</time>
      </trkpt>
      <trkpt lat="45.72058" lon="4.91217">
        <ele>163.60000610352</ele>
        <time>2014-08-28T10:05:53.000Z</time>
      </trkpt>
      <trkpt lat="45.72056" lon="4.91212">
        <ele>163.60000610352</ele>
        <time>2014-08-28T10:05:54.000Z</time>
      </trkpt>
      <trkpt lat="45.72052" lon="4.91209">
        <ele>163.60000610352</ele>
        <time>2014-08-28T10:05:55.000Z</time>
      </trkpt>
      <trkpt lat="45.72049" lon="4.91206">
        <ele>163.19999694824</ele>
        <time>2014-08-28T10:05:56.000Z</time>
      </trkpt>
      <trkpt lat="45.72044" lon="4.91201">
        <ele>162.80000305176</ele>
        <time>2014-08-28T10:05:57.000Z</time>
      </trkpt>
      <trkpt lat="45.72041" lon="4.91197">
        <ele>162.19999694824</ele>
        <time>2014-08-28T10:05:58.000Z</time>
      </trkpt>
      <trkpt lat="45.72038" lon="4.91193">
        <ele>161.80000305176</ele>
        <time>2014-08-28T10:05:59.000Z</time>
      </trkpt>
      <trkpt lat="45.72034" lon="4.91188">
        <ele>161.39999389648</ele>
        <time>2014-08-28T10:06:00.000Z</time>
      </trkpt>
      <trkpt lat="45.72028" lon="4.91181">
        <ele>161.39999389648</ele>
        <time>2014-08-28T10:06:02.000Z</time>
      </trkpt>
      <trkpt lat="45.72027" lon="4.9118">
        <ele>161.39999389648</ele>
        <time>2014-08-28T10:06:03.000Z</time>
      </trkpt>
      <trkpt lat="45.72026" lon="4.9118">
        <ele>161.39999389648</ele>
        <time>2014-08-28T10:06:04.000Z</time>
      </trkpt>
      <trkpt lat="45.72026" lon="4.91181">
        <ele>161.39999389648</ele>
        <time>2014-08-28T10:06:06.000Z</time>
      </trkpt>
      <trkpt lat="45.72026" lon="4.91181">
        <ele>161.39999389648</ele>
        <time>2014-08-28T10:06:09.000Z</time>
      </trkpt>
      <trkpt lat="45.72025" lon="4.9118">
        <ele>161.39999389648</ele>
        <time>2014-08-28T10:06:10.000Z</time>
      </trkpt>
      <trkpt lat="45.7202" lon="4.91174">
        <ele>161.39999389648</ele>
        <time>2014-08-28T10:06:13.000Z</time>
      </trkpt>
      <trkpt lat="45.72017" lon="4.91168">
        <ele>161.39999389648</ele>
        <time>2014-08-28T10:06:16.000Z</time>
      </trkpt>
      <trkpt lat="45.72011" lon="4.91163">
        <ele>161.39999389648</ele>
        <time>2014-08-28T10:06:19.000Z</time>
      </trkpt>
      <trkpt lat="45.7201" lon="4.91159">
        <ele>161.39999389648</ele>
        <time>2014-08-28T10:06:20.000Z</time>
      </trkpt>
      <trkpt lat="45.72008" lon="4.91155">
        <ele>161.39999389648</ele>
        <time>2014-08-28T10:06:22.000Z</time>
      </trkpt>
      <trkpt lat="45.72008" lon="4.91151">
        <ele>161.39999389648</ele>
        <time>2014-08-28T10:06:23.000Z</time>
      </trkpt>
      <trkpt lat="45.72009" lon="4.91146">
        <ele>161.39999389648</ele>
        <time>2014-08-28T10:06:25.000Z</time>
      </trkpt>
      <trkpt lat="45.72007" lon="4.91133">
        <ele>161.39999389648</ele>
        <time>2014-08-28T10:06:29.000Z</time>
      </trkpt>
      <trkpt lat="45.72002" lon="4.91117">
        <ele>161.39999389648</ele>
        <time>2014-08-28T10:06:33.000Z</time>
      </trkpt>
      <trkpt lat="45.71997" lon="4.91107">
        <ele>161.39999389648</ele>
        <time>2014-08-28T10:06:35.000Z</time>
      </trkpt>
      <trkpt lat="45.71994" lon="4.91102">
        <ele>161.39999389648</ele>
        <time>2014-08-28T10:06:36.000Z</time>
      </trkpt>
      <trkpt lat="45.71986" lon="4.91088">
        <ele>161.39999389648</ele>
        <time>2014-08-28T10:06:39.000Z</time>
      </trkpt>
      <trkpt lat="45.71983" lon="4.91081">
        <ele>161.39999389648</ele>
        <time>2014-08-28T10:06:40.000Z</time>
      </trkpt>
      <trkpt lat="45.7198" lon="4.91071">
        <ele>161.39999389648</ele>
        <time>2014-08-28T10:06:42.000Z</time>
      </trkpt>
      <trkpt lat="45.71974" lon="4.91062">
        <ele>161.39999389648</ele>
        <time>2014-08-28T10:06:44.000Z</time>
      </trkpt>
      <trkpt lat="45.71972" lon="4.91056">
        <ele>161.39999389648</ele>
        <time>2014-08-28T10:06:45.000Z</time>
      </trkpt>
      <trkpt lat="45.71966" lon="4.9104">
        <ele>161.39999389648</ele>
        <time>2014-08-28T10:06:48.000Z</time>
      </trkpt>
      <trkpt lat="45.71959" lon="4.91024">
        <ele>161.39999389648</ele>
        <time>2014-08-28T10:06:51.000Z</time>
      </trkpt>
      <trkpt lat="45.71956" lon="4.91019">
        <ele>161.39999389648</ele>
        <time>2014-08-28T10:06:52.000Z</time>
      </trkpt>
      <trkpt lat="45.71948" lon="4.91004">
        <ele>161.39999389648</ele>
        <time>2014-08-28T10:06:55.000Z</time>
      </trkpt>
      <trkpt lat="45.71945" lon="4.90999">
        <ele>161.39999389648</ele>
        <time>2014-08-28T10:06:56.000Z</time>
      </trkpt>
      <trkpt lat="45.7194" lon="4.90986">
        <ele>161.39999389648</ele>
        <time>2014-08-28T10:06:58.000Z</time>
      </trkpt>
      <trkpt lat="45.71934" lon="4.90966">
        <ele>161.39999389648</ele>
        <time>2014-08-28T10:07:01.000Z</time>
      </trkpt>
      <trkpt lat="45.71932" lon="4.90953">
        <ele>161.39999389648</ele>
        <time>2014-08-28T10:07:03.000Z</time>
      </trkpt>
      <trkpt lat="45.71933" lon="4.90948">
        <ele>161.39999389648</ele>
        <time>2014-08-28T10:07:04.000Z</time>
      </trkpt>
      <trkpt lat="45.71931" lon="4.90942">
        <ele>161.39999389648</ele>
        <time>2014-08-28T10:07:07.000Z</time>
      </trkpt>
      <trkpt lat="45.71931" lon="4.90939">
        <ele>161.39999389648</ele>
        <time>2014-08-28T10:07:08.000Z</time>
      </trkpt>
      <trkpt lat="45.7193" lon="4.90929">
        <ele>161.39999389648</ele>
        <time>2014-08-28T10:07:14.000Z</time>
      </trkpt>
      <trkpt lat="45.7193" lon="4.90924">
        <ele>161.39999389648</ele>
        <time>2014-08-28T10:07:19.000Z</time>
      </trkpt>
      <trkpt lat="45.7193" lon="4.90918">
        <ele>161.39999389648</ele>
        <time>2014-08-28T10:07:22.000Z</time>
      </trkpt>
      <trkpt lat="45.71931" lon="4.90915">
        <ele>161.39999389648</ele>
        <time>2014-08-28T10:07:24.000Z</time>
      </trkpt>
      <trkpt lat="45.71932" lon="4.90913">
        <ele>161.39999389648</ele>
        <time>2014-08-28T10:07:25.000Z</time>
      </trkpt>
      <trkpt lat="45.71931" lon="4.90911">
        <ele>161.39999389648</ele>
        <time>2014-08-28T10:07:26.000Z</time>
      </trkpt>
      <trkpt lat="45.71931" lon="4.90902">
        <ele>161.39999389648</ele>
        <time>2014-08-28T10:07:29.000Z</time>
      </trkpt>
      <trkpt lat="45.71931" lon="4.90896">
        <ele>161.39999389648</ele>
        <time>2014-08-28T10:07:31.000Z</time>
      </trkpt>
      <trkpt lat="45.71928" lon="4.90882">
        <ele>161.39999389648</ele>
        <time>2014-08-28T10:07:34.000Z</time>
      </trkpt>
      <trkpt lat="45.71927" lon="4.90878">
        <ele>161.39999389648</ele>
        <time>2014-08-28T10:07:35.000Z</time>
      </trkpt>
      <trkpt lat="45.71921" lon="4.90858">
        <ele>161.39999389648</ele>
        <time>2014-08-28T10:07:39.000Z</time>
      </trkpt>
      <trkpt lat="45.71914" lon="4.90843">
        <ele>161.39999389648</ele>
        <time>2014-08-28T10:07:42.000Z</time>
      </trkpt>
      <trkpt lat="45.7191" lon="4.9084">
        <ele>161.39999389648</ele>
        <time>2014-08-28T10:07:43.000Z</time>
      </trkpt>
      <trkpt lat="45.71897" lon="4.90826">
        <ele>161.39999389648</ele>
        <time>2014-08-28T10:07:47.000Z</time>
      </trkpt>
      <trkpt lat="45.71893" lon="4.90823">
        <ele>161.39999389648</ele>
        <time>2014-08-28T10:07:48.000Z</time>
      </trkpt>
      <trkpt lat="45.71885" lon="4.90819">
        <ele>161.39999389648</ele>
        <time>2014-08-28T10:07:50.000Z</time>
      </trkpt>
      <trkpt lat="45.71881" lon="4.90817">
        <ele>161.39999389648</ele>
        <time>2014-08-28T10:07:51.000Z</time>
      </trkpt>
      <trkpt lat="45.71857" lon="4.90809">
        <ele>161.39999389648</ele>
        <time>2014-08-28T10:07:58.000Z</time>
      </trkpt>
      <trkpt lat="45.71855" lon="4.90807">
        <ele>161.39999389648</ele>
        <time>2014-08-28T10:07:59.000Z</time>
      </trkpt>
      <trkpt lat="45.71854" lon="4.90804">
        <ele>161.39999389648</ele>
        <time>2014-08-28T10:08:00.000Z</time>
      </trkpt>
      <trkpt lat="45.71857" lon="4.90789">
        <ele>161.39999389648</ele>
        <time>2014-08-28T10:08:03.000Z</time>
      </trkpt>
      <trkpt lat="45.7186" lon="4.90779">
        <ele>161.39999389648</ele>
        <time>2014-08-28T10:08:06.000Z</time>
      </trkpt>
      <trkpt lat="45.71861" lon="4.90777">
        <ele>161.39999389648</ele>
        <time>2014-08-28T10:08:07.000Z</time>
      </trkpt>
      <trkpt lat="45.71861" lon="4.90772">
        <ele>161.39999389648</ele>
        <time>2014-08-28T10:08:11.000Z</time>
      </trkpt>
      <trkpt lat="45.71861" lon="4.90764">
        <ele>161.39999389648</ele>
        <time>2014-08-28T10:08:16.000Z</time>
      </trkpt>
      <trkpt lat="45.71863" lon="4.90757">
        <ele>161.39999389648</ele>
        <time>2014-08-28T10:08:21.000Z</time>
      </trkpt>
      <trkpt lat="45.71866" lon="4.90754">
        <ele>161.39999389648</ele>
        <time>2014-08-28T10:08:24.000Z</time>
      </trkpt>
      <trkpt lat="45.71869" lon="4.90749">
        <ele>161.39999389648</ele>
        <time>2014-08-28T10:08:27.000Z</time>
      </trkpt>
      <trkpt lat="45.7187" lon="4.9074">
        <ele>161.39999389648</ele>
        <time>2014-08-28T10:08:32.000Z</time>
      </trkpt>
      <trkpt lat="45.71869" lon="4.90737">
        <ele>161.39999389648</ele>
        <time>2014-08-28T10:08:33.000Z</time>
      </trkpt>
      <trkpt lat="45.71862" lon="4.90717">
        <ele>161.39999389648</ele>
        <time>2014-08-28T10:08:38.000Z</time>
      </trkpt>
      <trkpt lat="45.71859" lon="4.90705">
        <ele>161.39999389648</ele>
        <time>2014-08-28T10:08:40.000Z</time>
      </trkpt>
      <trkpt lat="45.71854" lon="4.90696">
        <ele>161.39999389648</ele>
        <time>2014-08-28T10:08:42.000Z</time>
      </trkpt>
      <trkpt lat="45.71843" lon="4.90677">
        <ele>161.39999389648</ele>
        <time>2014-08-28T10:08:46.000Z</time>
      </trkpt>
      <trkpt lat="45.71838" lon="4.90663">
        <ele>161.39999389648</ele>
        <time>2014-08-28T10:08:49.000Z</time>
      </trkpt>
      <trkpt lat="45.71833" lon="4.90653">
        <ele>161.39999389648</ele>
        <time>2014-08-28T10:08:51.000Z</time>
      </trkpt>
      <trkpt lat="45.71827" lon="4.90636">
        <ele>161.39999389648</ele>
        <time>2014-08-28T10:08:54.000Z</time>
      </trkpt>
      <trkpt lat="45.71825" lon="4.9063">
        <ele>161.39999389648</ele>
        <time>2014-08-28T10:08:55.000Z</time>
      </trkpt>
      <trkpt lat="45.71816" lon="4.90611">
        <ele>161.39999389648</ele>
        <time>2014-08-28T10:08:58.000Z</time>
      </trkpt>
      <trkpt lat="45.71812" lon="4.90592">
        <ele>161.39999389648</ele>
        <time>2014-08-28T10:09:01.000Z</time>
      </trkpt>
      <trkpt lat="45.71804" lon="4.90574">
        <ele>161.39999389648</ele>
        <time>2014-08-28T10:09:05.000Z</time>
      </trkpt>
      <trkpt lat="45.71803" lon="4.90569">
        <ele>161.39999389648</ele>
        <time>2014-08-28T10:09:07.000Z</time>
      </trkpt>
      <trkpt lat="45.71802" lon="4.90568">
        <ele>161.39999389648</ele>
        <time>2014-08-28T10:09:08.000Z</time>
      </trkpt>
      <trkpt lat="45.71799" lon="4.90562">
        <ele>161.39999389648</ele>
        <time>2014-08-28T10:09:14.000Z</time>
      </trkpt>
      <trkpt lat="45.71799" lon="4.90562">
        <ele>161.39999389648</ele>
        <time>2014-08-28T10:09:19.000Z</time>
      </trkpt>
      <trkpt lat="45.71796" lon="4.9056">
        <ele>161.39999389648</ele>
        <time>2014-08-28T10:09:23.000Z</time>
      </trkpt>
      <trkpt lat="45.71791" lon="4.90552">
        <ele>161.39999389648</ele>
        <time>2014-08-28T10:09:28.000Z</time>
      </trkpt>
      <trkpt lat="45.71785" lon="4.9054">
        <ele>161.39999389648</ele>
        <time>2014-08-28T10:09:34.000Z</time>
      </trkpt>
      <trkpt lat="45.71778" lon="4.90525">
        <ele>161.39999389648</ele>
        <time>2014-08-28T10:09:41.000Z</time>
      </trkpt>
      <trkpt lat="45.71774" lon="4.90514">
        <ele>161.39999389648</ele>
        <time>2014-08-28T10:09:46.000Z</time>
      </trkpt>
      <trkpt lat="45.71772" lon="4.90512">
        <ele>161.39999389648</ele>
        <time>2014-08-28T10:09:47.000Z</time>
      </trkpt>
      <trkpt lat="45.71769" lon="4.90511">
        <ele>161.39999389648</ele>
        <time>2014-08-28T10:09:50.000Z</time>
      </trkpt>
      <trkpt lat="45.71767" lon="4.90512">
        <ele>161.39999389648</ele>
        <time>2014-08-28T10:09:51.000Z</time>
      </trkpt>
      <trkpt lat="45.71757" lon="4.90515">
        <ele>161.39999389648</ele>
        <time>2014-08-28T10:09:56.000Z</time>
      </trkpt>
      <trkpt lat="45.71748" lon="4.90517">
        <ele>161.39999389648</ele>
        <time>2014-08-28T10:10:02.000Z</time>
      </trkpt>
      <trkpt lat="45.71738" lon="4.90519">
        <ele>161.39999389648</ele>
        <time>2014-08-28T10:10:09.000Z</time>
      </trkpt>
      <trkpt lat="45.71727" lon="4.90519">
        <ele>161.39999389648</ele>
        <time>2014-08-28T10:10:15.000Z</time>
      </trkpt>
      <trkpt lat="45.71718" lon="4.90515">
        <ele>161.39999389648</ele>
        <time>2014-08-28T10:10:20.000Z</time>
      </trkpt>
      <trkpt lat="45.71712" lon="4.9051">
        <ele>161.39999389648</ele>
        <time>2014-08-28T10:10:25.000Z</time>
      </trkpt>
      <trkpt lat="45.71704" lon="4.90507">
        <ele>161.39999389648</ele>
        <time>2014-08-28T10:10:29.000Z</time>
      </trkpt>
      <trkpt lat="45.71702" lon="4.90507">
        <ele>161.39999389648</ele>
        <time>2014-08-28T10:10:30.000Z</time>
      </trkpt>
      <trkpt lat="45.71698" lon="4.90506">
        <ele>161.39999389648</ele>
        <time>2014-08-28T10:10:32.000Z</time>
      </trkpt>
      <trkpt lat="45.7169" lon="4.90504">
        <ele>161.39999389648</ele>
        <time>2014-08-28T10:10:36.000Z</time>
      </trkpt>
      <trkpt lat="45.71684" lon="4.90504">
        <ele>161.39999389648</ele>
        <time>2014-08-28T10:10:39.000Z</time>
      </trkpt>
      <trkpt lat="45.71681" lon="4.90504">
        <ele>161.39999389648</ele>
        <time>2014-08-28T10:10:40.000Z</time>
      </trkpt>
      <trkpt lat="45.71671" lon="4.90502">
        <ele>161.39999389648</ele>
        <time>2014-08-28T10:10:45.000Z</time>
      </trkpt>
      <trkpt lat="45.71665" lon="4.905">
        <ele>161.39999389648</ele>
        <time>2014-08-28T10:10:47.000Z</time>
      </trkpt>
      <trkpt lat="45.71664" lon="4.90499">
        <ele>161.39999389648</ele>
        <time>2014-08-28T10:10:48.000Z</time>
      </trkpt>
      <trkpt lat="45.71663" lon="4.90498">
        <ele>161.39999389648</ele>
        <time>2014-08-28T10:10:49.000Z</time>
      </trkpt>
      <trkpt lat="45.71657" lon="4.90496">
        <ele>161.39999389648</ele>
        <time>2014-08-28T10:10:52.000Z</time>
      </trkpt>
      <trkpt lat="45.71653" lon="4.90495">
        <ele>161.39999389648</ele>
        <time>2014-08-28T10:10:54.000Z</time>
      </trkpt>
      <trkpt lat="45.71643" lon="4.90493">
        <ele>161.39999389648</ele>
        <time>2014-08-28T10:10:59.000Z</time>
      </trkpt>
      <trkpt lat="45.71641" lon="4.90492">
        <ele>161.39999389648</ele>
        <time>2014-08-28T10:11:00.000Z</time>
      </trkpt>
      <trkpt lat="45.71636" lon="4.90493">
        <ele>161.39999389648</ele>
        <time>2014-08-28T10:11:03.000Z</time>
      </trkpt>
      <trkpt lat="45.71633" lon="4.90497">
        <ele>161.39999389648</ele>
        <time>2014-08-28T10:11:05.000Z</time>
      </trkpt>
      <trkpt lat="45.71632" lon="4.90499">
        <ele>161.39999389648</ele>
        <time>2014-08-28T10:11:06.000Z</time>
      </trkpt>
      <trkpt lat="45.71628" lon="4.90512">
        <ele>161.39999389648</ele>
        <time>2014-08-28T10:11:10.000Z</time>
      </trkpt>
      <trkpt lat="45.71628" lon="4.90523">
        <ele>161.39999389648</ele>
        <time>2014-08-28T10:11:14.000Z</time>
      </trkpt>
      <trkpt lat="45.71624" lon="4.90535">
        <ele>161.39999389648</ele>
        <time>2014-08-28T10:11:18.000Z</time>
      </trkpt>
      <trkpt lat="45.71619" lon="4.90546">
        <ele>161.39999389648</ele>
        <time>2014-08-28T10:11:22.000Z</time>
      </trkpt>
      <trkpt lat="45.71615" lon="4.90557">
        <ele>161.39999389648</ele>
        <time>2014-08-28T10:11:26.000Z</time>
      </trkpt>
      <trkpt lat="45.71611" lon="4.90569">
        <ele>161.39999389648</ele>
        <time>2014-08-28T10:11:30.000Z</time>
      </trkpt>
      <trkpt lat="45.71609" lon="4.90583">
        <ele>161.39999389648</ele>
        <time>2014-08-28T10:11:34.000Z</time>
      </trkpt>
      <trkpt lat="45.71603" lon="4.90596">
        <ele>161.39999389648</ele>
        <time>2014-08-28T10:11:38.000Z</time>
      </trkpt>
      <trkpt lat="45.71596" lon="4.90604">
        <ele>161.39999389648</ele>
        <time>2014-08-28T10:11:42.000Z</time>
      </trkpt>
      <trkpt lat="45.71588" lon="4.90613">
        <ele>161.39999389648</ele>
        <time>2014-08-28T10:11:46.000Z</time>
      </trkpt>
      <trkpt lat="45.71585" lon="4.90614">
        <ele>161.80000305176</ele>
        <time>2014-08-28T10:11:47.000Z</time>
      </trkpt>
      <trkpt lat="45.71584" lon="4.90615">
        <ele>162.19999694824</ele>
        <time>2014-08-28T10:11:48.000Z</time>
      </trkpt>
      <trkpt lat="45.71581" lon="4.90617">
        <ele>162.60000610352</ele>
        <time>2014-08-28T10:11:49.000Z</time>
      </trkpt>
      <trkpt lat="45.71579" lon="4.90618">
        <ele>163.19999694824</ele>
        <time>2014-08-28T10:11:50.000Z</time>
      </trkpt>
      <trkpt lat="45.71577" lon="4.9062">
        <ele>163.60000610352</ele>
        <time>2014-08-28T10:11:51.000Z</time>
      </trkpt>
      <trkpt lat="45.71574" lon="4.9062">
        <ele>163.60000610352</ele>
        <time>2014-08-28T10:11:53.000Z</time>
      </trkpt>
      <trkpt lat="45.71569" lon="4.90616">
        <ele>163.60000610352</ele>
        <time>2014-08-28T10:11:55.000Z</time>
      </trkpt>
      <trkpt lat="45.71561" lon="4.90606">
        <ele>163.60000610352</ele>
        <time>2014-08-28T10:11:59.000Z</time>
      </trkpt>
      <trkpt lat="45.7155" lon="4.90594">
        <ele>163.60000610352</ele>
        <time>2014-08-28T10:12:04.000Z</time>
      </trkpt>
      <trkpt lat="45.71532" lon="4.90578">
        <ele>163.60000610352</ele>
        <time>2014-08-28T10:12:09.000Z</time>
      </trkpt>
      <trkpt lat="45.71512" lon="4.90559">
        <ele>163.60000610352</ele>
        <time>2014-08-28T10:12:14.000Z</time>
      </trkpt>
      <trkpt lat="45.71507" lon="4.90556">
        <ele>163.60000610352</ele>
        <time>2014-08-28T10:12:15.000Z</time>
      </trkpt>
      <trkpt lat="45.715" lon="4.90549">
        <ele>163.60000610352</ele>
        <time>2014-08-28T10:12:17.000Z</time>
      </trkpt>
      <trkpt lat="45.71495" lon="4.90545">
        <ele>163.60000610352</ele>
        <time>2014-08-28T10:12:18.000Z</time>
      </trkpt>
      <trkpt lat="45.7148" lon="4.90531">
        <ele>163.60000610352</ele>
        <time>2014-08-28T10:12:22.000Z</time>
      </trkpt>
      <trkpt lat="45.71476" lon="4.90526">
        <ele>163.60000610352</ele>
        <time>2014-08-28T10:12:23.000Z</time>
      </trkpt>
      <trkpt lat="45.71468" lon="4.90505">
        <ele>163.60000610352</ele>
        <time>2014-08-28T10:12:27.000Z</time>
      </trkpt>
      <trkpt lat="45.71462" lon="4.90489">
        <ele>163.60000610352</ele>
        <time>2014-08-28T10:12:30.000Z</time>
      </trkpt>
      <trkpt lat="45.71459" lon="4.90484">
        <ele>163.60000610352</ele>
        <time>2014-08-28T10:12:31.000Z</time>
      </trkpt>
      <trkpt lat="45.71453" lon="4.90479">
        <ele>163.60000610352</ele>
        <time>2014-08-28T10:12:33.000Z</time>
      </trkpt>
      <trkpt lat="45.71452" lon="4.9048">
        <ele>163.60000610352</ele>
        <time>2014-08-28T10:12:34.000Z</time>
      </trkpt>
      <trkpt lat="45.71452" lon="4.90481">
        <ele>163.60000610352</ele>
        <time>2014-08-28T10:12:36.000Z</time>
      </trkpt>
      <trkpt lat="45.71452" lon="4.90479">
        <ele>163.60000610352</ele>
        <time>2014-08-28T10:12:38.000Z</time>
      </trkpt>
      <trkpt lat="45.71449" lon="4.90478">
        <ele>163.60000610352</ele>
        <time>2014-08-28T10:12:40.000Z</time>
      </trkpt>
      <trkpt lat="45.71446" lon="4.90476">
        <ele>163.60000610352</ele>
        <time>2014-08-28T10:12:42.000Z</time>
      </trkpt>
      <trkpt lat="45.71436" lon="4.90469">
        <ele>163.60000610352</ele>
        <time>2014-08-28T10:12:48.000Z</time>
      </trkpt>
      <trkpt lat="45.71428" lon="4.90466">
        <ele>163.60000610352</ele>
        <time>2014-08-28T10:12:52.000Z</time>
      </trkpt>
      <trkpt lat="45.71427" lon="4.90465">
        <ele>163.60000610352</ele>
        <time>2014-08-28T10:12:53.000Z</time>
      </trkpt>
      <trkpt lat="45.71418" lon="4.90453">
        <ele>163.60000610352</ele>
        <time>2014-08-28T10:12:59.000Z</time>
      </trkpt>
      <trkpt lat="45.71411" lon="4.90437">
        <ele>163.60000610352</ele>
        <time>2014-08-28T10:13:04.000Z</time>
      </trkpt>
      <trkpt lat="45.71396" lon="4.90404">
        <ele>163.60000610352</ele>
        <time>2014-08-28T10:13:12.000Z</time>
      </trkpt>
      <trkpt lat="45.71383" lon="4.90397">
        <ele>163.60000610352</ele>
        <time>2014-08-28T10:13:16.000Z</time>
      </trkpt>
      <trkpt lat="45.71373" lon="4.90388">
        <ele>163.60000610352</ele>
        <time>2014-08-28T10:13:19.000Z</time>
      </trkpt>
      <trkpt lat="45.7137" lon="4.90382">
        <ele>163.60000610352</ele>
        <time>2014-08-28T10:13:20.000Z</time>
      </trkpt>
      <trkpt lat="45.71365" lon="4.90367">
        <ele>164</ele>
        <time>2014-08-28T10:13:23.000Z</time>
      </trkpt>
      <trkpt lat="45.71362" lon="4.90362">
        <ele>164.39999389648</ele>
        <time>2014-08-28T10:13:24.000Z</time>
      </trkpt>
      <trkpt lat="45.7136" lon="4.90357">
        <ele>164.80000305176</ele>
        <time>2014-08-28T10:13:25.000Z</time>
      </trkpt>
      <trkpt lat="45.71357" lon="4.90352">
        <ele>165.19999694824</ele>
        <time>2014-08-28T10:13:26.000Z</time>
      </trkpt>
      <trkpt lat="45.71355" lon="4.90348">
        <ele>165.60000610352</ele>
        <time>2014-08-28T10:13:27.000Z</time>
      </trkpt>
      <trkpt lat="45.71345" lon="4.90334">
        <ele>165.60000610352</ele>
        <time>2014-08-28T10:13:30.000Z</time>
      </trkpt>
      <trkpt lat="45.71334" lon="4.90316">
        <ele>165.60000610352</ele>
        <time>2014-08-28T10:13:34.000Z</time>
      </trkpt>
      <trkpt lat="45.71333" lon="4.90314">
        <ele>165.60000610352</ele>
        <time>2014-08-28T10:13:37.000Z</time>
      </trkpt>
      <trkpt lat="45.71333" lon="4.90316">
        <ele>165.60000610352</ele>
        <time>2014-08-28T10:13:39.000Z</time>
      </trkpt>
      <trkpt lat="45.71333" lon="4.90317">
        <ele>165.60000610352</ele>
        <time>2014-08-28T10:13:41.000Z</time>
      </trkpt>
      <trkpt lat="45.71331" lon="4.90315">
        <ele>165.60000610352</ele>
        <time>2014-08-28T10:13:42.000Z</time>
      </trkpt>
      <trkpt lat="45.71328" lon="4.90312">
        <ele>165.60000610352</ele>
        <time>2014-08-28T10:13:44.000Z</time>
      </trkpt>
      <trkpt lat="45.71323" lon="4.90301">
        <ele>165.60000610352</ele>
        <time>2014-08-28T10:13:49.000Z</time>
      </trkpt>
      <trkpt lat="45.71318" lon="4.90294">
        <ele>165.60000610352</ele>
        <time>2014-08-28T10:13:53.000Z</time>
      </trkpt>
      <trkpt lat="45.71311" lon="4.90286">
        <ele>165.60000610352</ele>
        <time>2014-08-28T10:13:57.000Z</time>
      </trkpt>
      <trkpt lat="45.71302" lon="4.90279">
        <ele>165.60000610352</ele>
        <time>2014-08-28T10:14:02.000Z</time>
      </trkpt>
      <trkpt lat="45.71299" lon="4.90275">
        <ele>165.60000610352</ele>
        <time>2014-08-28T10:14:04.000Z</time>
      </trkpt>
      <trkpt lat="45.71293" lon="4.9027">
        <ele>165.60000610352</ele>
        <time>2014-08-28T10:14:06.000Z</time>
      </trkpt>
      <trkpt lat="45.71282" lon="4.90263">
        <ele>165.60000610352</ele>
        <time>2014-08-28T10:14:09.000Z</time>
      </trkpt>
      <trkpt lat="45.71271" lon="4.9025">
        <ele>165.60000610352</ele>
        <time>2014-08-28T10:14:12.000Z</time>
      </trkpt>
      <trkpt lat="45.71263" lon="4.90241">
        <ele>165.60000610352</ele>
        <time>2014-08-28T10:14:14.000Z</time>
      </trkpt>
      <trkpt lat="45.71259" lon="4.90231">
        <ele>165.60000610352</ele>
        <time>2014-08-28T10:14:16.000Z</time>
      </trkpt>
      <trkpt lat="45.71262" lon="4.90211">
        <ele>165.60000610352</ele>
        <time>2014-08-28T10:14:20.000Z</time>
      </trkpt>
      <trkpt lat="45.71266" lon="4.90201">
        <ele>165.60000610352</ele>
        <time>2014-08-28T10:14:22.000Z</time>
      </trkpt>
      <trkpt lat="45.7127" lon="4.90192">
        <ele>165.60000610352</ele>
        <time>2014-08-28T10:14:24.000Z</time>
      </trkpt>
      <trkpt lat="45.71278" lon="4.90178">
        <ele>165.60000610352</ele>
        <time>2014-08-28T10:14:27.000Z</time>
      </trkpt>
      <trkpt lat="45.71286" lon="4.90164">
        <ele>165.60000610352</ele>
        <time>2014-08-28T10:14:30.000Z</time>
      </trkpt>
      <trkpt lat="45.71295" lon="4.90153">
        <ele>165.60000610352</ele>
        <time>2014-08-28T10:14:33.000Z</time>
      </trkpt>
      <trkpt lat="45.71302" lon="4.90151">
        <ele>165.60000610352</ele>
        <time>2014-08-28T10:14:36.000Z</time>
      </trkpt>
      <trkpt lat="45.71306" lon="4.90149">
        <ele>165.60000610352</ele>
        <time>2014-08-28T10:14:39.000Z</time>
      </trkpt>
      <trkpt lat="45.71307" lon="4.90146">
        <ele>165.60000610352</ele>
        <time>2014-08-28T10:14:40.000Z</time>
      </trkpt>
      <trkpt lat="45.7131" lon="4.90142">
        <ele>165.60000610352</ele>
        <time>2014-08-28T10:14:43.000Z</time>
      </trkpt>
      <trkpt lat="45.71312" lon="4.90143">
        <ele>165.60000610352</ele>
        <time>2014-08-28T10:14:45.000Z</time>
      </trkpt>
      <trkpt lat="45.71316" lon="4.90151">
        <ele>165.60000610352</ele>
        <time>2014-08-28T10:14:50.000Z</time>
      </trkpt>
      <trkpt lat="45.71318" lon="4.90154">
        <ele>165.60000610352</ele>
        <time>2014-08-28T10:14:52.000Z</time>
      </trkpt>
      <trkpt lat="45.7132" lon="4.9016">
        <ele>165.60000610352</ele>
        <time>2014-08-28T10:14:55.000Z</time>
      </trkpt>
      <trkpt lat="45.71322" lon="4.90166">
        <ele>165.60000610352</ele>
        <time>2014-08-28T10:14:58.000Z</time>
      </trkpt>
      <trkpt lat="45.71324" lon="4.9017">
        <ele>165.60000610352</ele>
        <time>2014-08-28T10:15:00.000Z</time>
      </trkpt>
      <trkpt lat="45.71327" lon="4.90175">
        <ele>165.60000610352</ele>
        <time>2014-08-28T10:15:02.000Z</time>
      </trkpt>
      <trkpt lat="45.71334" lon="4.90186">
        <ele>165.60000610352</ele>
        <time>2014-08-28T10:15:05.000Z</time>
      </trkpt>
      <trkpt lat="45.7135" lon="4.90209">
        <ele>165.60000610352</ele>
        <time>2014-08-28T10:15:11.000Z</time>
      </trkpt>
      <trkpt lat="45.71357" lon="4.90215">
        <ele>165.60000610352</ele>
        <time>2014-08-28T10:15:13.000Z</time>
      </trkpt>
      <trkpt lat="45.71363" lon="4.9021">
        <ele>165.60000610352</ele>
        <time>2014-08-28T10:15:15.000Z</time>
      </trkpt>
      <trkpt lat="45.71367" lon="4.90195">
        <ele>165.60000610352</ele>
        <time>2014-08-28T10:15:18.000Z</time>
      </trkpt>
      <trkpt lat="45.71368" lon="4.9019">
        <ele>165.60000610352</ele>
        <time>2014-08-28T10:15:19.000Z</time>
      </trkpt>
      <trkpt lat="45.71376" lon="4.90168">
        <ele>165.60000610352</ele>
        <time>2014-08-28T10:15:23.000Z</time>
      </trkpt>
      <trkpt lat="45.71382" lon="4.90152">
        <ele>165.60000610352</ele>
        <time>2014-08-28T10:15:26.000Z</time>
      </trkpt>
      <trkpt lat="45.71385" lon="4.90138">
        <ele>165.60000610352</ele>
        <time>2014-08-28T10:15:28.000Z</time>
      </trkpt>
      <trkpt lat="45.71392" lon="4.90121">
        <ele>165.60000610352</ele>
        <time>2014-08-28T10:15:31.000Z</time>
      </trkpt>
      <trkpt lat="45.71399" lon="4.90102">
        <ele>165.60000610352</ele>
        <time>2014-08-28T10:15:35.000Z</time>
      </trkpt>
      <trkpt lat="45.71403" lon="4.90096">
        <ele>165.60000610352</ele>
        <time>2014-08-28T10:15:40.000Z</time>
      </trkpt>
      <trkpt lat="45.71404" lon="4.90097">
        <ele>165.60000610352</ele>
        <time>2014-08-28T10:15:41.000Z</time>
      </trkpt>
      <trkpt lat="45.71404" lon="4.90099">
        <ele>165.60000610352</ele>
        <time>2014-08-28T10:15:43.000Z</time>
      </trkpt>
      <trkpt lat="45.71404" lon="4.90099">
        <ele>165.60000610352</ele>
        <time>2014-08-28T10:15:46.000Z</time>
      </trkpt>
      <trkpt lat="45.71405" lon="4.90095">
        <ele>165.60000610352</ele>
        <time>2014-08-28T10:15:48.000Z</time>
      </trkpt>
      <trkpt lat="45.71405" lon="4.90091">
        <ele>165.60000610352</ele>
        <time>2014-08-28T10:15:50.000Z</time>
      </trkpt>
      <trkpt lat="45.71411" lon="4.90084">
        <ele>165.60000610352</ele>
        <time>2014-08-28T10:15:55.000Z</time>
      </trkpt>
      <trkpt lat="45.71417" lon="4.90075">
        <ele>165.60000610352</ele>
        <time>2014-08-28T10:16:00.000Z</time>
      </trkpt>
      <trkpt lat="45.71427" lon="4.90058">
        <ele>165.60000610352</ele>
        <time>2014-08-28T10:16:06.000Z</time>
      </trkpt>
      <trkpt lat="45.71439" lon="4.90041">
        <ele>165.60000610352</ele>
        <time>2014-08-28T10:16:11.000Z</time>
      </trkpt>
      <trkpt lat="45.71451" lon="4.90019">
        <ele>165.60000610352</ele>
        <time>2014-08-28T10:16:16.000Z</time>
      </trkpt>
      <trkpt lat="45.71452" lon="4.90013">
        <ele>165.60000610352</ele>
        <time>2014-08-28T10:16:17.000Z</time>
      </trkpt>
      <trkpt lat="45.71454" lon="4.89985">
        <ele>165.60000610352</ele>
        <time>2014-08-28T10:16:22.000Z</time>
      </trkpt>
      <trkpt lat="45.71459" lon="4.89962">
        <ele>165.60000610352</ele>
        <time>2014-08-28T10:16:27.000Z</time>
      </trkpt>
      <trkpt lat="45.71473" lon="4.89948">
        <ele>165.60000610352</ele>
        <time>2014-08-28T10:16:31.000Z</time>
      </trkpt>
      <trkpt lat="45.71485" lon="4.8993">
        <ele>165.60000610352</ele>
        <time>2014-08-28T10:16:36.000Z</time>
      </trkpt>
      <trkpt lat="45.71487" lon="4.89926">
        <ele>165.60000610352</ele>
        <time>2014-08-28T10:16:38.000Z</time>
      </trkpt>
      <trkpt lat="45.71487" lon="4.89925">
        <ele>165.60000610352</ele>
        <time>2014-08-28T10:16:40.000Z</time>
      </trkpt>
      <trkpt lat="45.71485" lon="4.89925">
        <ele>165.60000610352</ele>
        <time>2014-08-28T10:16:44.000Z</time>
      </trkpt>
      <trkpt lat="45.71487" lon="4.89924">
        <ele>165.60000610352</ele>
        <time>2014-08-28T10:16:46.000Z</time>
      </trkpt>
      <trkpt lat="45.71488" lon="4.89919">
        <ele>165.60000610352</ele>
        <time>2014-08-28T10:16:48.000Z</time>
      </trkpt>
      <trkpt lat="45.71489" lon="4.89904">
        <ele>165.60000610352</ele>
        <time>2014-08-28T10:16:53.000Z</time>
      </trkpt>
      <trkpt lat="45.71491" lon="4.89888">
        <ele>165.60000610352</ele>
        <time>2014-08-28T10:16:59.000Z</time>
      </trkpt>
      <trkpt lat="45.71495" lon="4.89872">
        <ele>165.60000610352</ele>
        <time>2014-08-28T10:17:05.000Z</time>
      </trkpt>
      <trkpt lat="45.715" lon="4.89848">
        <ele>165.60000610352</ele>
        <time>2014-08-28T10:17:10.000Z</time>
      </trkpt>
      <trkpt lat="45.71506" lon="4.8983">
        <ele>165.60000610352</ele>
        <time>2014-08-28T10:17:14.000Z</time>
      </trkpt>
      <trkpt lat="45.71508" lon="4.89833">
        <ele>165.60000610352</ele>
        <time>2014-08-28T10:17:15.000Z</time>
      </trkpt>
      <trkpt lat="45.71515" lon="4.89846">
        <ele>165.60000610352</ele>
        <time>2014-08-28T10:17:19.000Z</time>
      </trkpt>
      <trkpt lat="45.71517" lon="4.89854">
        <ele>165.60000610352</ele>
        <time>2014-08-28T10:17:21.000Z</time>
      </trkpt>
      <trkpt lat="45.7152" lon="4.89861">
        <ele>165.60000610352</ele>
        <time>2014-08-28T10:17:23.000Z</time>
      </trkpt>
      <trkpt lat="45.71522" lon="4.89872">
        <ele>165.60000610352</ele>
        <time>2014-08-28T10:17:25.000Z</time>
      </trkpt>
      <trkpt lat="45.71523" lon="4.89882">
        <ele>165.60000610352</ele>
        <time>2014-08-28T10:17:27.000Z</time>
      </trkpt>
      <trkpt lat="45.71525" lon="4.89899">
        <ele>165.60000610352</ele>
        <time>2014-08-28T10:17:30.000Z</time>
      </trkpt>
      <trkpt lat="45.71526" lon="4.89909">
        <ele>165.60000610352</ele>
        <time>2014-08-28T10:17:32.000Z</time>
      </trkpt>
      <trkpt lat="45.71527" lon="4.89923">
        <ele>165.60000610352</ele>
        <time>2014-08-28T10:17:37.000Z</time>
      </trkpt>
      <trkpt lat="45.71529" lon="4.8992">
        <ele>165.60000610352</ele>
        <time>2014-08-28T10:17:39.000Z</time>
      </trkpt>
      <trkpt lat="45.7153" lon="4.89919">
        <ele>165.60000610352</ele>
        <time>2014-08-28T10:17:42.000Z</time>
      </trkpt>
      <trkpt lat="45.71533" lon="4.89919">
        <ele>165.60000610352</ele>
        <time>2014-08-28T10:17:47.000Z</time>
      </trkpt>
      <trkpt lat="45.71544" lon="4.89919">
        <ele>165.60000610352</ele>
        <time>2014-08-28T10:17:53.000Z</time>
      </trkpt>
      <trkpt lat="45.71551" lon="4.89919">
        <ele>165.60000610352</ele>
        <time>2014-08-28T10:17:57.000Z</time>
      </trkpt>
      <trkpt lat="45.71552" lon="4.89921">
        <ele>165.60000610352</ele>
        <time>2014-08-28T10:17:58.000Z</time>
      </trkpt>
      <trkpt lat="45.7156" lon="4.89927">
        <ele>165.60000610352</ele>
        <time>2014-08-28T10:18:02.000Z</time>
      </trkpt>
      <trkpt lat="45.71575" lon="4.89942">
        <ele>165.60000610352</ele>
        <time>2014-08-28T10:18:08.000Z</time>
      </trkpt>
      <trkpt lat="45.71584" lon="4.89955">
        <ele>165.60000610352</ele>
        <time>2014-08-28T10:18:11.000Z</time>
      </trkpt>
      <trkpt lat="45.71594" lon="4.89967">
        <ele>165.60000610352</ele>
        <time>2014-08-28T10:18:14.000Z</time>
      </trkpt>
      <trkpt lat="45.71597" lon="4.89969">
        <ele>165.60000610352</ele>
        <time>2014-08-28T10:18:15.000Z</time>
      </trkpt>
      <trkpt lat="45.7161" lon="4.8997">
        <ele>165.60000610352</ele>
        <time>2014-08-28T10:18:18.000Z</time>
      </trkpt>
      <trkpt lat="45.71631" lon="4.89967">
        <ele>165.60000610352</ele>
        <time>2014-08-28T10:18:23.000Z</time>
      </trkpt>
      <trkpt lat="45.71646" lon="4.89962">
        <ele>165.60000610352</ele>
        <time>2014-08-28T10:18:27.000Z</time>
      </trkpt>
      <trkpt lat="45.71664" lon="4.89952">
        <ele>165.60000610352</ele>
        <time>2014-08-28T10:18:31.000Z</time>
      </trkpt>
      <trkpt lat="45.71677" lon="4.89947">
        <ele>165.60000610352</ele>
        <time>2014-08-28T10:18:35.000Z</time>
      </trkpt>
      <trkpt lat="45.7168" lon="4.8995">
        <ele>165.60000610352</ele>
        <time>2014-08-28T10:18:39.000Z</time>
      </trkpt>
      <trkpt lat="45.71684" lon="4.8995">
        <ele>165.60000610352</ele>
        <time>2014-08-28T10:18:43.000Z</time>
      </trkpt>
      <trkpt lat="45.71688" lon="4.89947">
        <ele>165.60000610352</ele>
        <time>2014-08-28T10:18:46.000Z</time>
      </trkpt>
      <trkpt lat="45.71689" lon="4.89947">
        <ele>165.60000610352</ele>
        <time>2014-08-28T10:18:47.000Z</time>
      </trkpt>
      <trkpt lat="45.71669" lon="4.89735">
        <ele>165.60000610352</ele>
        <time>2014-08-28T10:19:15.000Z</time>
      </trkpt>
      <trkpt lat="45.71674" lon="4.89739">
        <ele>165.60000610352</ele>
        <time>2014-08-28T10:19:16.000Z</time>
      </trkpt>
      <trkpt lat="45.71684" lon="4.89747">
        <ele>165.60000610352</ele>
        <time>2014-08-28T10:19:18.000Z</time>
      </trkpt>
      <trkpt lat="45.71696" lon="4.89753">
        <ele>165.60000610352</ele>
        <time>2014-08-28T10:19:21.000Z</time>
      </trkpt>
      <trkpt lat="45.71717" lon="4.89754">
        <ele>165.60000610352</ele>
        <time>2014-08-28T10:19:26.000Z</time>
      </trkpt>
      <trkpt lat="45.71732" lon="4.89742">
        <ele>165.60000610352</ele>
        <time>2014-08-28T10:19:30.000Z</time>
      </trkpt>
      <trkpt lat="45.71739" lon="4.89736">
        <ele>165.60000610352</ele>
        <time>2014-08-28T10:19:32.000Z</time>
      </trkpt>
      <trkpt lat="45.71743" lon="4.89729">
        <ele>165.60000610352</ele>
        <time>2014-08-28T10:19:34.000Z</time>
      </trkpt>
      <trkpt lat="45.71746" lon="4.89724">
        <ele>165.60000610352</ele>
        <time>2014-08-28T10:19:36.000Z</time>
      </trkpt>
      <trkpt lat="45.71749" lon="4.89722">
        <ele>165.60000610352</ele>
        <time>2014-08-28T10:19:39.000Z</time>
      </trkpt>
      <trkpt lat="45.71751" lon="4.89721">
        <ele>165.60000610352</ele>
        <time>2014-08-28T10:19:41.000Z</time>
      </trkpt>
      <trkpt lat="45.71755" lon="4.89721">
        <ele>165.60000610352</ele>
        <time>2014-08-28T10:19:44.000Z</time>
      </trkpt>
      <trkpt lat="45.71753" lon="4.8972">
        <ele>165.60000610352</ele>
        <time>2014-08-28T10:19:48.000Z</time>
      </trkpt>
      <trkpt lat="45.71753" lon="4.89715">
        <ele>165.60000610352</ele>
        <time>2014-08-28T10:19:52.000Z</time>
      </trkpt>
      <trkpt lat="45.71757" lon="4.89719">
        <ele>165.60000610352</ele>
        <time>2014-08-28T10:19:54.000Z</time>
      </trkpt>
      <trkpt lat="45.71797" lon="4.89802">
        <ele>165.60000610352</ele>
        <time>2014-08-28T10:19:58.000Z</time>
      </trkpt>
      <trkpt lat="45.71821" lon="4.89819">
        <ele>165.60000610352</ele>
        <time>2014-08-28T10:20:03.000Z</time>
      </trkpt>
      <trkpt lat="45.71848" lon="4.89824">
        <ele>165.60000610352</ele>
        <time>2014-08-28T10:20:09.000Z</time>
      </trkpt>
      <trkpt lat="45.71859" lon="4.89824">
        <ele>165.60000610352</ele>
        <time>2014-08-28T10:20:11.000Z</time>
      </trkpt>
      <trkpt lat="45.71867" lon="4.89822">
        <ele>165.60000610352</ele>
        <time>2014-08-28T10:20:13.000Z</time>
      </trkpt>
      <trkpt lat="45.71875" lon="4.89819">
        <ele>165.60000610352</ele>
        <time>2014-08-28T10:20:15.000Z</time>
      </trkpt>
      <trkpt lat="45.71881" lon="4.89818">
        <ele>165.60000610352</ele>
        <time>2014-08-28T10:20:16.000Z</time>
      </trkpt>
      <trkpt lat="45.71886" lon="4.89816">
        <ele>165.60000610352</ele>
        <time>2014-08-28T10:20:17.000Z</time>
      </trkpt>
      <trkpt lat="45.71904" lon="4.89807">
        <ele>165.60000610352</ele>
        <time>2014-08-28T10:20:21.000Z</time>
      </trkpt>
      <trkpt lat="45.71913" lon="4.89806">
        <ele>165.60000610352</ele>
        <time>2014-08-28T10:20:23.000Z</time>
      </trkpt>
      <trkpt lat="45.71922" lon="4.89806">
        <ele>165.60000610352</ele>
        <time>2014-08-28T10:20:25.000Z</time>
      </trkpt>
      <trkpt lat="45.71941" lon="4.89807">
        <ele>165.60000610352</ele>
        <time>2014-08-28T10:20:29.000Z</time>
      </trkpt>
      <trkpt lat="45.7196" lon="4.89809">
        <ele>165.60000610352</ele>
        <time>2014-08-28T10:20:33.000Z</time>
      </trkpt>
      <trkpt lat="45.71964" lon="4.89811">
        <ele>165.60000610352</ele>
        <time>2014-08-28T10:20:34.000Z</time>
      </trkpt>
      <trkpt lat="45.71971" lon="4.89818">
        <ele>165.60000610352</ele>
        <time>2014-08-28T10:20:38.000Z</time>
      </trkpt>
      <trkpt lat="45.71971" lon="4.89819">
        <ele>165.60000610352</ele>
        <time>2014-08-28T10:20:39.000Z</time>
      </trkpt>
      <trkpt lat="45.71969" lon="4.89819">
        <ele>165.60000610352</ele>
        <time>2014-08-28T10:20:41.000Z</time>
      </trkpt>
      <trkpt lat="45.71968" lon="4.89815">
        <ele>165.60000610352</ele>
        <time>2014-08-28T10:20:44.000Z</time>
      </trkpt>
      <trkpt lat="45.71969" lon="4.89814">
        <ele>165.60000610352</ele>
        <time>2014-08-28T10:20:45.000Z</time>
      </trkpt>
      <trkpt lat="45.71972" lon="4.89814">
        <ele>165.60000610352</ele>
        <time>2014-08-28T10:20:47.000Z</time>
      </trkpt>
      <trkpt lat="45.71976" lon="4.89815">
        <ele>165.60000610352</ele>
        <time>2014-08-28T10:20:50.000Z</time>
      </trkpt>
      <trkpt lat="45.71986" lon="4.89815">
        <ele>165.60000610352</ele>
        <time>2014-08-28T10:20:57.000Z</time>
      </trkpt>
      <trkpt lat="45.7199" lon="4.89812">
        <ele>165.60000610352</ele>
        <time>2014-08-28T10:21:00.000Z</time>
      </trkpt>
      <trkpt lat="45.71994" lon="4.89812">
        <ele>165.60000610352</ele>
        <time>2014-08-28T10:21:02.000Z</time>
      </trkpt>
      <trkpt lat="45.72005" lon="4.8981">
        <ele>165.60000610352</ele>
        <time>2014-08-28T10:21:06.000Z</time>
      </trkpt>
      <trkpt lat="45.72027" lon="4.8981">
        <ele>165.60000610352</ele>
        <time>2014-08-28T10:21:11.000Z</time>
      </trkpt>
      <trkpt lat="45.72039" lon="4.89814">
        <ele>165.60000610352</ele>
        <time>2014-08-28T10:21:14.000Z</time>
      </trkpt>
      <trkpt lat="45.72051" lon="4.89814">
        <ele>165.60000610352</ele>
        <time>2014-08-28T10:21:17.000Z</time>
      </trkpt>
      <trkpt lat="45.72064" lon="4.89812">
        <ele>165.60000610352</ele>
        <time>2014-08-28T10:21:20.000Z</time>
      </trkpt>
      <trkpt lat="45.72075" lon="4.89809">
        <ele>165.60000610352</ele>
        <time>2014-08-28T10:21:23.000Z</time>
      </trkpt>
      <trkpt lat="45.7209" lon="4.89803">
        <ele>165.60000610352</ele>
        <time>2014-08-28T10:21:27.000Z</time>
      </trkpt>
      <trkpt lat="45.72103" lon="4.89799">
        <ele>165.60000610352</ele>
        <time>2014-08-28T10:21:30.000Z</time>
      </trkpt>
      <trkpt lat="45.72107" lon="4.89799">
        <ele>165.60000610352</ele>
        <time>2014-08-28T10:21:31.000Z</time>
      </trkpt>
      <trkpt lat="45.72113" lon="4.89796">
        <ele>165.60000610352</ele>
        <time>2014-08-28T10:21:32.000Z</time>
      </trkpt>
      <trkpt lat="45.72119" lon="4.89793">
        <ele>165.60000610352</ele>
        <time>2014-08-28T10:21:34.000Z</time>
      </trkpt>
      <trkpt lat="45.72126" lon="4.89795">
        <ele>165.60000610352</ele>
        <time>2014-08-28T10:21:37.000Z</time>
      </trkpt>
      <trkpt lat="45.72128" lon="4.89797">
        <ele>165.60000610352</ele>
        <time>2014-08-28T10:21:38.000Z</time>
      </trkpt>
      <trkpt lat="45.72126" lon="4.89798">
        <ele>165.60000610352</ele>
        <time>2014-08-28T10:21:41.000Z</time>
      </trkpt>
      <trkpt lat="45.72125" lon="4.89797">
        <ele>165.60000610352</ele>
        <time>2014-08-28T10:21:43.000Z</time>
      </trkpt>
      <trkpt lat="45.72124" lon="4.89794">
        <ele>165.60000610352</ele>
        <time>2014-08-28T10:21:45.000Z</time>
      </trkpt>
      <trkpt lat="45.72125" lon="4.89792">
        <ele>165.60000610352</ele>
        <time>2014-08-28T10:21:46.000Z</time>
      </trkpt>
      <trkpt lat="45.7213" lon="4.89791">
        <ele>165.60000610352</ele>
        <time>2014-08-28T10:21:50.000Z</time>
      </trkpt>
      <trkpt lat="45.72137" lon="4.8979">
        <ele>165.60000610352</ele>
        <time>2014-08-28T10:21:56.000Z</time>
      </trkpt>
      <trkpt lat="45.72144" lon="4.89788">
        <ele>165.60000610352</ele>
        <time>2014-08-28T10:22:01.000Z</time>
      </trkpt>
      <trkpt lat="45.72156" lon="4.89787">
        <ele>165.60000610352</ele>
        <time>2014-08-28T10:22:06.000Z</time>
      </trkpt>
      <trkpt lat="45.72159" lon="4.89785">
        <ele>165.60000610352</ele>
        <time>2014-08-28T10:22:07.000Z</time>
      </trkpt>
      <trkpt lat="45.72169" lon="4.89776">
        <ele>165.60000610352</ele>
        <time>2014-08-28T10:22:10.000Z</time>
      </trkpt>
      <trkpt lat="45.72184" lon="4.89763">
        <ele>165.60000610352</ele>
        <time>2014-08-28T10:22:14.000Z</time>
      </trkpt>
      <trkpt lat="45.72187" lon="4.89758">
        <ele>165.60000610352</ele>
        <time>2014-08-28T10:22:15.000Z</time>
      </trkpt>
      <trkpt lat="45.72194" lon="4.89743">
        <ele>165.60000610352</ele>
        <time>2014-08-28T10:22:18.000Z</time>
      </trkpt>
      <trkpt lat="45.72196" lon="4.89737">
        <ele>165.60000610352</ele>
        <time>2014-08-28T10:22:19.000Z</time>
      </trkpt>
      <trkpt lat="45.72202" lon="4.89721">
        <ele>165.60000610352</ele>
        <time>2014-08-28T10:22:22.000Z</time>
      </trkpt>
      <trkpt lat="45.72204" lon="4.89716">
        <ele>165.60000610352</ele>
        <time>2014-08-28T10:22:23.000Z</time>
      </trkpt>
      <trkpt lat="45.72211" lon="4.89701">
        <ele>165.60000610352</ele>
        <time>2014-08-28T10:22:26.000Z</time>
      </trkpt>
      <trkpt lat="45.72219" lon="4.89678">
        <ele>165.60000610352</ele>
        <time>2014-08-28T10:22:31.000Z</time>
      </trkpt>
      <trkpt lat="45.72223" lon="4.89652">
        <ele>165.60000610352</ele>
        <time>2014-08-28T10:22:36.000Z</time>
      </trkpt>
      <trkpt lat="45.72223" lon="4.89645">
        <ele>165.60000610352</ele>
        <time>2014-08-28T10:22:40.000Z</time>
      </trkpt>
      <trkpt lat="45.72222" lon="4.89652">
        <ele>165.60000610352</ele>
        <time>2014-08-28T10:22:45.000Z</time>
      </trkpt>
      <trkpt lat="45.72222" lon="4.89653">
        <ele>165.60000610352</ele>
        <time>2014-08-28T10:22:46.000Z</time>
      </trkpt>
      <trkpt lat="45.72223" lon="4.89656">
        <ele>165.60000610352</ele>
        <time>2014-08-28T10:22:48.000Z</time>
      </trkpt>
      <trkpt lat="45.72223" lon="4.89659">
        <ele>165.60000610352</ele>
        <time>2014-08-28T10:22:49.000Z</time>
      </trkpt>
      <trkpt lat="45.72222" lon="4.89661">
        <ele>165.60000610352</ele>
        <time>2014-08-28T10:22:52.000Z</time>
      </trkpt>
      <trkpt lat="45.72222" lon="4.89657">
        <ele>165.60000610352</ele>
        <time>2014-08-28T10:22:54.000Z</time>
      </trkpt>
      <trkpt lat="45.72224" lon="4.89651">
        <ele>165.60000610352</ele>
        <time>2014-08-28T10:22:57.000Z</time>
      </trkpt>
      <trkpt lat="45.72226" lon="4.8964">
        <ele>165.60000610352</ele>
        <time>2014-08-28T10:23:02.000Z</time>
      </trkpt>
      <trkpt lat="45.72227" lon="4.89626">
        <ele>165.60000610352</ele>
        <time>2014-08-28T10:23:06.000Z</time>
      </trkpt>
      <trkpt lat="45.72231" lon="4.89603">
        <ele>165.60000610352</ele>
        <time>2014-08-28T10:23:10.000Z</time>
      </trkpt>
      <trkpt lat="45.72237" lon="4.89582">
        <ele>165.60000610352</ele>
        <time>2014-08-28T10:23:14.000Z</time>
      </trkpt>
      <trkpt lat="45.72238" lon="4.89574">
        <ele>166</ele>
        <time>2014-08-28T10:23:16.000Z</time>
      </trkpt>
      <trkpt lat="45.72238" lon="4.89567">
        <ele>166.39999389648</ele>
        <time>2014-08-28T10:23:17.000Z</time>
      </trkpt>
      <trkpt lat="45.72239" lon="4.89562">
        <ele>166.80000305176</ele>
        <time>2014-08-28T10:23:18.000Z</time>
      </trkpt>
      <trkpt lat="45.7224" lon="4.89557">
        <ele>167.19999694824</ele>
        <time>2014-08-28T10:23:19.000Z</time>
      </trkpt>
      <trkpt lat="45.72241" lon="4.8955">
        <ele>167.60000610352</ele>
        <time>2014-08-28T10:23:20.000Z</time>
      </trkpt>
      <trkpt lat="45.72246" lon="4.89536">
        <ele>167.60000610352</ele>
        <time>2014-08-28T10:23:23.000Z</time>
      </trkpt>
      <trkpt lat="45.72249" lon="4.89531">
        <ele>167.60000610352</ele>
        <time>2014-08-28T10:23:24.000Z</time>
      </trkpt>
      <trkpt lat="45.72256" lon="4.89515">
        <ele>167.60000610352</ele>
        <time>2014-08-28T10:23:27.000Z</time>
      </trkpt>
      <trkpt lat="45.72263" lon="4.89501">
        <ele>167.60000610352</ele>
        <time>2014-08-28T10:23:30.000Z</time>
      </trkpt>
      <trkpt lat="45.72272" lon="4.89488">
        <ele>167.60000610352</ele>
        <time>2014-08-28T10:23:33.000Z</time>
      </trkpt>
      <trkpt lat="45.72278" lon="4.89483">
        <ele>167.60000610352</ele>
        <time>2014-08-28T10:23:36.000Z</time>
      </trkpt>
      <trkpt lat="45.72278" lon="4.89481">
        <ele>167.60000610352</ele>
        <time>2014-08-28T10:23:41.000Z</time>
      </trkpt>
      <trkpt lat="45.72276" lon="4.89482">
        <ele>167.60000610352</ele>
        <time>2014-08-28T10:23:45.000Z</time>
      </trkpt>
      <trkpt lat="45.72279" lon="4.89481">
        <ele>167.60000610352</ele>
        <time>2014-08-28T10:23:47.000Z</time>
      </trkpt>
      <trkpt lat="45.7228" lon="4.89478">
        <ele>167.60000610352</ele>
        <time>2014-08-28T10:23:49.000Z</time>
      </trkpt>
      <trkpt lat="45.72281" lon="4.89474">
        <ele>167.60000610352</ele>
        <time>2014-08-28T10:23:51.000Z</time>
      </trkpt>
      <trkpt lat="45.72283" lon="4.89468">
        <ele>167.60000610352</ele>
        <time>2014-08-28T10:23:54.000Z</time>
      </trkpt>
      <trkpt lat="45.72285" lon="4.89467">
        <ele>167.60000610352</ele>
        <time>2014-08-28T10:23:56.000Z</time>
      </trkpt>
      <trkpt lat="45.72287" lon="4.89467">
        <ele>167.60000610352</ele>
        <time>2014-08-28T10:23:58.000Z</time>
      </trkpt>
      <trkpt lat="45.72292" lon="4.89464">
        <ele>167.60000610352</ele>
        <time>2014-08-28T10:24:03.000Z</time>
      </trkpt>
      <trkpt lat="45.72297" lon="4.89462">
        <ele>167.60000610352</ele>
        <time>2014-08-28T10:24:10.000Z</time>
      </trkpt>
      <trkpt lat="45.72297" lon="4.89455">
        <ele>167.60000610352</ele>
        <time>2014-08-28T10:24:16.000Z</time>
      </trkpt>
      <trkpt lat="45.72298" lon="4.89446">
        <ele>167.60000610352</ele>
        <time>2014-08-28T10:24:22.000Z</time>
      </trkpt>
      <trkpt lat="45.72303" lon="4.89434">
        <ele>167.60000610352</ele>
        <time>2014-08-28T10:24:27.000Z</time>
      </trkpt>
      <trkpt lat="45.72307" lon="4.89425">
        <ele>167.60000610352</ele>
        <time>2014-08-28T10:24:31.000Z</time>
      </trkpt>
      <trkpt lat="45.72312" lon="4.89413">
        <ele>167.60000610352</ele>
        <time>2014-08-28T10:24:35.000Z</time>
      </trkpt>
      <trkpt lat="45.72318" lon="4.89402">
        <ele>167.60000610352</ele>
        <time>2014-08-28T10:24:39.000Z</time>
      </trkpt>
      <trkpt lat="45.72322" lon="4.89397">
        <ele>167.60000610352</ele>
        <time>2014-08-28T10:24:41.000Z</time>
      </trkpt>
      <trkpt lat="45.72327" lon="4.89392">
        <ele>167.60000610352</ele>
        <time>2014-08-28T10:24:43.000Z</time>
      </trkpt>
      <trkpt lat="45.72331" lon="4.89385">
        <ele>167.60000610352</ele>
        <time>2014-08-28T10:24:46.000Z</time>
      </trkpt>
      <trkpt lat="45.72334" lon="4.89378">
        <ele>167.60000610352</ele>
        <time>2014-08-28T10:24:48.000Z</time>
      </trkpt>
      <trkpt lat="45.72338" lon="4.89374">
        <ele>167.60000610352</ele>
        <time>2014-08-28T10:24:50.000Z</time>
      </trkpt>
      <trkpt lat="45.72341" lon="4.89368">
        <ele>167.60000610352</ele>
        <time>2014-08-28T10:24:52.000Z</time>
      </trkpt>
      <trkpt lat="45.72348" lon="4.89356">
        <ele>167.60000610352</ele>
        <time>2014-08-28T10:24:56.000Z</time>
      </trkpt>
      <trkpt lat="45.72353" lon="4.89347">
        <ele>167.60000610352</ele>
        <time>2014-08-28T10:24:59.000Z</time>
      </trkpt>
      <trkpt lat="45.72361" lon="4.89333">
        <ele>167.60000610352</ele>
        <time>2014-08-28T10:25:04.000Z</time>
      </trkpt>
      <trkpt lat="45.72368" lon="4.8932">
        <ele>167.60000610352</ele>
        <time>2014-08-28T10:25:09.000Z</time>
      </trkpt>
      <trkpt lat="45.72371" lon="4.89315">
        <ele>167.60000610352</ele>
        <time>2014-08-28T10:25:11.000Z</time>
      </trkpt>
      <trkpt lat="45.72375" lon="4.89306">
        <ele>167.60000610352</ele>
        <time>2014-08-28T10:25:14.000Z</time>
      </trkpt>
      <trkpt lat="45.72382" lon="4.89291">
        <ele>167.60000610352</ele>
        <time>2014-08-28T10:25:18.000Z</time>
      </trkpt>
      <trkpt lat="45.72383" lon="4.89288">
        <ele>167.60000610352</ele>
        <time>2014-08-28T10:25:19.000Z</time>
      </trkpt>
      <trkpt lat="45.72389" lon="4.89277">
        <ele>167.60000610352</ele>
        <time>2014-08-28T10:25:23.000Z</time>
      </trkpt>
      <trkpt lat="45.72401" lon="4.8926">
        <ele>167.60000610352</ele>
        <time>2014-08-28T10:25:30.000Z</time>
      </trkpt>
      <trkpt lat="45.72406" lon="4.89249">
        <ele>167.60000610352</ele>
        <time>2014-08-28T10:25:34.000Z</time>
      </trkpt>
      <trkpt lat="45.72411" lon="4.8924">
        <ele>167.60000610352</ele>
        <time>2014-08-28T10:25:37.000Z</time>
      </trkpt>
      <trkpt lat="45.72418" lon="4.89231">
        <ele>167.60000610352</ele>
        <time>2014-08-28T10:25:41.000Z</time>
      </trkpt>
      <trkpt lat="45.72421" lon="4.89219">
        <ele>167.60000610352</ele>
        <time>2014-08-28T10:25:44.000Z</time>
      </trkpt>
      <trkpt lat="45.72426" lon="4.892">
        <ele>167.60000610352</ele>
        <time>2014-08-28T10:25:49.000Z</time>
      </trkpt>
      <trkpt lat="45.72435" lon="4.89179">
        <ele>167.60000610352</ele>
        <time>2014-08-28T10:25:55.000Z</time>
      </trkpt>
      <trkpt lat="45.72437" lon="4.89176">
        <ele>167.19999694824</ele>
        <time>2014-08-28T10:25:56.000Z</time>
      </trkpt>
      <trkpt lat="45.72439" lon="4.89174">
        <ele>166.80000305176</ele>
        <time>2014-08-28T10:25:57.000Z</time>
      </trkpt>
      <trkpt lat="45.72441" lon="4.89173">
        <ele>166.39999389648</ele>
        <time>2014-08-28T10:25:58.000Z</time>
      </trkpt>
      <trkpt lat="45.72442" lon="4.89167">
        <ele>166</ele>
        <time>2014-08-28T10:25:59.000Z</time>
      </trkpt>
      <trkpt lat="45.72441" lon="4.89164">
        <ele>165.60000610352</ele>
        <time>2014-08-28T10:26:00.000Z</time>
      </trkpt>
      <trkpt lat="45.72443" lon="4.89158">
        <ele>165.60000610352</ele>
        <time>2014-08-28T10:26:02.000Z</time>
      </trkpt>
      <trkpt lat="45.72444" lon="4.89155">
        <ele>165.60000610352</ele>
        <time>2014-08-28T10:26:03.000Z</time>
      </trkpt>
      <trkpt lat="45.72449" lon="4.89147">
        <ele>165.60000610352</ele>
        <time>2014-08-28T10:26:06.000Z</time>
      </trkpt>
      <trkpt lat="45.72454" lon="4.89131">
        <ele>165.60000610352</ele>
        <time>2014-08-28T10:26:11.000Z</time>
      </trkpt>
      <trkpt lat="45.72457" lon="4.89116">
        <ele>165.60000610352</ele>
        <time>2014-08-28T10:26:15.000Z</time>
      </trkpt>
      <trkpt lat="45.72462" lon="4.89101">
        <ele>165.60000610352</ele>
        <time>2014-08-28T10:26:19.000Z</time>
      </trkpt>
      <trkpt lat="45.72463" lon="4.89098">
        <ele>165.60000610352</ele>
        <time>2014-08-28T10:26:20.000Z</time>
      </trkpt>
      <trkpt lat="45.72468" lon="4.89081">
        <ele>165.60000610352</ele>
        <time>2014-08-28T10:26:25.000Z</time>
      </trkpt>
      <trkpt lat="45.72469" lon="4.89079">
        <ele>165.60000610352</ele>
        <time>2014-08-28T10:26:26.000Z</time>
      </trkpt>
      <trkpt lat="45.72469" lon="4.89077">
        <ele>165.60000610352</ele>
        <time>2014-08-28T10:26:27.000Z</time>
      </trkpt>
      <trkpt lat="45.72469" lon="4.8907">
        <ele>165.60000610352</ele>
        <time>2014-08-28T10:26:29.000Z</time>
      </trkpt>
      <trkpt lat="45.72472" lon="4.89057">
        <ele>165.60000610352</ele>
        <time>2014-08-28T10:26:33.000Z</time>
      </trkpt>
      <trkpt lat="45.72476" lon="4.89047">
        <ele>165.60000610352</ele>
        <time>2014-08-28T10:26:36.000Z</time>
      </trkpt>
      <trkpt lat="45.72479" lon="4.89035">
        <ele>165.60000610352</ele>
        <time>2014-08-28T10:26:40.000Z</time>
      </trkpt>
      <trkpt lat="45.72485" lon="4.89024">
        <ele>165.60000610352</ele>
        <time>2014-08-28T10:26:45.000Z</time>
      </trkpt>
      <trkpt lat="45.72487" lon="4.89018">
        <ele>165.60000610352</ele>
        <time>2014-08-28T10:26:47.000Z</time>
      </trkpt>
      <trkpt lat="45.72489" lon="4.89013">
        <ele>165.60000610352</ele>
        <time>2014-08-28T10:26:49.000Z</time>
      </trkpt>
      <trkpt lat="45.72491" lon="4.89006">
        <ele>165.60000610352</ele>
        <time>2014-08-28T10:26:51.000Z</time>
      </trkpt>
      <trkpt lat="45.72494" lon="4.89">
        <ele>165.60000610352</ele>
        <time>2014-08-28T10:26:53.000Z</time>
      </trkpt>
      <trkpt lat="45.72502" lon="4.88978">
        <ele>165.60000610352</ele>
        <time>2014-08-28T10:26:59.000Z</time>
      </trkpt>
      <trkpt lat="45.72508" lon="4.88959">
        <ele>165.60000610352</ele>
        <time>2014-08-28T10:27:05.000Z</time>
      </trkpt>
      <trkpt lat="45.72514" lon="4.88948">
        <ele>165.60000610352</ele>
        <time>2014-08-28T10:27:09.000Z</time>
      </trkpt>
      <trkpt lat="45.72518" lon="4.88936">
        <ele>165.60000610352</ele>
        <time>2014-08-28T10:27:13.000Z</time>
      </trkpt>
      <trkpt lat="45.7252" lon="4.88933">
        <ele>165.60000610352</ele>
        <time>2014-08-28T10:27:14.000Z</time>
      </trkpt>
      <trkpt lat="45.72523" lon="4.88922">
        <ele>165.60000610352</ele>
        <time>2014-08-28T10:27:17.000Z</time>
      </trkpt>
      <trkpt lat="45.72525" lon="4.88917">
        <ele>165.60000610352</ele>
        <time>2014-08-28T10:27:19.000Z</time>
      </trkpt>
      <trkpt lat="45.72527" lon="4.88911">
        <ele>165.60000610352</ele>
        <time>2014-08-28T10:27:21.000Z</time>
      </trkpt>
      <trkpt lat="45.72535" lon="4.88899">
        <ele>165.60000610352</ele>
        <time>2014-08-28T10:27:25.000Z</time>
      </trkpt>
      <trkpt lat="45.72539" lon="4.88888">
        <ele>165.60000610352</ele>
        <time>2014-08-28T10:27:29.000Z</time>
      </trkpt>
      <trkpt lat="45.72544" lon="4.88871">
        <ele>165.60000610352</ele>
        <time>2014-08-28T10:27:33.000Z</time>
      </trkpt>
      <trkpt lat="45.72549" lon="4.88859">
        <ele>165.60000610352</ele>
        <time>2014-08-28T10:27:37.000Z</time>
      </trkpt>
      <trkpt lat="45.72555" lon="4.88844">
        <ele>165.60000610352</ele>
        <time>2014-08-28T10:27:41.000Z</time>
      </trkpt>
      <trkpt lat="45.72559" lon="4.88831">
        <ele>165.60000610352</ele>
        <time>2014-08-28T10:27:45.000Z</time>
      </trkpt>
      <trkpt lat="45.72564" lon="4.88813">
        <ele>165.60000610352</ele>
        <time>2014-08-28T10:27:49.000Z</time>
      </trkpt>
      <trkpt lat="45.72568" lon="4.88804">
        <ele>165.60000610352</ele>
        <time>2014-08-28T10:27:52.000Z</time>
      </trkpt>
      <trkpt lat="45.72572" lon="4.8879">
        <ele>165.60000610352</ele>
        <time>2014-08-28T10:27:56.000Z</time>
      </trkpt>
      <trkpt lat="45.72578" lon="4.88774">
        <ele>165.60000610352</ele>
        <time>2014-08-28T10:28:01.000Z</time>
      </trkpt>
      <trkpt lat="45.72587" lon="4.88756">
        <ele>165.60000610352</ele>
        <time>2014-08-28T10:28:07.000Z</time>
      </trkpt>
      <trkpt lat="45.7259" lon="4.88746">
        <ele>165.60000610352</ele>
        <time>2014-08-28T10:28:11.000Z</time>
      </trkpt>
      <trkpt lat="45.72596" lon="4.88726">
        <ele>165.60000610352</ele>
        <time>2014-08-28T10:28:17.000Z</time>
      </trkpt>
      <trkpt lat="45.72601" lon="4.88717">
        <ele>165.60000610352</ele>
        <time>2014-08-28T10:28:20.000Z</time>
      </trkpt>
      <trkpt lat="45.72612" lon="4.88708">
        <ele>165.60000610352</ele>
        <time>2014-08-28T10:28:25.000Z</time>
      </trkpt>
      <trkpt lat="45.72616" lon="4.88704">
        <ele>165.60000610352</ele>
        <time>2014-08-28T10:28:30.000Z</time>
      </trkpt>
      <trkpt lat="45.72617" lon="4.88703">
        <ele>165.60000610352</ele>
        <time>2014-08-28T10:28:35.000Z</time>
      </trkpt>
      <trkpt lat="45.72617" lon="4.88703">
        <ele>165.60000610352</ele>
        <time>2014-08-28T10:28:42.000Z</time>
      </trkpt>
      <trkpt lat="45.72617" lon="4.88703">
        <ele>165.60000610352</ele>
        <time>2014-08-28T10:28:51.000Z</time>
      </trkpt>
      <trkpt lat="45.72617" lon="4.88703">
        <ele>165.60000610352</ele>
        <time>2014-08-28T10:28:59.000Z</time>
      </trkpt>
      <trkpt lat="45.72617" lon="4.88703">
        <ele>165.60000610352</ele>
        <time>2014-08-28T10:29:07.000Z</time>
      </trkpt>
      <trkpt lat="45.72617" lon="4.88703">
        <ele>165.60000610352</ele>
        <time>2014-08-28T10:29:15.000Z</time>
      </trkpt>
      <trkpt lat="45.72618" lon="4.88703">
        <ele>165.60000610352</ele>
        <time>2014-08-28T10:29:21.000Z</time>
      </trkpt>
      <trkpt lat="45.72619" lon="4.88695">
        <ele>165.60000610352</ele>
        <time>2014-08-28T10:29:24.000Z</time>
      </trkpt>
      <trkpt lat="45.72619" lon="4.88693">
        <ele>165.60000610352</ele>
        <time>2014-08-28T10:29:25.000Z</time>
      </trkpt>
      <trkpt lat="45.72619" lon="4.88681">
        <ele>165.60000610352</ele>
        <time>2014-08-28T10:29:28.000Z</time>
      </trkpt>
      <trkpt lat="45.72622" lon="4.88667">
        <ele>165.60000610352</ele>
        <time>2014-08-28T10:29:32.000Z</time>
      </trkpt>
      <trkpt lat="45.72622" lon="4.88666">
        <ele>165.60000610352</ele>
        <time>2014-08-28T10:29:33.000Z</time>
      </trkpt>
      <trkpt lat="45.72625" lon="4.8866">
        <ele>165.60000610352</ele>
        <time>2014-08-28T10:29:35.000Z</time>
      </trkpt>
      <trkpt lat="45.7263" lon="4.8865">
        <ele>165.60000610352</ele>
        <time>2014-08-28T10:29:38.000Z</time>
      </trkpt>
      <trkpt lat="45.72632" lon="4.88647">
        <ele>165.60000610352</ele>
        <time>2014-08-28T10:29:39.000Z</time>
      </trkpt>
      <trkpt lat="45.72635" lon="4.88641">
        <ele>165.60000610352</ele>
        <time>2014-08-28T10:29:42.000Z</time>
      </trkpt>
      <trkpt lat="45.7264" lon="4.88631">
        <ele>165.60000610352</ele>
        <time>2014-08-28T10:29:46.000Z</time>
      </trkpt>
      <trkpt lat="45.72641" lon="4.88628">
        <ele>165.60000610352</ele>
        <time>2014-08-28T10:29:47.000Z</time>
      </trkpt>
      <trkpt lat="45.72646" lon="4.88613">
        <ele>165.60000610352</ele>
        <time>2014-08-28T10:29:52.000Z</time>
      </trkpt>
      <trkpt lat="45.72651" lon="4.88598">
        <ele>165.60000610352</ele>
        <time>2014-08-28T10:29:57.000Z</time>
      </trkpt>
      <trkpt lat="45.72653" lon="4.88598">
        <ele>165.60000610352</ele>
        <time>2014-08-28T10:29:58.000Z</time>
      </trkpt>
      <trkpt lat="45.72659" lon="4.88581">
        <ele>165.60000610352</ele>
        <time>2014-08-28T10:30:04.000Z</time>
      </trkpt>
      <trkpt lat="45.72664" lon="4.88573">
        <ele>165.60000610352</ele>
        <time>2014-08-28T10:30:07.000Z</time>
      </trkpt>
      <trkpt lat="45.7267" lon="4.88559">
        <ele>165.60000610352</ele>
        <time>2014-08-28T10:30:12.000Z</time>
      </trkpt>
      <trkpt lat="45.72675" lon="4.88545">
        <ele>165.60000610352</ele>
        <time>2014-08-28T10:30:16.000Z</time>
      </trkpt>
      <trkpt lat="45.72685" lon="4.88529">
        <ele>165.60000610352</ele>
        <time>2014-08-28T10:30:21.000Z</time>
      </trkpt>
      <trkpt lat="45.72695" lon="4.8851">
        <ele>165.60000610352</ele>
        <time>2014-08-28T10:30:27.000Z</time>
      </trkpt>
      <trkpt lat="45.72701" lon="4.88495">
        <ele>165.60000610352</ele>
        <time>2014-08-28T10:30:32.000Z</time>
      </trkpt>
      <trkpt lat="45.72703" lon="4.88479">
        <ele>165.60000610352</ele>
        <time>2014-08-28T10:30:37.000Z</time>
      </trkpt>
      <trkpt lat="45.72705" lon="4.88478">
        <ele>165.60000610352</ele>
        <time>2014-08-28T10:30:38.000Z</time>
      </trkpt>
      <trkpt lat="45.7271" lon="4.8847">
        <ele>165.60000610352</ele>
        <time>2014-08-28T10:30:41.000Z</time>
      </trkpt>
      <trkpt lat="45.72715" lon="4.88459">
        <ele>165.60000610352</ele>
        <time>2014-08-28T10:30:44.000Z</time>
      </trkpt>
      <trkpt lat="45.72715" lon="4.88458">
        <ele>165.60000610352</ele>
        <time>2014-08-28T10:30:45.000Z</time>
      </trkpt>
      <trkpt lat="45.72717" lon="4.88451">
        <ele>165.60000610352</ele>
        <time>2014-08-28T10:30:47.000Z</time>
      </trkpt>
      <trkpt lat="45.7272" lon="4.88444">
        <ele>165.60000610352</ele>
        <time>2014-08-28T10:30:49.000Z</time>
      </trkpt>
      <trkpt lat="45.72727" lon="4.88429">
        <ele>165.60000610352</ele>
        <time>2014-08-28T10:30:54.000Z</time>
      </trkpt>
      <trkpt lat="45.72733" lon="4.8841">
        <ele>165.60000610352</ele>
        <time>2014-08-28T10:30:58.000Z</time>
      </trkpt>
      <trkpt lat="45.72738" lon="4.88394">
        <ele>165.60000610352</ele>
        <time>2014-08-28T10:31:03.000Z</time>
      </trkpt>
      <trkpt lat="45.72743" lon="4.88385">
        <ele>165.60000610352</ele>
        <time>2014-08-28T10:31:06.000Z</time>
      </trkpt>
      <trkpt lat="45.72748" lon="4.88379">
        <ele>165.60000610352</ele>
        <time>2014-08-28T10:31:08.000Z</time>
      </trkpt>
      <trkpt lat="45.72749" lon="4.88375">
        <ele>165.60000610352</ele>
        <time>2014-08-28T10:31:09.000Z</time>
      </trkpt>
      <trkpt lat="45.72753" lon="4.88367">
        <ele>165.60000610352</ele>
        <time>2014-08-28T10:31:12.000Z</time>
      </trkpt>
      <trkpt lat="45.72757" lon="4.88358">
        <ele>165.60000610352</ele>
        <time>2014-08-28T10:31:15.000Z</time>
      </trkpt>
      <trkpt lat="45.72758" lon="4.88355">
        <ele>165.60000610352</ele>
        <time>2014-08-28T10:31:16.000Z</time>
      </trkpt>
      <trkpt lat="45.72762" lon="4.88341">
        <ele>165.60000610352</ele>
        <time>2014-08-28T10:31:20.000Z</time>
      </trkpt>
      <trkpt lat="45.72763" lon="4.88338">
        <ele>165.60000610352</ele>
        <time>2014-08-28T10:31:21.000Z</time>
      </trkpt>
      <trkpt lat="45.72767" lon="4.88328">
        <ele>165.60000610352</ele>
        <time>2014-08-28T10:31:24.000Z</time>
      </trkpt>
      <trkpt lat="45.72772" lon="4.8831">
        <ele>165.60000610352</ele>
        <time>2014-08-28T10:31:29.000Z</time>
      </trkpt>
      <trkpt lat="45.72776" lon="4.88304">
        <ele>165.60000610352</ele>
        <time>2014-08-28T10:31:31.000Z</time>
      </trkpt>
      <trkpt lat="45.7278" lon="4.88296">
        <ele>165.60000610352</ele>
        <time>2014-08-28T10:31:34.000Z</time>
      </trkpt>
      <trkpt lat="45.72786" lon="4.88287">
        <ele>165.60000610352</ele>
        <time>2014-08-28T10:31:38.000Z</time>
      </trkpt>
      <trkpt lat="45.72788" lon="4.88277">
        <ele>165.60000610352</ele>
        <time>2014-08-28T10:31:43.000Z</time>
      </trkpt>
      <trkpt lat="45.72792" lon="4.88265">
        <ele>165.60000610352</ele>
        <time>2014-08-28T10:31:47.000Z</time>
      </trkpt>
      <trkpt lat="45.72792" lon="4.88261">
        <ele>165.60000610352</ele>
        <time>2014-08-28T10:31:48.000Z</time>
      </trkpt>
      <trkpt lat="45.72794" lon="4.88244">
        <ele>165.60000610352</ele>
        <time>2014-08-28T10:31:54.000Z</time>
      </trkpt>
      <trkpt lat="45.72797" lon="4.88231">
        <ele>165.60000610352</ele>
        <time>2014-08-28T10:31:58.000Z</time>
      </trkpt>
      <trkpt lat="45.72799" lon="4.88227">
        <ele>165.60000610352</ele>
        <time>2014-08-28T10:31:59.000Z</time>
      </trkpt>
      <trkpt lat="45.72804" lon="4.88213">
        <ele>165.60000610352</ele>
        <time>2014-08-28T10:32:03.000Z</time>
      </trkpt>
      <trkpt lat="45.72807" lon="4.88208">
        <ele>165.60000610352</ele>
        <time>2014-08-28T10:32:05.000Z</time>
      </trkpt>
      <trkpt lat="45.7281" lon="4.88201">
        <ele>165.60000610352</ele>
        <time>2014-08-28T10:32:08.000Z</time>
      </trkpt>
      <trkpt lat="45.72817" lon="4.88183">
        <ele>166</ele>
        <time>2014-08-28T10:32:13.000Z</time>
      </trkpt>
      <trkpt lat="45.72818" lon="4.8818">
        <ele>166.39999389648</ele>
        <time>2014-08-28T10:32:14.000Z</time>
      </trkpt>
      <trkpt lat="45.7282" lon="4.88176">
        <ele>166.80000305176</ele>
        <time>2014-08-28T10:32:15.000Z</time>
      </trkpt>
      <trkpt lat="45.72821" lon="4.88172">
        <ele>167.19999694824</ele>
        <time>2014-08-28T10:32:16.000Z</time>
      </trkpt>
      <trkpt lat="45.72823" lon="4.88167">
        <ele>167.60000610352</ele>
        <time>2014-08-28T10:32:17.000Z</time>
      </trkpt>
      <trkpt lat="45.72824" lon="4.88164">
        <ele>167.60000610352</ele>
        <time>2014-08-28T10:32:18.000Z</time>
      </trkpt>
      <trkpt lat="45.72828" lon="4.88155">
        <ele>167.60000610352</ele>
        <time>2014-08-28T10:32:21.000Z</time>
      </trkpt>
      <trkpt lat="45.72836" lon="4.88139">
        <ele>167.60000610352</ele>
        <time>2014-08-28T10:32:25.000Z</time>
      </trkpt>
      <trkpt lat="45.72845" lon="4.88118">
        <ele>167.60000610352</ele>
        <time>2014-08-28T10:32:31.000Z</time>
      </trkpt>
      <trkpt lat="45.72852" lon="4.88105">
        <ele>167.60000610352</ele>
        <time>2014-08-28T10:32:35.000Z</time>
      </trkpt>
      <trkpt lat="45.72859" lon="4.88094">
        <ele>167.60000610352</ele>
        <time>2014-08-28T10:32:39.000Z</time>
      </trkpt>
      <trkpt lat="45.72868" lon="4.88079">
        <ele>167.60000610352</ele>
        <time>2014-08-28T10:32:44.000Z</time>
      </trkpt>
      <trkpt lat="45.72873" lon="4.88061">
        <ele>167.60000610352</ele>
        <time>2014-08-28T10:32:49.000Z</time>
      </trkpt>
      <trkpt lat="45.72879" lon="4.88042">
        <ele>167.60000610352</ele>
        <time>2014-08-28T10:32:54.000Z</time>
      </trkpt>
      <trkpt lat="45.72887" lon="4.88022">
        <ele>167.60000610352</ele>
        <time>2014-08-28T10:32:59.000Z</time>
      </trkpt>
      <trkpt lat="45.72898" lon="4.88008">
        <ele>167.60000610352</ele>
        <time>2014-08-28T10:33:04.000Z</time>
      </trkpt>
      <trkpt lat="45.72908" lon="4.87994">
        <ele>167.60000610352</ele>
        <time>2014-08-28T10:33:09.000Z</time>
      </trkpt>
      <trkpt lat="45.72916" lon="4.87981">
        <ele>167.60000610352</ele>
        <time>2014-08-28T10:33:13.000Z</time>
      </trkpt>
      <trkpt lat="45.72917" lon="4.87977">
        <ele>167.60000610352</ele>
        <time>2014-08-28T10:33:14.000Z</time>
      </trkpt>
      <trkpt lat="45.72922" lon="4.87967">
        <ele>167.60000610352</ele>
        <time>2014-08-28T10:33:18.000Z</time>
      </trkpt>
      <trkpt lat="45.72926" lon="4.87952">
        <ele>167.60000610352</ele>
        <time>2014-08-28T10:33:23.000Z</time>
      </trkpt>
      <trkpt lat="45.72933" lon="4.87933">
        <ele>167.60000610352</ele>
        <time>2014-08-28T10:33:29.000Z</time>
      </trkpt>
      <trkpt lat="45.7294" lon="4.87917">
        <ele>167.60000610352</ele>
        <time>2014-08-28T10:33:34.000Z</time>
      </trkpt>
      <trkpt lat="45.72946" lon="4.87903">
        <ele>167.60000610352</ele>
        <time>2014-08-28T10:33:39.000Z</time>
      </trkpt>
      <trkpt lat="45.72953" lon="4.87887">
        <ele>167.60000610352</ele>
        <time>2014-08-28T10:33:44.000Z</time>
      </trkpt>
      <trkpt lat="45.72961" lon="4.87873">
        <ele>167.60000610352</ele>
        <time>2014-08-28T10:33:49.000Z</time>
      </trkpt>
      <trkpt lat="45.72973" lon="4.87859">
        <ele>167.60000610352</ele>
        <time>2014-08-28T10:33:54.000Z</time>
      </trkpt>
      <trkpt lat="45.72975" lon="4.87857">
        <ele>167.60000610352</ele>
        <time>2014-08-28T10:33:55.000Z</time>
      </trkpt>
      <trkpt lat="45.72981" lon="4.87851">
        <ele>167.60000610352</ele>
        <time>2014-08-28T10:33:58.000Z</time>
      </trkpt>
      <trkpt lat="45.72987" lon="4.87843">
        <ele>167.60000610352</ele>
        <time>2014-08-28T10:34:01.000Z</time>
      </trkpt>
      <trkpt lat="45.72991" lon="4.87838">
        <ele>167.60000610352</ele>
        <time>2014-08-28T10:34:03.000Z</time>
      </trkpt>
      <trkpt lat="45.73003" lon="4.87826">
        <ele>167.60000610352</ele>
        <time>2014-08-28T10:34:09.000Z</time>
      </trkpt>
      <trkpt lat="45.7301" lon="4.87818">
        <ele>167.60000610352</ele>
        <time>2014-08-28T10:34:12.000Z</time>
      </trkpt>
      <trkpt lat="45.73018" lon="4.87804">
        <ele>167.60000610352</ele>
        <time>2014-08-28T10:34:17.000Z</time>
      </trkpt>
      <trkpt lat="45.73027" lon="4.87791">
        <ele>167.60000610352</ele>
        <time>2014-08-28T10:34:21.000Z</time>
      </trkpt>
      <trkpt lat="45.73036" lon="4.87781">
        <ele>167.60000610352</ele>
        <time>2014-08-28T10:34:25.000Z</time>
      </trkpt>
      <trkpt lat="45.73046" lon="4.87769">
        <ele>167.60000610352</ele>
        <time>2014-08-28T10:34:30.000Z</time>
      </trkpt>
      <trkpt lat="45.73047" lon="4.87767">
        <ele>167.60000610352</ele>
        <time>2014-08-28T10:34:31.000Z</time>
      </trkpt>
      <trkpt lat="45.73051" lon="4.87761">
        <ele>167.60000610352</ele>
        <time>2014-08-28T10:34:33.000Z</time>
      </trkpt>
      <trkpt lat="45.73061" lon="4.87748">
        <ele>167.60000610352</ele>
        <time>2014-08-28T10:34:38.000Z</time>
      </trkpt>
      <trkpt lat="45.73072" lon="4.87737">
        <ele>167.60000610352</ele>
        <time>2014-08-28T10:34:43.000Z</time>
      </trkpt>
      <trkpt lat="45.73079" lon="4.8773">
        <ele>167.60000610352</ele>
        <time>2014-08-28T10:34:47.000Z</time>
      </trkpt>
      <trkpt lat="45.73085" lon="4.87729">
        <ele>167.60000610352</ele>
        <time>2014-08-28T10:34:50.000Z</time>
      </trkpt>
      <trkpt lat="45.73086" lon="4.87727">
        <ele>167.60000610352</ele>
        <time>2014-08-28T10:34:51.000Z</time>
      </trkpt>
      <trkpt lat="45.73088" lon="4.87724">
        <ele>167.60000610352</ele>
        <time>2014-08-28T10:34:53.000Z</time>
      </trkpt>
      <trkpt lat="45.7309" lon="4.8772">
        <ele>167.60000610352</ele>
        <time>2014-08-28T10:34:55.000Z</time>
      </trkpt>
      <trkpt lat="45.73091" lon="4.87713">
        <ele>167.60000610352</ele>
        <time>2014-08-28T10:34:59.000Z</time>
      </trkpt>
      <trkpt lat="45.73095" lon="4.87702">
        <ele>167.60000610352</ele>
        <time>2014-08-28T10:35:03.000Z</time>
      </trkpt>
      <trkpt lat="45.73124" lon="4.87646">
        <ele>167.60000610352</ele>
        <time>2014-08-28T10:35:04.000Z</time>
      </trkpt>
      <trkpt lat="45.73126" lon="4.87647">
        <ele>167.60000610352</ele>
        <time>2014-08-28T10:35:06.000Z</time>
      </trkpt>
      <trkpt lat="45.73132" lon="4.87642">
        <ele>167.60000610352</ele>
        <time>2014-08-28T10:35:11.000Z</time>
      </trkpt>
      <trkpt lat="45.7314" lon="4.87639">
        <ele>167.60000610352</ele>
        <time>2014-08-28T10:35:15.000Z</time>
      </trkpt>
      <trkpt lat="45.73147" lon="4.8764">
        <ele>167.60000610352</ele>
        <time>2014-08-28T10:35:18.000Z</time>
      </trkpt>
      <trkpt lat="45.73153" lon="4.87633">
        <ele>167.60000610352</ele>
        <time>2014-08-28T10:35:22.000Z</time>
      </trkpt>
      <trkpt lat="45.7316" lon="4.87623">
        <ele>167.60000610352</ele>
        <time>2014-08-28T10:35:26.000Z</time>
      </trkpt>
      <trkpt lat="45.7317" lon="4.87608">
        <ele>167.60000610352</ele>
        <time>2014-08-28T10:35:31.000Z</time>
      </trkpt>
      <trkpt lat="45.7318" lon="4.87593">
        <ele>167.60000610352</ele>
        <time>2014-08-28T10:35:36.000Z</time>
      </trkpt>
      <trkpt lat="45.7319" lon="4.87583">
        <ele>167.60000610352</ele>
        <time>2014-08-28T10:35:40.000Z</time>
      </trkpt>
      <trkpt lat="45.73193" lon="4.87577">
        <ele>167.60000610352</ele>
        <time>2014-08-28T10:35:43.000Z</time>
      </trkpt>
      <trkpt lat="45.73193" lon="4.87575">
        <ele>167.60000610352</ele>
        <time>2014-08-28T10:35:44.000Z</time>
      </trkpt>
      <trkpt lat="45.73193" lon="4.87572">
        <ele>167.60000610352</ele>
        <time>2014-08-28T10:35:47.000Z</time>
      </trkpt>
      <trkpt lat="45.73194" lon="4.8757">
        <ele>167.60000610352</ele>
        <time>2014-08-28T10:35:48.000Z</time>
      </trkpt>
      <trkpt lat="45.73198" lon="4.87557">
        <ele>167.60000610352</ele>
        <time>2014-08-28T10:35:52.000Z</time>
      </trkpt>
      <trkpt lat="45.732" lon="4.87548">
        <ele>167.60000610352</ele>
        <time>2014-08-28T10:35:55.000Z</time>
      </trkpt>
      <trkpt lat="45.73202" lon="4.87546">
        <ele>167.60000610352</ele>
        <time>2014-08-28T10:35:56.000Z</time>
      </trkpt>
      <trkpt lat="45.73207" lon="4.87537">
        <ele>167.60000610352</ele>
        <time>2014-08-28T10:36:00.000Z</time>
      </trkpt>
      <trkpt lat="45.73208" lon="4.87535">
        <ele>167.60000610352</ele>
        <time>2014-08-28T10:36:01.000Z</time>
      </trkpt>
      <trkpt lat="45.73218" lon="4.87525">
        <ele>167.60000610352</ele>
        <time>2014-08-28T10:36:06.000Z</time>
      </trkpt>
      <trkpt lat="45.73228" lon="4.87518">
        <ele>167.60000610352</ele>
        <time>2014-08-28T10:36:11.000Z</time>
      </trkpt>
      <trkpt lat="45.73243" lon="4.87507">
        <ele>167.60000610352</ele>
        <time>2014-08-28T10:36:18.000Z</time>
      </trkpt>
      <trkpt lat="45.73253" lon="4.87499">
        <ele>167.60000610352</ele>
        <time>2014-08-28T10:36:22.000Z</time>
      </trkpt>
      <trkpt lat="45.73255" lon="4.87497">
        <ele>167.60000610352</ele>
        <time>2014-08-28T10:36:23.000Z</time>
      </trkpt>
      <trkpt lat="45.7326" lon="4.87487">
        <ele>167.60000610352</ele>
        <time>2014-08-28T10:36:26.000Z</time>
      </trkpt>
      <trkpt lat="45.73266" lon="4.87477">
        <ele>167.60000610352</ele>
        <time>2014-08-28T10:36:30.000Z</time>
      </trkpt>
      <trkpt lat="45.73268" lon="4.87471">
        <ele>167.60000610352</ele>
        <time>2014-08-28T10:36:32.000Z</time>
      </trkpt>
      <trkpt lat="45.73276" lon="4.87456">
        <ele>167.60000610352</ele>
        <time>2014-08-28T10:36:38.000Z</time>
      </trkpt>
      <trkpt lat="45.73287" lon="4.87445">
        <ele>167.60000610352</ele>
        <time>2014-08-28T10:36:43.000Z</time>
      </trkpt>
      <trkpt lat="45.73298" lon="4.87426">
        <ele>167.60000610352</ele>
        <time>2014-08-28T10:36:49.000Z</time>
      </trkpt>
      <trkpt lat="45.73308" lon="4.87411">
        <ele>167.60000610352</ele>
        <time>2014-08-28T10:36:54.000Z</time>
      </trkpt>
      <trkpt lat="45.73315" lon="4.87397">
        <ele>167.60000610352</ele>
        <time>2014-08-28T10:36:58.000Z</time>
      </trkpt>
      <trkpt lat="45.73322" lon="4.87388">
        <ele>167.60000610352</ele>
        <time>2014-08-28T10:37:01.000Z</time>
      </trkpt>
      <trkpt lat="45.73326" lon="4.87383">
        <ele>167.19999694824</ele>
        <time>2014-08-28T10:37:03.000Z</time>
      </trkpt>
      <trkpt lat="45.73328" lon="4.87381">
        <ele>166.80000305176</ele>
        <time>2014-08-28T10:37:04.000Z</time>
      </trkpt>
      <trkpt lat="45.7333" lon="4.87379">
        <ele>166.39999389648</ele>
        <time>2014-08-28T10:37:05.000Z</time>
      </trkpt>
      <trkpt lat="45.73332" lon="4.87376">
        <ele>165.80000305176</ele>
        <time>2014-08-28T10:37:06.000Z</time>
      </trkpt>
      <trkpt lat="45.73334" lon="4.87374">
        <ele>165.39999389648</ele>
        <time>2014-08-28T10:37:07.000Z</time>
      </trkpt>
      <trkpt lat="45.73339" lon="4.8737">
        <ele>165.39999389648</ele>
        <time>2014-08-28T10:37:09.000Z</time>
      </trkpt>
      <trkpt lat="45.73345" lon="4.87364">
        <ele>165.39999389648</ele>
        <time>2014-08-28T10:37:12.000Z</time>
      </trkpt>
      <trkpt lat="45.73349" lon="4.87366">
        <ele>165.39999389648</ele>
        <time>2014-08-28T10:37:14.000Z</time>
      </trkpt>
      <trkpt lat="45.73355" lon="4.87364">
        <ele>165.39999389648</ele>
        <time>2014-08-28T10:37:16.000Z</time>
      </trkpt>
      <trkpt lat="45.73356" lon="4.87362">
        <ele>165.39999389648</ele>
        <time>2014-08-28T10:37:17.000Z</time>
      </trkpt>
      <trkpt lat="45.73364" lon="4.8735">
        <ele>165.39999389648</ele>
        <time>2014-08-28T10:37:21.000Z</time>
      </trkpt>
      <trkpt lat="45.73371" lon="4.87339">
        <ele>165.39999389648</ele>
        <time>2014-08-28T10:37:25.000Z</time>
      </trkpt>
      <trkpt lat="45.73372" lon="4.87336">
        <ele>165.39999389648</ele>
        <time>2014-08-28T10:37:26.000Z</time>
      </trkpt>
      <trkpt lat="45.73375" lon="4.87338">
        <ele>165.39999389648</ele>
        <time>2014-08-28T10:37:29.000Z</time>
      </trkpt>
      <trkpt lat="45.73385" lon="4.87354">
        <ele>165.39999389648</ele>
        <time>2014-08-28T10:37:33.000Z</time>
      </trkpt>
      <trkpt lat="45.7339" lon="4.87358">
        <ele>165.39999389648</ele>
        <time>2014-08-28T10:37:35.000Z</time>
      </trkpt>
      <trkpt lat="45.73399" lon="4.87363">
        <ele>165.39999389648</ele>
        <time>2014-08-28T10:37:38.000Z</time>
      </trkpt>
      <trkpt lat="45.73412" lon="4.87368">
        <ele>165.39999389648</ele>
        <time>2014-08-28T10:37:43.000Z</time>
      </trkpt>
      <trkpt lat="45.73415" lon="4.87369">
        <ele>165.39999389648</ele>
        <time>2014-08-28T10:37:44.000Z</time>
      </trkpt>
      <trkpt lat="45.7342" lon="4.87371">
        <ele>165.39999389648</ele>
        <time>2014-08-28T10:37:46.000Z</time>
      </trkpt>
      <trkpt lat="45.73436" lon="4.87379">
        <ele>165.39999389648</ele>
        <time>2014-08-28T10:37:52.000Z</time>
      </trkpt>
      <trkpt lat="45.73439" lon="4.8738">
        <ele>165.39999389648</ele>
        <time>2014-08-28T10:37:53.000Z</time>
      </trkpt>
      <trkpt lat="45.73444" lon="4.87379">
        <ele>165.39999389648</ele>
        <time>2014-08-28T10:37:55.000Z</time>
      </trkpt>
      <trkpt lat="45.7346" lon="4.87374">
        <ele>165.39999389648</ele>
        <time>2014-08-28T10:38:00.000Z</time>
      </trkpt>
      <trkpt lat="45.73476" lon="4.87372">
        <ele>165.39999389648</ele>
        <time>2014-08-28T10:38:05.000Z</time>
      </trkpt>
      <trkpt lat="45.73488" lon="4.87375">
        <ele>165.39999389648</ele>
        <time>2014-08-28T10:38:09.000Z</time>
      </trkpt>
      <trkpt lat="45.73501" lon="4.87373">
        <ele>165.39999389648</ele>
        <time>2014-08-28T10:38:14.000Z</time>
      </trkpt>
      <trkpt lat="45.73512" lon="4.87376">
        <ele>165.39999389648</ele>
        <time>2014-08-28T10:38:18.000Z</time>
      </trkpt>
      <trkpt lat="45.73514" lon="4.87375">
        <ele>165.39999389648</ele>
        <time>2014-08-28T10:38:19.000Z</time>
      </trkpt>
      <trkpt lat="45.73522" lon="4.87372">
        <ele>165.39999389648</ele>
        <time>2014-08-28T10:38:22.000Z</time>
      </trkpt>
      <trkpt lat="45.73527" lon="4.87371">
        <ele>165.39999389648</ele>
        <time>2014-08-28T10:38:24.000Z</time>
      </trkpt>
      <trkpt lat="45.73536" lon="4.8737">
        <ele>165.39999389648</ele>
        <time>2014-08-28T10:38:28.000Z</time>
      </trkpt>
      <trkpt lat="45.73538" lon="4.8737">
        <ele>165.39999389648</ele>
        <time>2014-08-28T10:38:29.000Z</time>
      </trkpt>
      <trkpt lat="45.73552" lon="4.87376">
        <ele>165.39999389648</ele>
        <time>2014-08-28T10:38:34.000Z</time>
      </trkpt>
      <trkpt lat="45.73561" lon="4.8738">
        <ele>165.39999389648</ele>
        <time>2014-08-28T10:38:39.000Z</time>
      </trkpt>
      <trkpt lat="45.73571" lon="4.87379">
        <ele>165.39999389648</ele>
        <time>2014-08-28T10:38:43.000Z</time>
      </trkpt>
      <trkpt lat="45.73586" lon="4.87383">
        <ele>165.39999389648</ele>
        <time>2014-08-28T10:38:49.000Z</time>
      </trkpt>
      <trkpt lat="45.73594" lon="4.87384">
        <ele>165.39999389648</ele>
        <time>2014-08-28T10:38:52.000Z</time>
      </trkpt>
      <trkpt lat="45.73597" lon="4.87385">
        <ele>165.39999389648</ele>
        <time>2014-08-28T10:38:53.000Z</time>
      </trkpt>
      <trkpt lat="45.73602" lon="4.87385">
        <ele>165.39999389648</ele>
        <time>2014-08-28T10:38:55.000Z</time>
      </trkpt>
      <trkpt lat="45.73611" lon="4.87383">
        <ele>165.39999389648</ele>
        <time>2014-08-28T10:38:58.000Z</time>
      </trkpt>
      <trkpt lat="45.73622" lon="4.87384">
        <ele>165.39999389648</ele>
        <time>2014-08-28T10:39:02.000Z</time>
      </trkpt>
      <trkpt lat="45.73636" lon="4.87383">
        <ele>165.39999389648</ele>
        <time>2014-08-28T10:39:07.000Z</time>
      </trkpt>
      <trkpt lat="45.73653" lon="4.87386">
        <ele>165.39999389648</ele>
        <time>2014-08-28T10:39:13.000Z</time>
      </trkpt>
      <trkpt lat="45.73666" lon="4.87387">
        <ele>165.39999389648</ele>
        <time>2014-08-28T10:39:18.000Z</time>
      </trkpt>
      <trkpt lat="45.73675" lon="4.87387">
        <ele>165.39999389648</ele>
        <time>2014-08-28T10:39:22.000Z</time>
      </trkpt>
      <trkpt lat="45.73677" lon="4.87387">
        <ele>165.39999389648</ele>
        <time>2014-08-28T10:39:23.000Z</time>
      </trkpt>
      <trkpt lat="45.73688" lon="4.87388">
        <ele>165.39999389648</ele>
        <time>2014-08-28T10:39:28.000Z</time>
      </trkpt>
      <trkpt lat="45.73691" lon="4.8739">
        <ele>165.39999389648</ele>
        <time>2014-08-28T10:39:30.000Z</time>
      </trkpt>
      <trkpt lat="45.73695" lon="4.87389">
        <ele>165.39999389648</ele>
        <time>2014-08-28T10:39:32.000Z</time>
      </trkpt>
      <trkpt lat="45.73696" lon="4.87389">
        <ele>165.39999389648</ele>
        <time>2014-08-28T10:39:33.000Z</time>
      </trkpt>
      <trkpt lat="45.73705" lon="4.87384">
        <ele>165.39999389648</ele>
        <time>2014-08-28T10:39:36.000Z</time>
      </trkpt>
      <trkpt lat="45.73709" lon="4.87382">
        <ele>165.39999389648</ele>
        <time>2014-08-28T10:39:39.000Z</time>
      </trkpt>
      <trkpt lat="45.73711" lon="4.87377">
        <ele>165.39999389648</ele>
        <time>2014-08-28T10:39:42.000Z</time>
      </trkpt>
      <trkpt lat="45.73713" lon="4.87373">
        <ele>165.39999389648</ele>
        <time>2014-08-28T10:39:44.000Z</time>
      </trkpt>
      <trkpt lat="45.73714" lon="4.87365">
        <ele>165.80000305176</ele>
        <time>2014-08-28T10:39:46.000Z</time>
      </trkpt>
      <trkpt lat="45.73714" lon="4.87361">
        <ele>166.19999694824</ele>
        <time>2014-08-28T10:39:47.000Z</time>
      </trkpt>
      <trkpt lat="45.73714" lon="4.87357">
        <ele>166.60000610352</ele>
        <time>2014-08-28T10:39:48.000Z</time>
      </trkpt>
      <trkpt lat="45.73715" lon="4.87354">
        <ele>167</ele>
        <time>2014-08-28T10:39:49.000Z</time>
      </trkpt>
      <trkpt lat="45.73716" lon="4.87352">
        <ele>167.60000610352</ele>
        <time>2014-08-28T10:39:50.000Z</time>
      </trkpt>
      <trkpt lat="45.73719" lon="4.87346">
        <ele>167.60000610352</ele>
        <time>2014-08-28T10:39:52.000Z</time>
      </trkpt>
      <trkpt lat="45.73722" lon="4.87327">
        <ele>167.60000610352</ele>
        <time>2014-08-28T10:39:58.000Z</time>
      </trkpt>
      <trkpt lat="45.73725" lon="4.87308">
        <ele>167.60000610352</ele>
        <time>2014-08-28T10:40:03.000Z</time>
      </trkpt>
      <trkpt lat="45.73727" lon="4.87293">
        <ele>167.60000610352</ele>
        <time>2014-08-28T10:40:07.000Z</time>
      </trkpt>
      <trkpt lat="45.73732" lon="4.87277">
        <ele>167.60000610352</ele>
        <time>2014-08-28T10:40:12.000Z</time>
      </trkpt>
      <trkpt lat="45.73737" lon="4.87266">
        <ele>167.60000610352</ele>
        <time>2014-08-28T10:40:16.000Z</time>
      </trkpt>
      <trkpt lat="45.73741" lon="4.87256">
        <ele>167.60000610352</ele>
        <time>2014-08-28T10:40:21.000Z</time>
      </trkpt>
      <trkpt lat="45.73742" lon="4.87251">
        <ele>166.60000610352</ele>
        <time>2014-08-28T10:40:25.000Z</time>
      </trkpt>
      <trkpt lat="45.73742" lon="4.8725">
        <ele>166.39999389648</ele>
        <time>2014-08-28T10:40:26.000Z</time>
      </trkpt>
      <trkpt lat="45.73744" lon="4.87255">
        <ele>166.19999694824</ele>
        <time>2014-08-28T10:40:27.000Z</time>
      </trkpt>
      <trkpt lat="45.73746" lon="4.87257">
        <ele>167.19999694824</ele>
        <time>2014-08-28T10:40:28.000Z</time>
      </trkpt>
      <trkpt lat="45.73747" lon="4.87257">
        <ele>167.19999694824</ele>
        <time>2014-08-28T10:40:29.000Z</time>
      </trkpt>
    </trkseg>
  </trk>
</gpx>